Provisional Data: Long Run near Gaines, PA


Please select a monitoring station.
Please select start date.
Please select start date.

Toggle Unit: C/F Toggle Unit: C/F
Sample Time Temperature (C) Temperature (F) Specific Conductivity (mS/cm) pH   Turbidity (NTU+) DO (mg/L)
5/4/2021 12:00:00 AM 10.28 50.504 0.076 7.32 2.98 11.23
5/4/2021 12:15:00 AM 10.27 50.486 0.077 7.31 3.07 11.23
5/4/2021 12:30:00 AM 10.26 50.468 0.077 7.31 3.43 11.23
5/4/2021 12:45:00 AM 10.25 50.45 0.077 7.31 3.15 11.23
5/4/2021 1:00:00 AM 10.23 50.414 0.077 7.31 3.07 11.24
5/4/2021 1:15:00 AM 10.23 50.414 0.077 7.31 2.99 11.24
5/4/2021 1:30:00 AM 10.22 50.396 0.077 7.31 3.07 11.24
5/4/2021 1:45:00 AM 10.21 50.378 0.077 7.3 3.04 11.24
5/4/2021 2:00:00 AM 10.2 50.36 0.077 7.3 3.1 11.24
5/4/2021 2:15:00 AM 10.2 50.36 0.077 7.31 3.09 11.24
5/4/2021 2:30:00 AM 10.19 50.342 0.077 7.32 3.04 11.25
5/4/2021 2:45:00 AM 10.18 50.324 0.077 7.31 3.3 11.26
5/4/2021 3:00:00 AM 10.17 50.306 0.077 7.29 3.08 11.25
5/4/2021 3:15:00 AM 10.17 50.306 0.077 7.3 3.2 11.25
5/4/2021 3:30:00 AM 10.16 50.288 0.077 7.3 3.19 11.25
5/4/2021 3:45:00 AM 10.15 50.27 0.078 7.3 3.14 11.25
5/4/2021 4:00:00 AM 10.15 50.27 0.078 7.28 3.03 11.25
5/4/2021 4:15:00 AM 10.14 50.252 0.078 7.29 3.06 11.26
5/4/2021 4:30:00 AM 10.15 50.27 0.077 7.28 3.04 11.25
5/4/2021 4:45:00 AM 10.15 50.27 0.077 7.28 3.21 11.25
5/4/2021 5:00:00 AM 10.14 50.252 0.077 7.28 3.25 11.25
5/4/2021 5:15:00 AM 10.14 50.252 0.077 7.28 3.2 11.25
5/4/2021 5:30:00 AM 10.13 50.234 0.077 7.29 3.14 11.26
5/4/2021 5:45:00 AM 10.12 50.216 0.078 7.29 3.19 11.25
5/4/2021 6:00:00 AM 10.11 50.198 0.078 7.29 3.18 11.26
5/4/2021 6:15:00 AM 10.11 50.198 0.078 7.29 4.05 11.27
5/4/2021 6:30:00 AM 10.1 50.18 0.078 7.29 3.23 11.28
5/4/2021 6:45:00 AM 10.1 50.18 0.078 7.28 3.07 11.3
5/4/2021 7:00:00 AM 10.1 50.18 0.078 7.28 3.1 11.32
5/4/2021 7:15:00 AM 10.11 50.198 0.078 7.31 3.06 11.34
5/4/2021 7:30:00 AM 10.11 50.198 0.078 7.3 2.89 11.35
5/4/2021 7:45:00 AM 10.11 50.198 0.078 7.31 2.99 11.38
5/4/2021 8:00:00 AM 10.13 50.234 0.078 7.32 2.91 11.42
5/4/2021 8:15:00 AM 10.15 50.27 0.078 7.33 2.83 11.47
5/4/2021 8:30:00 AM 10.19 50.342 0.078 7.37 2.85 11.54
5/4/2021 8:45:00 AM 10.23 50.414 0.078 7.39 2.84 11.55
5/4/2021 9:00:00 AM 10.27 50.486 0.078 7.42 2.7 11.57
5/4/2021 9:15:00 AM 10.35 50.63 0.078 7.46 2.77 11.63
5/4/2021 9:30:00 AM 10.44 50.792 0.077 7.48 2.8 11.65
5/4/2021 9:45:00 AM 10.52 50.936 0.077 7.52 2.72 11.64
5/4/2021 10:00:00 AM 10.59 51.062 0.077 7.52 2.69 11.66
5/4/2021 10:15:00 AM 10.76 51.368 0.077 7.57 2.74 11.66
5/4/2021 10:30:00 AM 10.97 51.746 0.077 7.58 2.85 11.62
5/4/2021 10:45:00 AM 11.23 52.214 0.077 7.6 2.72 11.59
5/4/2021 11:00:00 AM 11.36 52.448 0.077 7.6 2.81 11.57
5/4/2021 11:15:00 AM 11.47 52.646 0.077 7.6 2.8 11.53
5/4/2021 11:30:00 AM 11.57 52.826 0.077 7.62 2.88 11.5
5/4/2021 11:45:00 AM 11.74 53.132 0.077 7.64 2.84 11.49
5/4/2021 12:00:00 PM 12.01 53.618 0.077 7.65 2.92 11.46
5/4/2021 12:15:00 PM 12.1 53.78 0.077 7.65 2.89 11.41
5/4/2021 12:30:00 PM 12.26 54.068 0.077 7.65 2.9 11.4
5/4/2021 12:45:00 PM 12.49 54.482 0.077 7.66 2.85 11.36
5/4/2021 1:00:00 PM 12.68 54.824 0.077 7.67 2.98 11.31
5/4/2021 1:15:00 PM 12.75 54.95 0.077 7.66 2.95 11.26
5/4/2021 1:30:00 PM 12.76 54.968 0.077 7.66 2.91 11.22
5/4/2021 1:45:00 PM 12.75 54.95 0.077 7.65 2.93 11.21
5/4/2021 2:00:00 PM 12.79 55.022 0.077 7.66 2.96 11.2
5/4/2021 2:15:00 PM 12.86 55.148 0.077 7.66 2.86 11.17
5/4/2021 2:30:00 PM 12.93 55.274 0.077 7.67 3.06 11.16
5/4/2021 2:45:00 PM 13.04 55.472 0.077 7.69 2.92 11.17
5/4/2021 3:00:00 PM 13.12 55.616 0.077 7.67 3.12 11.13
5/4/2021 3:15:00 PM 13.19 55.742 0.077 7.69 3.08 11.13
5/4/2021 3:30:00 PM 13.17 55.706 0.077 7.67 3 11.06
5/4/2021 3:45:00 PM 13.16 55.688 0.077 7.65 3.02 11.04
5/4/2021 4:00:00 PM 13.14 55.652 0.077 7.65 3 11.02
5/4/2021 4:15:00 PM 13.1 55.58 0.077 7.63 2.96 11.03
5/4/2021 4:30:00 PM 13.07 55.526 0.077 7.63 3.08 11.01
5/4/2021 4:45:00 PM 13.01 55.418 0.077 7.62 3.02 10.95
5/4/2021 5:00:00 PM 12.94 55.292 0.077 7.58 3.12 10.89
5/4/2021 5:15:00 PM 12.88 55.184 0.077 7.56 3.05 10.91
5/4/2021 5:30:00 PM 12.85 55.13 0.077 7.56 3.02 10.94
5/4/2021 5:45:00 PM 12.82 55.076 0.077 7.58 2.97 10.98
5/4/2021 6:00:00 PM 12.81 55.058 0.077 7.59 3.02 11
5/4/2021 6:15:00 PM 12.78 55.004 0.077 7.6 3.11 11
5/4/2021 6:30:00 PM 12.75 54.95 0.077 7.6 3 11
5/4/2021 6:45:00 PM 12.72 54.896 0.077 7.59 3.14 10.99
5/4/2021 7:00:00 PM 12.68 54.824 0.077 7.58 3.16 10.95
5/4/2021 7:15:00 PM 12.64 54.752 0.077 7.57 3.06 10.93
5/4/2021 7:30:00 PM 12.59 54.662 0.077 7.53 3.09 10.86
5/4/2021 7:45:00 PM 12.53 54.554 0.078 7.51 3.13 10.82
5/4/2021 8:00:00 PM 12.48 54.464 0.078 7.48 3.3 10.78
5/4/2021 8:15:00 PM 12.43 54.374 0.078 7.47 3.23 10.75
5/4/2021 8:30:00 PM 12.37 54.266 0.078 7.46 3.32 10.74
5/4/2021 8:45:00 PM 12.31 54.158 0.078 7.44 3.35 10.73
5/4/2021 9:00:00 PM 12.24 54.032 0.078 7.43 3.43 10.73
5/4/2021 9:15:00 PM 12.18 53.924 0.078 7.42 3.39 10.74
5/4/2021 9:30:00 PM 12.13 53.834 0.078 7.41 3.44 10.75
5/4/2021 9:45:00 PM 12.07 53.726 0.078 7.39 3.47 10.75
5/4/2021 10:00:00 PM 12.02 53.636 0.078 7.37 3.34 10.76
5/4/2021 10:15:00 PM 11.96 53.528 0.079 7.37 3.5 10.77
5/4/2021 10:30:00 PM 11.91 53.438 0.079 7.36 3.33 10.79
5/4/2021 10:45:00 PM 11.86 53.348 0.079 7.37 3.47 10.81
5/4/2021 11:00:00 PM 11.81 53.258 0.079 7.35 3.37 10.81
5/4/2021 11:15:00 PM 11.77 53.186 0.079 7.35 3.35 10.82
5/4/2021 11:30:00 PM 11.74 53.132 0.079 7.37 3.28 10.84
5/4/2021 11:45:00 PM 11.7 53.06 0.079 7.36 3.37 10.84
5/5/2021 12:00:00 AM 11.67 53.006 0.079 7.36 3.37 10.85
5/5/2021 12:15:00 AM 11.65 52.97 0.079 7.35 3.37 10.85
5/5/2021 12:30:00 AM 11.62 52.916 0.079 7.35 3.35 10.86
5/5/2021 12:45:00 AM 11.59 52.862 0.079 7.34 3.38 10.86
5/5/2021 1:00:00 AM 11.56 52.808 0.079 7.37 3.32 10.88
5/5/2021 1:15:00 AM 11.52 52.736 0.079 7.36 3.34 10.88
5/5/2021 1:30:00 AM 11.49 52.682 0.079 7.36 3.39 10.89
5/5/2021 1:45:00 AM 11.46 52.628 0.079 7.34 3.38 10.91
5/5/2021 2:00:00 AM 11.42 52.556 0.079 7.36 3.52 10.91
5/5/2021 2:15:00 AM 11.39 52.502 0.079 7.34 3.39 10.92
5/5/2021 2:30:00 AM 11.35 52.43 0.079 7.34 3.74 10.92
5/5/2021 2:45:00 AM 11.32 52.376 0.079 7.33 3.39 10.94
5/5/2021 3:00:00 AM 11.3 52.34 0.079 7.35 3.46 10.94
5/5/2021 3:15:00 AM 11.27 52.286 0.079 7.34 3.6 10.96
5/5/2021 3:30:00 AM 11.23 52.214 0.079 7.34 3.4 10.96
5/5/2021 3:45:00 AM 11.19 52.142 0.079 7.34 4.05 10.97
5/5/2021 4:00:00 AM 11.15 52.07 0.079 7.35 3.42 10.98
5/5/2021 4:15:00 AM 11.12 52.016 0.079 7.34 3.48 10.98
5/5/2021 4:30:00 AM 11.09 51.962 0.08 7.34 3.5 10.99
5/5/2021 4:45:00 AM 11.07 51.926 0.08 7.35 3.57 11
5/5/2021 5:00:00 AM 11.04 51.872 0.08 7.35 3.48 11
5/5/2021 5:15:00 AM 11.02 51.836 0.08 7.34 3.49 11.01
5/5/2021 5:30:00 AM 11 51.8 0.08 7.34 3.5 11.02
5/5/2021 5:45:00 AM 10.97 51.746 0.08 7.34 3.77 11.02
5/5/2021 6:00:00 AM 10.95 51.71 0.08 7.34 3.68 11.03
5/5/2021 6:15:00 AM 10.93 51.674 0.08 7.35 3.48 11.04
5/5/2021 6:30:00 AM 10.92 51.656 0.08 7.33 3.66 11.05
5/5/2021 6:45:00 AM 10.91 51.638 0.08 7.34 3.6 11.07
5/5/2021 7:00:00 AM 10.91 51.638 0.08 7.36 3.57 11.12
5/5/2021 7:15:00 AM 10.9 51.62 0.08 7.39 3.58 11.16
5/5/2021 7:30:00 AM 10.9 51.62 0.08 7.39 3.45 11.2
5/5/2021 7:45:00 AM 10.9 51.62 0.08 7.41 3.55 11.22
5/5/2021 8:00:00 AM 10.9 51.62 0.08 7.42 3.35 11.24
5/5/2021 8:15:00 AM 10.9 51.62 0.08 7.44 3.4 11.24
5/5/2021 8:30:00 AM 10.89 51.602 0.08 7.46 3.29 11.24
5/5/2021 8:45:00 AM 10.89 51.602 0.08 7.47 3.37 11.25
5/5/2021 9:00:00 AM 10.88 51.584 0.08 7.46 3.35 11.26
5/5/2021 9:15:00 AM 10.88 51.584 0.079 7.49 3.4 11.27
5/5/2021 9:30:00 AM 10.88 51.584 0.079 7.49 3.39 11.33
5/5/2021 9:45:00 AM 10.88 51.584 0.079 7.51 3.43 11.34
5/5/2021 10:00:00 AM 10.89 51.602 0.079 7.51 3.45 11.39
5/5/2021 10:15:00 AM 10.93 51.674 0.079 7.53 3.41 11.45
5/5/2021 10:30:00 AM 10.96 51.728 0.079 7.55 3.36 11.47
5/5/2021 10:45:00 AM 10.99 51.782 0.078 7.57 3.38 11.5
5/5/2021 11:00:00 AM 11.02 51.836 0.078 7.58 3.36 11.5
5/5/2021 11:15:00 AM 11.03 51.854 0.078 7.58 3.33 11.49
5/5/2021 11:30:00 AM 11.02 51.836 0.078 7.58 3.41 11.5
5/5/2021 11:45:00 AM 11.03 51.854 0.078 7.6 3.43 11.53
5/5/2021 12:00:00 PM 11.05 51.89 0.078 7.61 3.53 11.56
5/5/2021 12:15:00 PM 11.09 51.962 0.078 7.61 3.45 11.58
5/5/2021 12:30:00 PM 11.13 52.034 0.078 7.65 3.51 11.58
5/5/2021 12:45:00 PM 11.17 52.106 0.078 7.64 3.37 11.59
5/5/2021 1:00:00 PM 11.27 52.286 0.078 7.65 3.33 11.61
5/5/2021 1:15:00 PM 11.32 52.376 0.078 7.66 3.4 11.58
5/5/2021 1:30:00 PM 11.33 52.394 0.078 7.66 3.5 11.56
5/5/2021 1:45:00 PM 11.33 52.394 0.078 7.66 3.48 11.56
5/5/2021 2:00:00 PM 11.37 52.466 0.078 7.66 3.42 11.57
5/5/2021 2:15:00 PM 11.42 52.556 0.078 7.66 3.44 11.58
5/5/2021 2:30:00 PM 11.45 52.61 0.078 7.67 3.59 11.55
5/5/2021 2:45:00 PM 11.44 52.592 0.078 7.67 3.52 11.56
5/5/2021 3:00:00 PM 11.45 52.61 0.078 7.67 3.41 11.56
5/5/2021 3:15:00 PM 11.42 52.556 0.078 7.68 3.54 11.54
5/5/2021 3:30:00 PM 11.35 52.43 0.078 7.66 3.58 11.48
5/5/2021 3:45:00 PM 11.27 52.286 0.078 7.64 3.47 11.46
5/5/2021 4:00:00 PM 11.21 52.178 0.078 7.63 3.5 11.45
5/5/2021 4:15:00 PM 11.17 52.106 0.078 7.61 3.45 11.45
5/5/2021 4:30:00 PM 11.14 52.052 0.078 7.62 3.51 11.49
5/5/2021 4:45:00 PM 11.15 52.07 0.078 7.65 3.56 11.54
5/5/2021 5:00:00 PM 11.19 52.142 0.078 7.64 3.55 11.57
5/5/2021 5:15:00 PM 11.21 52.178 0.078 7.66 3.55 11.56
5/5/2021 5:30:00 PM 11.23 52.214 0.078 7.66 3.62 11.56
5/5/2021 5:45:00 PM 11.21 52.178 0.078 7.65 3.61 11.53
5/5/2021 6:00:00 PM 11.22 52.196 0.078 7.64 3.65 11.56
5/5/2021 6:15:00 PM 11.21 52.178 0.078 7.64 3.6 11.55
5/5/2021 6:30:00 PM 11.15 52.07 0.078 7.64 3.69 11.51
5/5/2021 6:45:00 PM 11.06 51.908 0.079 7.62 3.71 11.45
5/5/2021 7:00:00 PM 10.97 51.746 0.079 7.59 3.71 11.42
5/5/2021 7:15:00 PM 10.91 51.638 0.079 7.59 3.93 11.42
5/5/2021 7:30:00 PM 10.83 51.494 0.079 7.57 3.78 11.41
5/5/2021 7:45:00 PM 10.75 51.35 0.079 7.55 3.72 11.4
5/5/2021 8:00:00 PM 10.67 51.206 0.079 7.53 3.78 11.36
5/5/2021 8:15:00 PM 10.59 51.062 0.079 7.53 3.77 11.33
5/5/2021 8:30:00 PM 10.52 50.936 0.08 7.51 3.67 11.31
5/5/2021 8:45:00 PM 10.45 50.81 0.08 7.48 3.83 11.3
5/5/2021 9:00:00 PM 10.38 50.684 0.08 7.48 3.88 11.31
5/5/2021 9:15:00 PM 10.33 50.594 0.08 7.48 3.86 11.31
5/5/2021 9:30:00 PM 10.27 50.486 0.08 7.47 3.9 11.32
5/5/2021 9:45:00 PM 10.2 50.36 0.08 7.46 4.12 11.34
5/5/2021 10:00:00 PM 10.15 50.27 0.08 7.46 4.03 11.35
5/5/2021 10:15:00 PM 10.1 50.18 0.08 7.47 4.05 11.37
5/5/2021 10:30:00 PM 10.05 50.09 0.08 7.46 4.03 11.38
5/5/2021 10:45:00 PM 10 50 0.08 7.46 4.04 11.4
5/5/2021 11:00:00 PM 9.94 49.892 0.081 7.46 4.06 11.41
5/5/2021 11:15:00 PM 9.89 49.802 0.081 7.45 4.01 11.42
5/5/2021 11:30:00 PM 9.83 49.694 0.081 7.46 4 11.44
5/5/2021 11:45:00 PM 9.79 49.622 0.081 7.46 3.95 11.45
5/6/2021 12:00:00 AM 9.75 49.55 0.081 7.46 4.04 11.46
5/6/2021 12:15:00 AM 9.71 49.478 0.081 7.46 4.04 11.47
5/6/2021 12:30:00 AM 9.67 49.406 0.081 7.46 4.08 11.48
5/6/2021 12:45:00 AM 9.63 49.334 0.081 7.46 4.03 11.5
5/6/2021 1:00:00 AM 9.6 49.28 0.081 7.46 4.1 11.51
5/6/2021 1:15:00 AM 9.56 49.208 0.081 7.46 4.16 11.52
5/6/2021 1:30:00 AM 9.52 49.136 0.081 7.47 4 11.53
5/6/2021 1:45:00 AM 9.47 49.046 0.081 7.46 4.25 11.54
5/6/2021 2:00:00 AM 9.43 48.974 0.081 7.46 4.17 11.56
5/6/2021 2:15:00 AM 9.39 48.902 0.081 7.47 4.23 11.57
5/6/2021 2:30:00 AM 9.35 48.83 0.081 7.45 4.11 11.58
5/6/2021 2:45:00 AM 9.32 48.776 0.081 7.45 4.09 11.59
5/6/2021 3:00:00 AM 9.29 48.722 0.081 7.46 4.11 11.59
5/6/2021 3:15:00 AM 9.27 48.686 0.081 7.45 4.06 11.6
5/6/2021 3:30:00 AM 9.23 48.614 0.081 7.46 3.98 11.61
5/6/2021 3:45:00 AM 9.2 48.56 0.081 7.46 3.94 11.61
5/6/2021 4:00:00 AM 9.17 48.506 0.081 7.46 3.96 11.63
5/6/2021 4:15:00 AM 9.15 48.47 0.081 7.46 3.99 11.63
5/6/2021 4:30:00 AM 9.12 48.416 0.081 7.46 3.97 11.64
5/6/2021 4:45:00 AM 9.09 48.362 0.081 7.45 3.99 11.65
5/6/2021 5:00:00 AM 9.06 48.308 0.081 7.46 4.09 11.67
5/6/2021 5:15:00 AM 9.03 48.254 0.081 7.46 4.01 11.67
5/6/2021 5:30:00 AM 8.99 48.182 0.081 7.46 4.01 11.69
5/6/2021 5:45:00 AM 8.96 48.128 0.081 7.47 3.96 11.7
5/6/2021 6:00:00 AM 8.92 48.056 0.081 7.46 4.24 11.71
5/6/2021 6:15:00 AM 8.87 47.966 0.081 7.46 3.93 11.73
5/6/2021 6:30:00 AM 8.84 47.912 0.081 7.47 4.07 11.77
5/6/2021 6:45:00 AM 8.79 47.822 0.081 7.47 4.08 11.81
5/6/2021 7:00:00 AM 8.75 47.75 0.081 7.49 4.05 11.86
5/6/2021 7:15:00 AM 8.7 47.66 0.081 7.49 4.03 11.91
5/6/2021 7:30:00 AM 8.66 47.588 0.081 7.51 3.98 11.94
5/6/2021 7:45:00 AM 8.64 47.552 0.081 7.51 3.99 11.98
5/6/2021 8:00:00 AM 8.62 47.516 0.081 7.52 3.97 12.03
5/6/2021 8:15:00 AM 8.63 47.534 0.081 7.53 4.07 12.09
5/6/2021 8:30:00 AM 8.64 47.552 0.081 7.54 4.19 12.12
5/6/2021 8:45:00 AM 8.67 47.606 0.081 7.56 3.88 12.15
5/6/2021 9:00:00 AM 8.77 47.786 0.081 7.56 3.94 12.19
5/6/2021 9:15:00 AM 8.92 48.056 0.081 7.6 3.94 12.22
5/6/2021 9:30:00 AM 9.11 48.398 0.081 7.6 3.88 12.22
5/6/2021 9:45:00 AM 9.18 48.524 0.081 7.6 4.05 12.16
5/6/2021 10:00:00 AM 9.35 48.83 0.081 7.61 4.01 12.17
5/6/2021 10:15:00 AM 9.55 49.19 0.081 7.63 4 12.14
5/6/2021 10:30:00 AM 9.67 49.406 0.081 7.63 3.88 12.09
5/6/2021 10:45:00 AM 9.93 49.874 0.08 7.64 4 12.07
5/6/2021 11:00:00 AM 9.97 49.946 0.08 7.65 3.9 12.02
5/6/2021 11:15:00 AM 10.09 50.162 0.08 7.65 4.01 12.01
5/6/2021 11:30:00 AM 10.32 50.576 0.08 7.66 4.06 12
5/6/2021 11:45:00 AM 10.55 50.99 0.08 7.67 4.05 11.96
5/6/2021 12:00:00 PM 10.65 51.17 0.08 7.66 4.06 11.91
5/6/2021 12:15:00 PM 10.81 51.458 0.08 7.68 4.25 11.88
5/6/2021 12:30:00 PM 10.92 51.656 0.08 7.68 3.98 11.85
5/6/2021 12:45:00 PM 11.17 52.106 0.08 7.69 4.22 11.81
5/6/2021 1:00:00 PM 11.35 52.43 0.08 7.69 4.13 11.76
5/6/2021 1:15:00 PM 11.66 52.988 0.08 7.7 4.03 11.7
5/6/2021 1:30:00 PM 11.91 53.438 0.08 7.7 4.11 11.64
5/6/2021 1:45:00 PM 12.01 53.618 0.08 7.7 4.04 11.59
5/6/2021 2:00:00 PM 12 53.6 0.08 7.72 4.12 11.57
5/6/2021 2:15:00 PM 11.94 53.492 0.08 7.71 4.07 11.57
5/6/2021 2:30:00 PM 11.97 53.546 0.08 7.72 4.16 11.57
5/6/2021 2:45:00 PM 12.01 53.618 0.08 7.73 3.96 11.56
5/6/2021 3:00:00 PM 12.02 53.636 0.08 7.72 4.01 11.55
5/6/2021 3:15:00 PM 12 53.6 0.08 7.73 4.1 11.54
5/6/2021 3:30:00 PM 11.91 53.438 0.08 7.71 4.01 11.54
5/6/2021 3:45:00 PM 11.83 53.294 0.08 7.72 4.09 11.54
5/6/2021 4:00:00 PM 11.82 53.276 0.08 7.71 4.06 11.53
5/6/2021 4:15:00 PM 11.76 53.168 0.08 7.72 4.14 11.53
5/6/2021 4:30:00 PM 11.72 53.096 0.08 7.72 4.16 11.54
5/6/2021 4:45:00 PM 11.68 53.024 0.08 7.72 4.14 11.55
5/6/2021 5:00:00 PM 11.65 52.97 0.08 7.71 4.18 11.53
5/6/2021 5:15:00 PM 11.6 52.88 0.08 7.7 4.21 11.54
5/6/2021 5:30:00 PM 11.54 52.772 0.08 7.69 4.23 11.51
5/6/2021 5:45:00 PM 11.45 52.61 0.08 7.68 4.21 11.49
5/6/2021 6:00:00 PM 11.38 52.484 0.08 7.67 4.34 11.49
5/6/2021 6:15:00 PM 11.29 52.322 0.08 7.66 4.17 11.5
5/6/2021 6:30:00 PM 11.22 52.196 0.08 7.65 4.45 11.5
5/6/2021 6:45:00 PM 11.15 52.07 0.08 7.64 4.27 11.5
5/6/2021 7:00:00 PM 11.09 51.962 0.08 7.64 4.25 11.49
5/6/2021 7:15:00 PM 11.02 51.836 0.08 7.62 4.24 11.46
5/6/2021 7:30:00 PM 10.92 51.656 0.08 7.6 4.34 11.42
5/6/2021 7:45:00 PM 10.83 51.494 0.08 7.57 4.36 11.39
5/6/2021 8:00:00 PM 10.72 51.296 0.08 7.56 4.29 11.37
5/6/2021 8:15:00 PM 10.61 51.098 0.081 7.53 4.42 11.34
5/6/2021 8:30:00 PM 10.51 50.918 0.081 7.52 4.36 11.32
5/6/2021 8:45:00 PM 10.4 50.72 0.081 7.5 4.5 11.32
5/6/2021 9:00:00 PM 10.3 50.54 0.081 7.5 4.54 11.32
5/6/2021 9:15:00 PM 10.19 50.342 0.081 7.49 4.48 11.34
5/6/2021 9:30:00 PM 10.08 50.144 0.081 7.48 4.56 11.36
5/6/2021 9:45:00 PM 9.98 49.964 0.081 7.48 4.47 11.38
5/6/2021 10:00:00 PM 9.88 49.784 0.081 7.47 4.41 11.4
5/6/2021 10:15:00 PM 9.78 49.604 0.081 7.47 4.51 11.43
5/6/2021 10:30:00 PM 9.69 49.442 0.081 7.47 4.59 11.45
5/6/2021 10:45:00 PM 9.6 49.28 0.081 7.46 4.57 11.48
5/6/2021 11:00:00 PM 9.51 49.118 0.082 7.45 4.56 11.51
5/6/2021 11:15:00 PM 9.42 48.956 0.082 7.46 4.6 11.52
5/6/2021 11:30:00 PM 9.33 48.794 0.082 7.46 4.64 11.55
5/6/2021 11:45:00 PM 9.24 48.632 0.082 7.47 4.66 11.58
5/7/2021 12:00:00 AM 9.16 48.488 0.082 7.45 4.91 11.6
5/7/2021 12:15:00 AM 9.08 48.344 0.082 7.45 4.53 11.62
5/7/2021 12:30:00 AM 9 48.2 0.082 7.45 4.71 11.64
5/7/2021 12:45:00 AM 8.92 48.056 0.082 7.45 4.59 11.67
5/7/2021 1:00:00 AM 8.85 47.93 0.082 7.45 4.57 11.69
5/7/2021 1:15:00 AM 8.77 47.786 0.082 7.45 4.72 11.71
5/7/2021 1:30:00 AM 8.7 47.66 0.082 7.45 4.78 11.72
5/7/2021 1:45:00 AM 8.63 47.534 0.082 7.46 4.86 11.75
5/7/2021 2:00:00 AM 8.56 47.408 0.082 7.45 4.72 11.76
5/7/2021 2:15:00 AM 8.49 47.282 0.082 7.44 4.51 11.79
5/7/2021 2:30:00 AM 8.44 47.192 0.082 7.44 4.5 11.81
5/7/2021 2:45:00 AM 8.38 47.084 0.082 7.46 4.5 11.82
5/7/2021 3:00:00 AM 8.34 47.012 0.082 7.46 4.44 11.83
5/7/2021 3:15:00 AM 8.29 46.922 0.082 7.45 4.52 11.84
5/7/2021 3:30:00 AM 8.25 46.85 0.082 7.46 4.7 11.85
5/7/2021 3:45:00 AM 8.22 46.796 0.082 7.45 4.58 11.87
5/7/2021 4:00:00 AM 8.17 46.706 0.082 7.41 4.67 11.87
5/7/2021 4:15:00 AM 8.13 46.634 0.082 7.46 4.59 11.89
5/7/2021 4:30:00 AM 8.08 46.544 0.082 7.45 4.66 11.9
5/7/2021 4:45:00 AM 8.04 46.472 0.082 7.45 4.88 11.91
5/7/2021 5:00:00 AM 8 46.4 0.082 7.44 4.68 11.91
5/7/2021 5:15:00 AM 7.97 46.346 0.082 7.44 4.86 11.93
5/7/2021 5:30:00 AM 7.93 46.274 0.082 7.45 4.84 11.94
5/7/2021 5:45:00 AM 7.89 46.202 0.082 7.45 4.74 11.95
5/7/2021 6:00:00 AM 7.85 46.13 0.082 7.45 4.88 11.97
5/7/2021 6:15:00 AM 7.81 46.058 0.082 7.45 4.72 11.99
5/7/2021 6:30:00 AM 7.77 45.986 0.082 7.45 4.71 12.03
5/7/2021 6:45:00 AM 7.75 45.95 0.082 7.47 4.71 12.08
5/7/2021 7:00:00 AM 7.74 45.932 0.082 7.48 4.75 12.15
5/7/2021 7:15:00 AM 7.74 45.932 0.082 7.49 4.78 12.21
5/7/2021 7:30:00 AM 7.75 45.95 0.082 7.51 4.74 12.27
5/7/2021 7:45:00 AM 7.78 46.004 0.082 7.53 4.83 12.32
5/7/2021 8:00:00 AM 7.83 46.094 0.082 7.54 4.77 12.36
5/7/2021 8:15:00 AM 7.89 46.202 0.082 7.56 4.81 12.4
5/7/2021 8:30:00 AM 7.95 46.31 0.081 7.56 4.87 12.39
5/7/2021 8:45:00 AM 8.02 46.436 0.081 7.58 4.77 12.4
5/7/2021 9:00:00 AM 8.11 46.598 0.081 7.59 4.7 12.41
5/7/2021 9:15:00 AM 8.22 46.796 0.081 7.6 4.71 12.42
5/7/2021 9:30:00 AM 8.35 47.03 0.081 7.62 4.81 12.42
5/7/2021 9:45:00 AM 8.49 47.282 0.081 7.64 4.7 12.39
5/7/2021 10:00:00 AM 8.7 47.66 0.081 7.63 4.64 12.37
5/7/2021 10:15:00 AM 8.86 47.948 0.081 7.65 4.74 12.33
5/7/2021 10:30:00 AM 8.99 48.182 0.081 7.66 4.82 12.29
5/7/2021 10:45:00 AM 9.2 48.56 0.081 7.66 4.82 12.26
5/7/2021 11:00:00 AM 9.42 48.956 0.081 7.68 4.92 12.21
5/7/2021 11:15:00 AM 9.54 49.172 0.081 7.68 4.77 12.18
5/7/2021 11:30:00 AM 9.72 49.496 0.081 7.68 4.67 12.12
5/7/2021 11:45:00 AM 9.85 49.73 0.081 7.69 4.76 12.08
5/7/2021 12:00:00 PM 9.89 49.802 0.081 7.69 4.92 12.03
5/7/2021 12:15:00 PM 9.92 49.856 0.081 7.68 4.83 12.02
5/7/2021 12:30:00 PM 9.96 49.928 0.081 7.7 5.11 12
5/7/2021 12:45:00 PM 9.98 49.964 0.081 7.7 4.91 11.98
5/7/2021 1:00:00 PM 10.01 50.018 0.08 7.69 4.84 11.97
5/7/2021 1:15:00 PM 10.03 50.054 0.08 7.7 4.89 11.95
5/7/2021 1:30:00 PM 10.07 50.126 0.08 7.7 4.86 11.95
5/7/2021 1:45:00 PM 10.08 50.144 0.08 7.69 4.85 11.92
5/7/2021 2:00:00 PM 10.08 50.144 0.08 7.7 5 11.89
5/7/2021 2:15:00 PM 10.05 50.09 0.08 7.69 4.88 11.86
5/7/2021 2:30:00 PM 10.01 50.018 0.081 7.67 5.13 11.84
5/7/2021 2:45:00 PM 9.95 49.91 0.081 7.65 5.04 11.78
5/7/2021 3:00:00 PM 9.9 49.82 0.081 7.64 5.01 11.74
5/7/2021 3:15:00 PM 9.85 49.73 0.081 7.63 4.95 11.72
5/7/2021 3:30:00 PM 9.79 49.622 0.081 7.6 4.93 11.72
5/7/2021 3:45:00 PM 9.75 49.55 0.081 7.61 5.12 11.74
5/7/2021 4:00:00 PM 9.71 49.478 0.081 7.59 5 11.74
5/7/2021 4:15:00 PM 9.67 49.406 0.081 7.6 5.26 11.76
5/7/2021 4:30:00 PM 9.65 49.37 0.08 7.61 5.05 11.8
5/7/2021 4:45:00 PM 9.64 49.352 0.08 7.61 5.17 11.84
5/7/2021 5:00:00 PM 9.62 49.316 0.08 7.59 5.13 11.79
5/7/2021 5:15:00 PM 9.61 49.298 0.08 7.61 5.16 11.83
5/7/2021 5:30:00 PM 9.59 49.262 0.08 7.6 5.23 11.81
5/7/2021 5:45:00 PM 9.55 49.19 0.08 7.59 5.1 11.78
5/7/2021 6:00:00 PM 9.51 49.118 0.08 7.58 5.2 11.77
5/7/2021 6:15:00 PM 9.48 49.064 0.079 7.56 5.24 11.75
5/7/2021 6:30:00 PM 9.44 48.992 0.079 7.56 5.44 11.73
5/7/2021 6:45:00 PM 9.4 48.92 0.08 7.55 5.3 11.73
5/7/2021 7:00:00 PM 9.36 48.848 0.08 7.56 5.26 11.74
5/7/2021 7:15:00 PM 9.31 48.758 0.08 7.54 5.33 11.71
5/7/2021 7:30:00 PM 9.26 48.668 0.08 7.52 5.23 11.7
5/7/2021 7:45:00 PM 9.21 48.578 0.081 7.52 5.42 11.69
5/7/2021 8:00:00 PM 9.17 48.506 0.081 7.51 5.5 11.69
5/7/2021 8:15:00 PM 9.12 48.416 0.081 7.52 5.66 11.66
5/7/2021 8:30:00 PM 9.07 48.326 0.081 7.5 5.55 11.66
5/7/2021 8:45:00 PM 9.02 48.236 0.081 7.49 5.7 11.65
5/7/2021 9:00:00 PM 8.98 48.164 0.081 7.49 5.57 11.66
5/7/2021 9:15:00 PM 8.93 48.074 0.081 7.48 5.71 11.67
5/7/2021 9:30:00 PM 8.89 48.002 0.081 7.47 5.64 11.67
5/7/2021 9:45:00 PM 8.85 47.93 0.081 7.48 5.76 11.69
5/7/2021 10:00:00 PM 8.81 47.858 0.081 7.46 5.76 11.7
5/7/2021 10:15:00 PM 8.77 47.786 0.081 7.46 5.59 11.71
5/7/2021 10:30:00 PM 8.73 47.714 0.081 7.46 5.97 11.72
5/7/2021 10:45:00 PM 8.7 47.66 0.081 7.47 5.48 11.73
5/7/2021 11:00:00 PM 8.67 47.606 0.081 7.47 5.74 11.74
5/7/2021 11:15:00 PM 8.64 47.552 0.081 7.45 5.78 11.75
5/7/2021 11:30:00 PM 8.61 47.498 0.081 7.47 5.53 11.76
5/7/2021 11:45:00 PM 8.57 47.426 0.081 7.46 5.73 11.77
5/8/2021 12:00:00 AM 8.54 47.372 0.081 7.47 5.66 11.78
5/8/2021 12:15:00 AM 8.51 47.318 0.081 7.46 5.63 11.79
5/8/2021 12:30:00 AM 8.47 47.246 0.081 7.46 5.69 11.8
5/8/2021 12:45:00 AM 8.44 47.192 0.082 7.46 5.74 11.81
5/8/2021 1:00:00 AM 8.41 47.138 0.082 7.47 5.6 11.82
5/8/2021 1:15:00 AM 8.39 47.102 0.082 7.47 5.83 11.82
5/8/2021 1:30:00 AM 8.37 47.066 0.082 7.47 5.7 11.83
5/8/2021 1:45:00 AM 8.35 47.03 0.082 7.47 5.75 11.83
5/8/2021 2:00:00 AM 8.33 46.994 0.082 7.46 5.54 11.85
5/8/2021 2:15:00 AM 8.31 46.958 0.082 7.48 5.47 11.85
5/8/2021 2:30:00 AM 8.29 46.922 0.082 7.45 5.43 11.85
5/8/2021 2:45:00 AM 8.27 46.886 0.083 7.47 5.52 11.86
5/8/2021 3:00:00 AM 8.25 46.85 0.083 7.47 5.68 11.87
5/8/2021 3:15:00 AM 8.24 46.832 0.083 7.47 5.53 11.86
5/8/2021 3:30:00 AM 8.22 46.796 0.083 7.47 5.64 11.87
5/8/2021 3:45:00 AM 8.21 46.778 0.083 7.49 5.57 11.88
5/8/2021 4:00:00 AM 8.19 46.742 0.083 7.47 5.65 11.88
5/8/2021 4:15:00 AM 8.17 46.706 0.083 7.47 5.62 11.88
5/8/2021 4:30:00 AM 8.16 46.688 0.084 7.47 5.7 11.88
5/8/2021 4:45:00 AM 8.14 46.652 0.084 7.47 5.77 11.88
5/8/2021 5:00:00 AM 8.13 46.634 0.084 7.47 5.72 11.9
5/8/2021 5:15:00 AM 8.11 46.598 0.084 7.47 5.62 11.89
5/8/2021 5:30:00 AM 8.09 46.562 0.084 7.47 5.79 11.9
5/8/2021 5:45:00 AM 8.07 46.526 0.084 7.48 5.79 11.91
5/8/2021 6:00:00 AM 8.04 46.472 0.084 7.49 5.86 11.91
5/8/2021 6:15:00 AM 8.01 46.418 0.084 7.48 5.81 11.93
5/8/2021 6:30:00 AM 7.99 46.382 0.084 7.49 5.82 11.97
5/8/2021 6:45:00 AM 7.99 46.382 0.084 7.5 5.68 12.03
5/8/2021 7:00:00 AM 7.99 46.382 0.084 7.51 5.7 12.11
5/8/2021 7:15:00 AM 7.99 46.382 0.084 7.52 5.66 12.17
5/8/2021 7:30:00 AM 8.01 46.418 0.084 7.55 5.65 12.22
5/8/2021 7:45:00 AM 8.05 46.49 0.084 7.57 5.69 12.27
5/8/2021 8:00:00 AM 8.12 46.616 0.084 7.58 5.8 12.31
5/8/2021 8:15:00 AM 8.17 46.706 0.084 7.6 5.77 12.32
5/8/2021 8:30:00 AM 8.21 46.778 0.084 7.6 5.7 12.32
5/8/2021 8:45:00 AM 8.24 46.832 0.084 7.61 5.81 12.33
5/8/2021 9:00:00 AM 8.3 46.94 0.084 7.61 5.67 12.3
5/8/2021 9:15:00 AM 8.31 46.958 0.084 7.61 5.55 12.26
5/8/2021 9:30:00 AM 8.37 47.066 0.084 7.62 5.7 12.29
5/8/2021 9:45:00 AM 8.44 47.192 0.084 7.62 5.76 12.31
5/8/2021 10:00:00 AM 8.51 47.318 0.084 7.63 5.95 12.33
5/8/2021 10:15:00 AM 8.6 47.48 0.084 7.64 5.94 12.32
5/8/2021 10:30:00 AM 8.6 47.48 0.084 7.65 5.8 12.28
5/8/2021 10:45:00 AM 8.66 47.588 0.084 7.65 5.74 12.3
5/8/2021 11:00:00 AM 8.72 47.696 0.084 7.67 5.74 12.3
5/8/2021 11:15:00 AM 8.79 47.822 0.084 7.68 5.71 12.3
5/8/2021 11:30:00 AM 9.02 48.236 0.083 7.69 5.84 12.3
5/8/2021 11:45:00 AM 9.07 48.326 0.083 7.66 5.74 12.21
5/8/2021 12:00:00 PM 9.1 48.38 0.083 7.67 5.69 12.18
5/8/2021 12:15:00 PM 9.26 48.668 0.083 7.68 5.76 12.19
5/8/2021 12:30:00 PM 9.21 48.578 0.083 7.67 5.83 12.13
5/8/2021 12:45:00 PM 9.22 48.596 0.083 7.67 5.76 12.13
5/8/2021 1:00:00 PM 9.37 48.866 0.083 7.67 5.87 12.14
5/8/2021 1:15:00 PM 9.49 49.082 0.083 7.69 5.83 12.15
5/8/2021 1:30:00 PM 9.7 49.46 0.083 7.7 5.81 12.09
5/8/2021 1:45:00 PM 9.81 49.658 0.083 7.68 5.8 12.04
5/8/2021 2:00:00 PM 9.85 49.73 0.083 7.69 5.88 11.98
5/8/2021 2:15:00 PM 9.9 49.82 0.083 7.69 5.96 12.01
5/8/2021 2:30:00 PM 10.07 50.126 0.083 7.7 5.88 11.98
5/8/2021 2:45:00 PM 10.24 50.432 0.083 7.7 5.85 11.93
5/8/2021 3:00:00 PM 10.16 50.288 0.083 7.69 5.75 11.88
5/8/2021 3:15:00 PM 10 50 0.082 7.68 7.19 11.88
5/8/2021 3:30:00 PM 9.97 49.946 0.083 7.68 5.79 11.91
5/8/2021 3:45:00 PM 10.04 50.072 0.083 7.69 5.88 11.91
5/8/2021 4:00:00 PM 10.1 50.18 0.083 7.7 5.98 11.91
5/8/2021 4:15:00 PM 10.14 50.252 0.083 7.68 5.85 11.91
5/8/2021 4:30:00 PM 10.11 50.198 0.083 7.68 5.89 11.87
5/8/2021 4:45:00 PM 10.15 50.27 0.083 7.69 6.11 11.91
5/8/2021 5:00:00 PM 10.2 50.36 0.083 7.69 5.93 11.9
5/8/2021 5:15:00 PM 10.2 50.36 0.083 7.69 6.13 11.87
5/8/2021 5:30:00 PM 10.21 50.378 0.083 7.68 5.93 11.83
5/8/2021 5:45:00 PM 10.14 50.252 0.083 7.67 6.41 11.83
5/8/2021 6:00:00 PM 10.09 50.162 0.083 7.67 6.08 11.83
5/8/2021 6:15:00 PM 10.03 50.054 0.083 7.66 6.17 11.79
5/8/2021 6:30:00 PM 9.94 49.892 0.083 7.64 6.11 11.74
5/8/2021 6:45:00 PM 9.88 49.784 0.083 7.62 6.07 11.76
5/8/2021 7:00:00 PM 9.81 49.658 0.083 7.61 6.66 11.77
5/8/2021 7:15:00 PM 9.74 49.532 0.083 7.61 6.26 11.76
5/8/2021 7:30:00 PM 9.66 49.388 0.083 7.6 6.36 11.75
5/8/2021 7:45:00 PM 9.57 49.226 0.083 7.58 6.34 11.74
5/8/2021 8:00:00 PM 9.48 49.064 0.083 7.56 6.19 11.72
5/8/2021 8:15:00 PM 9.39 48.902 0.083 7.55 6.32 11.7
5/8/2021 8:30:00 PM 9.3 48.74 0.084 7.54 6.44 11.68
5/8/2021 8:45:00 PM 9.2 48.56 0.084 7.53 6.49 11.68
5/8/2021 9:00:00 PM 9.1 48.38 0.084 7.53 6.52 11.68
5/8/2021 9:15:00 PM 9.01 48.218 0.084 7.51 6.4 11.7
5/8/2021 9:30:00 PM 8.91 48.038 0.084 7.49 6.57 11.72
5/8/2021 9:45:00 PM 8.82 47.876 0.084 7.49 6.65 11.74
5/8/2021 10:00:00 PM 8.73 47.714 0.084 7.5 6.8 11.77
5/8/2021 10:15:00 PM 8.65 47.57 0.084 7.5 6.65 11.79
5/8/2021 10:30:00 PM 8.56 47.408 0.085 7.49 6.56 11.82
5/8/2021 10:45:00 PM 8.48 47.264 0.085 7.48 6.46 11.84
5/8/2021 11:00:00 PM 8.4 47.12 0.085 7.49 6.54 11.86
5/8/2021 11:15:00 PM 8.32 46.976 0.085 7.49 6.8 11.88
5/8/2021 11:30:00 PM 8.25 46.85 0.085 7.48 6.76 11.91
5/8/2021 11:45:00 PM 8.19 46.742 0.085 7.49 6.6 11.92
5/9/2021 12:00:00 AM 8.14 46.652 0.085 7.48 6.64 11.95
5/9/2021 12:15:00 AM 8.09 46.562 0.085 7.48 6.56 11.96
5/9/2021 12:30:00 AM 8.04 46.472 0.085 7.47 6.61 11.98
5/9/2021 12:45:00 AM 8 46.4 0.085 7.48 6.65 12
5/9/2021 1:00:00 AM 7.96 46.328 0.085 7.48 6.73 12.02
5/9/2021 1:15:00 AM 7.92 46.256 0.086 7.49 6.87 12.03
5/9/2021 1:30:00 AM 7.88 46.184 0.086 7.49 6.78 12.04
5/9/2021 1:45:00 AM 7.85 46.13 0.086 7.48 6.48 12.05
5/9/2021 2:00:00 AM 7.81 46.058 0.086 7.49 6.79 12.06
5/9/2021 2:15:00 AM 7.78 46.004 0.086 7.48 6.66 12.07
5/9/2021 2:30:00 AM 7.73 45.914 0.086 7.48 6.86 12.08
5/9/2021 2:45:00 AM 7.69 45.842 0.086 7.49 6.94 12.09
5/9/2021 3:00:00 AM 7.64 45.752 0.086 7.48 6.76 12.1
5/9/2021 3:15:00 AM 7.6 45.68 0.086 7.49 6.73 12.12
5/9/2021 3:30:00 AM 7.55 45.59 0.086 7.48 6.86 12.13
5/9/2021 3:45:00 AM 7.52 45.536 0.086 7.48 6.86 12.14
5/9/2021 4:00:00 AM 7.49 45.482 0.086 7.48 6.95 12.15
5/9/2021 4:15:00 AM 7.46 45.428 0.086 7.48 6.9 12.16
5/9/2021 4:30:00 AM 7.43 45.374 0.086 7.49 6.78 12.18
5/9/2021 4:45:00 AM 7.4 45.32 0.086 7.49 6.91 12.18
5/9/2021 5:00:00 AM 7.37 45.266 0.086 7.48 6.86 12.19
5/9/2021 5:15:00 AM 7.35 45.23 0.086 7.47 6.94 12.2
5/9/2021 5:30:00 AM 7.32 45.176 0.086 7.49 6.97 12.22
5/9/2021 5:45:00 AM 7.29 45.122 0.086 7.48 7 12.22
5/9/2021 6:00:00 AM 7.26 45.068 0.086 7.49 7 12.23
5/9/2021 6:15:00 AM 7.24 45.032 0.086 7.48 6.89 12.25
5/9/2021 6:30:00 AM 7.22 44.996 0.086 7.49 7.01 12.28
5/9/2021 6:45:00 AM 7.2 44.96 0.086 7.51 7.04 12.32
5/9/2021 7:00:00 AM 7.19 44.942 0.086 7.51 7.17 12.37
5/9/2021 7:15:00 AM 7.18 44.924 0.086 7.52 6.95 12.41
5/9/2021 7:30:00 AM 7.18 44.924 0.086 7.53 7.25 12.48
5/9/2021 7:45:00 AM 7.2 44.96 0.086 7.55 6.93 12.55
5/9/2021 8:00:00 AM 7.24 45.032 0.086 7.56 6.83 12.6
5/9/2021 8:15:00 AM 7.28 45.104 0.086 7.58 7.14 12.63
5/9/2021 8:30:00 AM 7.32 45.176 0.086 7.6 6.86 12.65
5/9/2021 8:45:00 AM 7.38 45.284 0.085 7.62 6.96 12.67
5/9/2021 9:00:00 AM 7.46 45.428 0.085 7.62 7.12 12.68
5/9/2021 9:15:00 AM 7.54 45.572 0.085 7.64 6.86 12.68
5/9/2021 9:30:00 AM 7.68 45.824 0.085 7.64 7.11 12.67
5/9/2021 9:45:00 AM 7.84 46.112 0.085 7.64 7.01 12.65
5/9/2021 10:00:00 AM 8.04 46.472 0.085 7.65 7.02 12.62
5/9/2021 10:15:00 AM 8.22 46.796 0.085 7.67 6.93 12.58
5/9/2021 10:30:00 AM 8.34 47.012 0.085 7.66 6.8 12.53
5/9/2021 10:45:00 AM 8.44 47.192 0.085 7.67 7.26 12.49
5/9/2021 11:00:00 AM 8.5 47.3 0.085 7.68 6.9 12.45
5/9/2021 11:15:00 AM 8.54 47.372 0.085 7.67 7.36 12.42
5/9/2021 11:30:00 AM 8.59 47.462 0.085 7.68 6.9 12.4
5/9/2021 11:45:00 AM 8.64 47.552 0.085 7.69 6.7 12.38
5/9/2021 12:00:00 PM 8.68 47.624 0.085 7.69 7.06 12.37
5/9/2021 12:15:00 PM 8.7 47.66 0.085 7.68 6.9 12.36
5/9/2021 12:30:00 PM 8.7 47.66 0.084 7.69 7.07 12.35
5/9/2021 12:45:00 PM 8.69 47.642 0.084 7.69 6.99 12.32
5/9/2021 1:00:00 PM 8.67 47.606 0.084 7.68 7.21 12.3
5/9/2021 1:15:00 PM 8.66 47.588 0.084 7.67 6.99 12.31
5/9/2021 1:30:00 PM 8.64 47.552 0.084 7.67 7.21 12.29
5/9/2021 1:45:00 PM 8.6 47.48 0.084 7.66 6.88 12.27
5/9/2021 2:00:00 PM 8.55 47.39 0.084 7.65 7.2 12.26
5/9/2021 2:15:00 PM 8.5 47.3 0.084 7.65 7.15 12.26
5/9/2021 2:30:00 PM 8.45 47.21 0.084 7.65 7.21 12.26
5/9/2021 2:45:00 PM 8.42 47.156 0.083 7.64 7.62 12.26
5/9/2021 3:00:00 PM 8.38 47.084 0.083 7.64 7.44 12.26
5/9/2021 3:15:00 PM 8.33 46.994 0.083 7.63 6.99 12.26
5/9/2021 3:30:00 PM 8.27 46.886 0.083 7.63 7.33 12.27
5/9/2021 3:45:00 PM 8.21 46.778 0.083 7.62 7.23 12.26
5/9/2021 4:00:00 PM 8.14 46.652 0.083 7.62 7.21 12.27
5/9/2021 4:15:00 PM 8.07 46.526 0.083 7.61 7.43 12.28
5/9/2021 4:30:00 PM 8 46.4 0.083 7.61 7.38 12.29
5/9/2021 4:45:00 PM 7.9 46.22 0.083 7.59 7.46 12.27
5/9/2021 5:00:00 PM 7.74 45.932 0.083 7.58 7.6 12.25
5/9/2021 5:15:00 PM 7.55 45.59 0.083 7.58 7.58 12.27
5/9/2021 5:30:00 PM 7.3 45.14 0.083 7.58 7.85 12.3
5/9/2021 5:45:00 PM 7.06 44.708 0.083 7.56 7.94 12.35
5/9/2021 6:00:00 PM 6.97 44.546 0.083 7.56 7.93 12.4
5/9/2021 6:15:00 PM 6.94 44.492 0.083 7.55 8.34 12.42
5/9/2021 6:30:00 PM 6.94 44.492 0.084 7.54 8.33 12.42
5/9/2021 6:45:00 PM 6.93 44.474 0.083 7.54 8.39 12.42
5/9/2021 7:00:00 PM 6.92 44.456 0.083 7.53 8.56 12.41
5/9/2021 7:15:00 PM 6.89 44.402 0.083 7.53 8.98 12.4
5/9/2021 7:30:00 PM 6.85 44.33 0.083 7.51 8.65 12.39
5/9/2021 7:45:00 PM 6.81 44.258 0.083 7.5 9.31 12.4
5/9/2021 8:00:00 PM 6.77 44.186 0.083 7.48 9.37 12.39
5/9/2021 8:15:00 PM 6.74 44.132 0.084 7.49 9.95 12.39
5/9/2021 8:30:00 PM 6.69 44.042 0.084 7.48 9.99 12.4
5/9/2021 8:45:00 PM 6.66 43.988 0.085 7.47 10.85 12.4
5/9/2021 9:00:00 PM 6.63 43.934 0.086 7.48 10.89 12.41
5/9/2021 9:15:00 PM 6.61 43.898 0.086 7.48 12.03 12.41
5/9/2021 9:30:00 PM 6.59 43.862 0.086 7.46 11.87 12.42
5/9/2021 9:45:00 PM 6.58 43.844 0.087 7.46 12.66 12.43
5/9/2021 10:00:00 PM 6.56 43.808 0.087 7.49 12.93 12.44
5/9/2021 10:15:00 PM 6.55 43.79 0.086 7.46 13.65 12.44
5/9/2021 10:30:00 PM 6.54 43.772 0.086 7.45 13.23 12.45
5/9/2021 10:45:00 PM 6.53 43.754 0.086 7.46 15.49 12.46
5/9/2021 11:00:00 PM 6.52 43.736 0.085 7.46 13.52 12.47
5/9/2021 11:15:00 PM 6.51 43.718 0.085 7.46 18.91 12.47
5/9/2021 11:30:00 PM 6.51 43.718 0.085 7.45 19.15 12.47
5/9/2021 11:45:00 PM 6.5 43.7 0.085 7.45 20.93 12.48
5/10/2021 12:00:00 AM 6.5 43.7 0.086 7.43 24.56 12.49
5/10/2021 12:15:00 AM 6.49 43.682 0.086 7.46 21.1 12.48
5/10/2021 12:30:00 AM 6.48 43.664 0.086 7.45 32.3 12.49
5/10/2021 12:45:00 AM 6.46 43.628 0.086 7.45 19.97 12.5
5/10/2021 1:00:00 AM 6.45 43.61 0.086 7.45 26.89 12.51
5/10/2021 1:15:00 AM 6.44 43.592 0.086 7.43 28.93 12.52
5/10/2021 1:30:00 AM 6.42 43.556 0.087 7.44 27.6 12.54
5/10/2021 1:45:00 AM 6.41 43.538 0.087 7.45 30.58 12.55
5/10/2021 2:00:00 AM 6.4 43.52 0.087 7.45 33.9 12.56
5/10/2021 2:15:00 AM 6.38 43.484 0.087 7.45 34.5 12.56
5/10/2021 2:30:00 AM 6.36 43.448 0.087 7.45 40.07 12.57
5/10/2021 2:45:00 AM 6.35 43.43 0.087 7.46 42.7 12.56
5/10/2021 3:00:00 AM 6.34 43.412 0.086 7.46 43.56 12.56
5/10/2021 3:15:00 AM 6.33 43.394 0.086 7.45 40.31 12.57
5/10/2021 3:30:00 AM 6.32 43.376 0.086 7.45 39.61 12.57
5/10/2021 3:45:00 AM 6.33 43.394 0.085 7.45 41.26 12.57
5/10/2021 4:00:00 AM 6.33 43.394 0.085 7.43 34.79 12.58
5/10/2021 4:15:00 AM 6.34 43.412 0.084 7.45 28.05 12.58
5/10/2021 4:30:00 AM 6.35 43.43 0.084 7.43 29.76 12.58
5/10/2021 4:45:00 AM 6.36 43.448 0.084 7.42 28.72 12.59
5/10/2021 5:00:00 AM 6.37 43.466 0.083 7.42 40.56 12.59
5/10/2021 5:15:00 AM 6.38 43.484 0.083 7.46 24.49 12.59
5/10/2021 5:30:00 AM 6.39 43.502 0.083 7.41 23.97 12.58
5/10/2021 5:45:00 AM 6.4 43.52 0.082 7.43 21.96 12.58
5/10/2021 6:00:00 AM 6.41 43.538 0.082 7.44 19.75 12.58
5/10/2021 6:15:00 AM 6.43 43.574 0.082 7.44 20.75 12.57
5/10/2021 6:30:00 AM 6.44 43.592 0.082 7.43 22.63 12.59
5/10/2021 6:45:00 AM 6.46 43.628 0.082 7.43 17.44 12.57
5/10/2021 7:00:00 AM 6.48 43.664 0.081 7.42 15.69 12.58
5/10/2021 7:15:00 AM 6.51 43.718 0.081 7.42 15.49 12.59
5/10/2021 7:30:00 AM 6.53 43.754 0.081 7.46 15.11 12.61
5/10/2021 7:45:00 AM 6.57 43.826 0.081 7.46 14.56 12.62
5/10/2021 8:00:00 AM 6.61 43.898 0.081 7.45 12.64 12.65
5/10/2021 8:15:00 AM 6.66 43.988 0.081 7.47 12.85 12.65
5/10/2021 8:30:00 AM 6.71 44.078 0.081 7.46 12.94 12.67
5/10/2021 8:45:00 AM 6.78 44.204 0.081 7.48 12.36 12.66
5/10/2021 9:00:00 AM 6.87 44.366 0.081 7.48 11.89 12.65
5/10/2021 9:15:00 AM 6.97 44.546 0.08 7.47 11.53 12.65
5/10/2021 9:30:00 AM 7.1 44.78 0.08 7.51 11.08 12.62
5/10/2021 9:45:00 AM 7.23 45.014 0.08 7.5 10.6 12.6
5/10/2021 10:00:00 AM 7.36 45.248 0.08 7.5 10.53 12.58
5/10/2021 10:15:00 AM 7.49 45.482 0.08 7.5 9.85 12.56
5/10/2021 10:30:00 AM 7.69 45.842 0.08 7.51 9.73 12.53
5/10/2021 10:45:00 AM 7.9 46.22 0.08 7.51 9.55 12.49
5/10/2021 11:00:00 AM 8.06 46.508 0.08 7.53 9.19 12.44
5/10/2021 11:15:00 AM 8.33 46.994 0.08 7.54 9.03 12.41
5/10/2021 11:30:00 AM 8.48 47.264 0.08 7.52 9.11 12.36
5/10/2021 11:45:00 AM 8.71 47.678 0.08 7.53 8.82 12.31
5/10/2021 12:00:00 PM 8.77 47.786 0.079 7.52 8.7 12.27
5/10/2021 12:15:00 PM 8.86 47.948 0.08 7.55 8.54 12.26
5/10/2021 12:30:00 PM 9.03 48.254 0.08 7.56 8.78 12.2
5/10/2021 12:45:00 PM 9.08 48.344 0.08 7.56 8.74 12.16
5/10/2021 1:00:00 PM 9.27 48.686 0.08 7.57 8.67 12.15
5/10/2021 1:15:00 PM 9.59 49.262 0.08 7.57 8.93 12.06
5/10/2021 1:30:00 PM 9.72 49.496 0.08 7.58 8.99 12.04
5/10/2021 1:45:00 PM 9.68 49.424 0.081 7.6 9.17 12.01
5/10/2021 2:00:00 PM 9.65 49.37 0.081 7.57 9.74 12
5/10/2021 2:15:00 PM 9.58 49.244 0.081 7.58 9.37 11.99
5/10/2021 2:30:00 PM 9.71 49.478 0.081 7.58 9.56 11.98
5/10/2021 2:45:00 PM 9.69 49.442 0.08 7.58 9.59 11.97
5/10/2021 3:00:00 PM 9.69 49.442 0.08 7.61 10.07 11.97
5/10/2021 3:15:00 PM 9.74 49.532 0.08 7.56 10 11.96
5/10/2021 3:30:00 PM 9.86 49.748 0.079 7.59 9.91 11.95
5/10/2021 3:45:00 PM 9.83 49.694 0.079 7.58 9.99 11.94
5/10/2021 4:00:00 PM 9.81 49.658 0.079 7.58 9.91 11.94
5/10/2021 4:15:00 PM 9.8 49.64 0.078 7.59 9.68 11.93
5/10/2021 4:30:00 PM 9.76 49.568 0.078 7.57 9.31 11.94
5/10/2021 4:45:00 PM 9.73 49.514 0.078 7.55 9.24 11.93
5/10/2021 5:00:00 PM 9.71 49.478 0.077 7.55 9.13 11.91
5/10/2021 5:15:00 PM 9.69 49.442 0.077 7.53 9.09 11.89
5/10/2021 5:30:00 PM 9.63 49.334 0.077 7.54 9.12 11.89
5/10/2021 5:45:00 PM 9.6 49.28 0.077 7.52 9.19 11.89
5/10/2021 6:00:00 PM 9.57 49.226 0.076 7.54 8.74 11.9
5/10/2021 6:15:00 PM 9.49 49.082 0.076 7.51 8.91 11.88
5/10/2021 6:30:00 PM 9.44 48.992 0.076 7.51 8.66 11.87
5/10/2021 6:45:00 PM 9.39 48.902 0.076 7.52 9.01 11.88
5/10/2021 7:00:00 PM 9.32 48.776 0.076 7.5 8.65 11.85
5/10/2021 7:15:00 PM 9.26 48.668 0.076 7.47 8.38 11.85
5/10/2021 7:30:00 PM 9.18 48.524 0.076 7.47 8.33 11.85
5/10/2021 7:45:00 PM 9.11 48.398 0.076 7.46 8.43 11.87
5/10/2021 8:00:00 PM 9.01 48.218 0.075 7.44 8.54 11.87
5/10/2021 8:15:00 PM 8.91 48.038 0.075 7.46 8.24 11.88
5/10/2021 8:30:00 PM 8.82 47.876 0.075 7.43 8.15 11.88
5/10/2021 8:45:00 PM 8.74 47.732 0.075 7.43 8.23 11.89
5/10/2021 9:00:00 PM 8.66 47.588 0.075 7.42 8.43 11.91
5/10/2021 9:15:00 PM 8.57 47.426 0.075 7.43 8.63 11.93
5/10/2021 9:30:00 PM 8.49 47.282 0.075 7.4 8.34 11.95
5/10/2021 9:45:00 PM 8.41 47.138 0.075 7.4 8.21 11.98
5/10/2021 10:00:00 PM 8.33 46.994 0.075 7.4 8.02 12
5/10/2021 10:15:00 PM 8.26 46.868 0.075 7.39 7.94 12.02
5/10/2021 10:30:00 PM 8.18 46.724 0.075 7.41 8.21 12.04
5/10/2021 10:45:00 PM 8.11 46.598 0.075 7.42 7.95 12.05
5/10/2021 11:00:00 PM 8.04 46.472 0.075 7.38 7.9 12.08
5/10/2021 11:15:00 PM 7.98 46.364 0.075 7.39 7.84 12.1
5/10/2021 11:30:00 PM 7.91 46.238 0.075 7.4 7.78 12.12
5/10/2021 11:45:00 PM 7.85 46.13 0.075 7.39 7.85 12.15
5/11/2021 12:00:00 AM 7.78 46.004 0.075 7.39 7.79 12.17
5/11/2021 12:15:00 AM 7.72 45.896 0.075 7.41 7.46 12.18
5/11/2021 12:30:00 AM 7.66 45.788 0.075 7.41 7.43 12.2
5/11/2021 12:45:00 AM 7.61 45.698 0.075 7.39 7.52 12.22
5/11/2021 1:00:00 AM 7.56 45.608 0.075 7.4 7.31 12.23
5/11/2021 1:15:00 AM 7.5 45.5 0.075 7.4 7.33 12.25
5/11/2021 1:30:00 AM 7.45 45.41 0.074 7.39 7.22 12.27
5/11/2021 1:45:00 AM 7.4 45.32 0.074 7.4 7.21 12.28
5/11/2021 2:00:00 AM 7.35 45.23 0.074 7.4 7.3 12.31
5/11/2021 2:15:00 AM 7.3 45.14 0.074 7.39 7.25 12.31
5/11/2021 2:30:00 AM 7.25 45.05 0.074 7.36 7.07 12.33
5/11/2021 2:45:00 AM 7.21 44.978 0.074 7.39 7.18 12.34
5/11/2021 3:00:00 AM 7.17 44.906 0.074 7.38 7.2 12.35
5/11/2021 3:15:00 AM 7.12 44.816 0.074 7.4 7.13 12.36
5/11/2021 3:30:00 AM 7.09 44.762 0.074 7.37 6.96 12.38
5/11/2021 3:45:00 AM 7.05 44.69 0.074 7.37 6.98 12.4
5/11/2021 4:00:00 AM 7.02 44.636 0.074 7.38 7.03 12.41
5/11/2021 4:15:00 AM 6.98 44.564 0.074 7.37 7.11 12.42
5/11/2021 4:30:00 AM 6.93 44.474 0.074 7.38 6.93 12.43
5/11/2021 4:45:00 AM 6.88 44.384 0.074 7.37 6.97 12.44
5/11/2021 5:00:00 AM 6.83 44.294 0.074 7.38 7.06 12.47
5/11/2021 5:15:00 AM 6.79 44.222 0.074 7.38 6.87 12.47
5/11/2021 5:30:00 AM 6.74 44.132 0.074 7.37 6.88 12.49
5/11/2021 5:45:00 AM 6.7 44.06 0.074 7.38 7.02 12.51
5/11/2021 6:00:00 AM 6.67 44.006 0.074 7.38 6.86 12.53
5/11/2021 6:15:00 AM 6.64 43.952 0.073 7.38 7.02 12.54
5/11/2021 6:30:00 AM 6.6 43.88 0.073 7.39 6.89 12.56
5/11/2021 6:45:00 AM 6.57 43.826 0.073 7.38 6.67 12.59
5/11/2021 7:00:00 AM 6.56 43.808 0.073 7.39 6.73 12.64
5/11/2021 7:15:00 AM 6.55 43.79 0.073 7.41 6.62 12.67
5/11/2021 7:30:00 AM 6.54 43.772 0.073 7.4 6.58 12.69
5/11/2021 7:45:00 AM 6.54 43.772 0.073 7.43 6.52 12.72
5/11/2021 8:00:00 AM 6.55 43.79 0.073 7.42 6.53 12.73
5/11/2021 8:15:00 AM 6.57 43.826 0.073 7.42 6.46 12.76
5/11/2021 8:30:00 AM 6.62 43.916 0.073 7.43 6.3 12.76
5/11/2021 8:45:00 AM 6.7 44.06 0.073 7.45 6.33 12.77
5/11/2021 9:00:00 AM 6.81 44.258 0.072 7.43 6.23 12.76
5/11/2021 9:15:00 AM 6.93 44.474 0.072 7.47 6.32 12.75
5/11/2021 9:30:00 AM 7.08 44.744 0.072 7.47 6.35 12.74
5/11/2021 9:45:00 AM 7.25 45.05 0.072 7.48 6.11 12.72
5/11/2021 10:00:00 AM 7.4 45.32 0.072 7.47 6.21 12.69
5/11/2021 10:15:00 AM 7.56 45.608 0.072 7.48 6.18 12.66
5/11/2021 10:30:00 AM 7.61 45.698 0.072 7.5 6.36 12.63
5/11/2021 10:45:00 AM 7.76 45.968 0.072 7.5 6.12 12.61
5/11/2021 11:00:00 AM 7.87 46.166 0.072 7.49 6.23 12.54
5/11/2021 11:15:00 AM 7.93 46.274 0.071 7.5 6.23 12.51
5/11/2021 11:30:00 AM 8.1 46.58 0.071 7.5 6.12 12.51
5/11/2021 11:45:00 AM 8.31 46.958 0.071 7.52 6.23 12.48
5/11/2021 12:00:00 PM 8.45 47.21 0.071 7.52 6.16 12.43
5/11/2021 12:15:00 PM 8.58 47.444 0.071 7.53 6.12 12.4
5/11/2021 12:30:00 PM 8.85 47.93 0.071 7.52 6.1 12.36
5/11/2021 12:45:00 PM 9.03 48.254 0.071 7.53 6.04 12.3
5/11/2021 1:00:00 PM 9.15 48.47 0.071 7.53 6.25 12.24
5/11/2021 1:15:00 PM 9.22 48.596 0.071 7.54 6.3 12.21
5/11/2021 1:30:00 PM 9.58 49.244 0.071 7.53 6.09 12.15
5/11/2021 1:45:00 PM 9.75 49.55 0.071 7.53 6.29 12.09
5/11/2021 2:00:00 PM 9.78 49.604 0.071 7.54 6.17 12.05
5/11/2021 2:15:00 PM 9.9 49.82 0.071 7.54 6.12 12.02
5/11/2021 2:30:00 PM 10.03 50.054 0.071 7.56 6.49 12.01
5/11/2021 2:45:00 PM 10.13 50.234 0.071 7.56 6.33 11.97
5/11/2021 3:00:00 PM 10.14 50.252 0.071 7.53 6.37 11.94
5/11/2021 3:15:00 PM 9.98 49.964 0.071 7.54 6.52 11.93
5/11/2021 3:30:00 PM 9.98 49.964 0.071 7.55 6.38 11.96
5/11/2021 3:45:00 PM 10.03 50.054 0.07 7.55 6.29 11.96
5/11/2021 4:00:00 PM 10.06 50.108 0.07 7.56 6.4 11.94
5/11/2021 4:15:00 PM 10.04 50.072 0.07 7.54 6.24 11.91
5/11/2021 4:30:00 PM 10.05 50.09 0.07 7.54 6.25 11.93
5/11/2021 4:45:00 PM 10.06 50.108 0.07 7.55 6.31 11.91
5/11/2021 5:00:00 PM 10 50 0.07 7.54 6.36 11.91
5/11/2021 5:15:00 PM 9.86 49.748 0.07 7.54 6.38 11.9
5/11/2021 5:30:00 PM 9.77 49.586 0.07 7.53 6.32 11.92
5/11/2021 5:45:00 PM 9.65 49.37 0.07 7.51 6.33 11.93
5/11/2021 6:00:00 PM 9.56 49.208 0.07 7.53 6.28 11.94
5/11/2021 6:15:00 PM 9.44 48.992 0.07 7.49 6.45 11.94
5/11/2021 6:30:00 PM 9.34 48.812 0.07 7.49 6.4 11.95
5/11/2021 6:45:00 PM 9.25 48.65 0.07 7.48 6.51 11.95
5/11/2021 7:00:00 PM 9.18 48.524 0.07 7.49 6.52 11.98
5/11/2021 7:15:00 PM 9.09 48.362 0.07 7.47 6.64 11.98
5/11/2021 7:30:00 PM 9.01 48.218 0.07 7.47 6.54 12
5/11/2021 7:45:00 PM 8.93 48.074 0.07 7.47 6.56 11.99
5/11/2021 8:00:00 PM 8.83 47.894 0.07 7.44 6.6 12
5/11/2021 8:15:00 PM 8.73 47.714 0.07 7.42 6.57 12
5/11/2021 8:30:00 PM 8.63 47.534 0.07 7.44 6.78 12.01
5/11/2021 8:45:00 PM 8.53 47.354 0.07 7.41 6.57 12.02
5/11/2021 9:00:00 PM 8.43 47.174 0.07 7.41 6.63 12.03
5/11/2021 9:15:00 PM 8.34 47.012 0.07 7.41 6.95 12.05
5/11/2021 9:30:00 PM 8.26 46.868 0.07 7.39 6.76 12.08
5/11/2021 9:45:00 PM 8.18 46.724 0.07 7.39 6.88 12.1
5/11/2021 10:00:00 PM 8.09 46.562 0.07 7.4 7.09 12.13
5/11/2021 10:15:00 PM 8.01 46.418 0.07 7.39 6.82 12.14
5/11/2021 10:30:00 PM 7.93 46.274 0.07 7.38 6.74 12.17
5/11/2021 10:45:00 PM 7.84 46.112 0.07 7.39 6.71 12.18
5/11/2021 11:00:00 PM 7.77 45.986 0.07 7.38 6.62 12.21
5/11/2021 11:15:00 PM 7.69 45.842 0.07 7.38 6.81 12.25
5/11/2021 11:30:00 PM 7.62 45.716 0.07 7.38 6.94 12.27
5/11/2021 11:45:00 PM 7.54 45.572 0.07 7.39 6.67 12.29
5/12/2021 12:00:00 AM 7.47 45.446 0.07 7.37 6.59 12.31
5/12/2021 12:15:00 AM 7.4 45.32 0.07 7.37 6.72 12.34
5/12/2021 12:30:00 AM 7.33 45.194 0.07 7.38 6.88 12.35
5/12/2021 12:45:00 AM 7.26 45.068 0.07 7.38 6.84 12.38
5/12/2021 1:00:00 AM 7.2 44.96 0.07 7.38 6.71 12.39
5/12/2021 1:15:00 AM 7.15 44.87 0.07 7.37 6.64 12.41
5/12/2021 1:30:00 AM 7.09 44.762 0.07 7.36 6.73 12.43
5/12/2021 1:45:00 AM 7.05 44.69 0.07 7.37 6.7 12.45
5/12/2021 2:00:00 AM 7 44.6 0.07 7.37 6.77 12.46
5/12/2021 2:15:00 AM 6.96 44.528 0.07 7.38 6.66 12.48
5/12/2021 2:30:00 AM 6.92 44.456 0.07 7.38 6.77 12.48
5/12/2021 2:45:00 AM 6.87 44.366 0.07 7.36 6.69 12.5
5/12/2021 3:00:00 AM 6.83 44.294 0.07 7.38 6.75 12.5
5/12/2021 3:15:00 AM 6.8 44.24 0.07 7.36 6.71 12.53
5/12/2021 3:30:00 AM 6.77 44.186 0.07 7.37 6.72 12.53
5/12/2021 3:45:00 AM 6.74 44.132 0.07 7.36 6.68 12.54
5/12/2021 4:00:00 AM 6.7 44.06 0.07 7.39 6.71 12.55
5/12/2021 4:15:00 AM 6.67 44.006 0.07 7.37 6.66 12.57
5/12/2021 4:30:00 AM 6.65 43.97 0.07 7.37 6.68 12.58
5/12/2021 4:45:00 AM 6.62 43.916 0.07 7.36 6.57 12.58
5/12/2021 5:00:00 AM 6.59 43.862 0.07 7.38 6.58 12.6
5/12/2021 5:15:00 AM 6.55 43.79 0.07 7.37 6.63 12.6
5/12/2021 5:30:00 AM 6.51 43.718 0.07 7.37 6.63 12.62
5/12/2021 5:45:00 AM 6.48 43.664 0.07 7.37 6.54 12.62
5/12/2021 6:00:00 AM 6.44 43.592 0.07 7.36 6.62 12.65
5/12/2021 6:15:00 AM 6.41 43.538 0.07 7.37 6.71 12.68
5/12/2021 6:30:00 AM 6.38 43.484 0.07 7.38 6.48 12.71
5/12/2021 6:45:00 AM 6.36 43.448 0.07 7.37 6.7 12.73
5/12/2021 7:00:00 AM 6.34 43.412 0.07 7.39 6.61 12.76
5/12/2021 7:15:00 AM 6.33 43.394 0.07 7.39 6.68 12.79
5/12/2021 7:30:00 AM 6.32 43.376 0.07 7.4 6.69 12.81
5/12/2021 7:45:00 AM 6.32 43.376 0.07 7.4 6.52 12.84
5/12/2021 8:00:00 AM 6.34 43.412 0.07 7.41 6.57 12.87
5/12/2021 8:15:00 AM 6.38 43.484 0.07 7.41 6.53 12.89
5/12/2021 8:30:00 AM 6.45 43.61 0.07 7.43 6.65 12.89
5/12/2021 8:45:00 AM 6.56 43.808 0.07 7.44 6.32 12.91
5/12/2021 9:00:00 AM 6.69 44.042 0.07 7.46 6.5 12.9
5/12/2021 9:15:00 AM 6.84 44.312 0.069 7.45 6.41 12.89
5/12/2021 9:30:00 AM 7.01 44.618 0.069 7.46 6.45 12.86
5/12/2021 9:45:00 AM 7.21 44.978 0.069 7.48 6.4 12.82
5/12/2021 10:00:00 AM 7.41 45.338 0.069 7.49 6.28 12.78
5/12/2021 10:15:00 AM 7.64 45.752 0.069 7.49 6.25 12.74
5/12/2021 10:30:00 AM 7.88 46.184 0.069 7.51 6.34 12.69
5/12/2021 10:45:00 AM 8.14 46.652 0.069 7.5 6.39 12.65
5/12/2021 11:00:00 AM 8.41 47.138 0.069 7.51 6.32 12.57
5/12/2021 11:15:00 AM 8.69 47.642 0.069 7.53 6.46 12.51
5/12/2021 11:30:00 AM 8.97 48.146 0.069 7.53 6.3 12.44
5/12/2021 11:45:00 AM 9.22 48.596 0.069 7.52 6.41 12.38
5/12/2021 12:00:00 PM 9.41 48.938 0.069 7.54 6.35 12.31
5/12/2021 12:15:00 PM 9.4 48.92 0.069 7.53 6.4 12.26
5/12/2021 12:30:00 PM 9.36 48.848 0.069 7.54 6.42 12.23
5/12/2021 12:45:00 PM 9.44 48.992 0.069 7.53 6.35 12.23
5/12/2021 1:00:00 PM 9.43 48.974 0.069 7.55 6.37 12.23
5/12/2021 1:15:00 PM 9.5 49.1 0.069 7.56 6.45 12.22
5/12/2021 1:30:00 PM 9.58 49.244 0.069 7.55 6.56 12.22
5/12/2021 1:45:00 PM 9.62 49.316 0.069 7.55 6.41 12.21
5/12/2021 2:00:00 PM 9.69 49.442 0.069 7.57 6.47 12.19
5/12/2021 2:15:00 PM 9.87 49.766 0.069 7.57 6.55 12.18
5/12/2021 2:30:00 PM 9.98 49.964 0.069 7.57 6.51 12.11
5/12/2021 2:45:00 PM 10.19 50.342 0.069 7.58 6.43 12.1
5/12/2021 3:00:00 PM 10.21 50.378 0.069 7.56 6.65 12.03
5/12/2021 3:15:00 PM 10.18 50.324 0.069 7.55 6.38 12
5/12/2021 3:30:00 PM 10.16 50.288 0.069 7.57 6.66 11.97
5/12/2021 3:45:00 PM 10.23 50.414 0.069 7.55 6.56 11.98
5/12/2021 4:00:00 PM 10.24 50.432 0.069 7.56 6.72 11.95
5/12/2021 4:15:00 PM 10.22 50.396 0.069 7.55 6.69 11.96
5/12/2021 4:30:00 PM 10.23 50.414 0.069 7.54 6.63 11.97
5/12/2021 4:45:00 PM 10.14 50.252 0.069 7.57 6.65 11.97
5/12/2021 5:00:00 PM 10.08 50.144 0.069 7.56 6.69 11.94
5/12/2021 5:15:00 PM 10.04 50.072 0.069 7.54 6.59 11.93
5/12/2021 5:30:00 PM 9.96 49.928 0.069 7.53 6.63 11.93
5/12/2021 5:45:00 PM 9.92 49.856 0.069 7.53 6.83 11.91
5/12/2021 6:00:00 PM 9.85 49.73 0.069 7.52 7 11.9
5/12/2021 6:15:00 PM 9.81 49.658 0.069 7.52 6.69 11.91
5/12/2021 6:30:00 PM 9.71 49.478 0.069 7.51 6.77 11.91
5/12/2021 6:45:00 PM 9.64 49.352 0.069 7.49 6.85 11.91
5/12/2021 7:00:00 PM 9.57 49.226 0.069 7.48 6.77 11.92
5/12/2021 7:15:00 PM 9.51 49.118 0.069 7.5 6.76 11.92
5/12/2021 7:30:00 PM 9.45 49.01 0.069 7.47 6.85 11.92
5/12/2021 7:45:00 PM 9.4 48.92 0.069 7.47 6.93 11.92
5/12/2021 8:00:00 PM 9.33 48.794 0.07 7.46 6.89 11.9
5/12/2021 8:15:00 PM 9.25 48.65 0.07 7.44 6.84 11.91
5/12/2021 8:30:00 PM 9.15 48.47 0.07 7.45 6.94 11.9
5/12/2021 8:45:00 PM 9.05 48.29 0.07 7.41 7 11.91
5/12/2021 9:00:00 PM 8.95 48.11 0.07 7.39 6.99 11.93
5/12/2021 9:15:00 PM 8.86 47.948 0.07 7.4 7.14 11.94
5/12/2021 9:30:00 PM 8.78 47.804 0.07 7.4 7.11 11.96
5/12/2021 9:45:00 PM 8.69 47.642 0.07 7.4 7.19 11.99
5/12/2021 10:00:00 PM 8.6 47.48 0.07 7.39 7.09 12.01
5/12/2021 10:15:00 PM 8.51 47.318 0.07 7.39 6.93 12.04
5/12/2021 10:30:00 PM 8.43 47.174 0.07 7.39 7.17 12.06
5/12/2021 10:45:00 PM 8.34 47.012 0.07 7.38 7.07 12.09
5/12/2021 11:00:00 PM 8.26 46.868 0.07 7.38 7.28 12.1
5/12/2021 11:15:00 PM 8.17 46.706 0.07 7.39 7.22 12.14
5/12/2021 11:30:00 PM 8.09 46.562 0.07 7.39 7.06 12.16
5/12/2021 11:45:00 PM 8.02 46.436 0.07 7.38 7.14 12.17
5/13/2021 12:00:00 AM 7.94 46.292 0.07 7.38 7.04 12.2
5/13/2021 12:15:00 AM 7.86 46.148 0.07 7.39 7.09 12.23
5/13/2021 12:30:00 AM 7.79 46.022 0.07 7.39 7.01 12.26
5/13/2021 12:45:00 AM 7.72 45.896 0.07 7.37 7.04 12.27
5/13/2021 1:00:00 AM 7.65 45.77 0.07 7.37 7.07 12.29
5/13/2021 1:15:00 AM 7.58 45.644 0.07 7.39 7.32 12.31
5/13/2021 1:30:00 AM 7.51 45.518 0.07 7.37 7.09 12.34
5/13/2021 1:45:00 AM 7.44 45.392 0.07 7.38 7.12 12.36
5/13/2021 2:00:00 AM 7.37 45.266 0.07 7.38 7.13 12.39
5/13/2021 2:15:00 AM 7.31 45.158 0.07 7.37 7.07 12.41
5/13/2021 2:30:00 AM 7.25 45.05 0.071 7.37 7.06 12.42
5/13/2021 2:45:00 AM 7.19 44.942 0.071 7.37 7.1 12.44
5/13/2021 3:00:00 AM 7.13 44.834 0.071 7.37 7.16 12.45
5/13/2021 3:15:00 AM 7.07 44.726 0.071 7.39 6.95 12.47
5/13/2021 3:30:00 AM 7.02 44.636 0.071 7.38 6.96 12.49
5/13/2021 3:45:00 AM 6.97 44.546 0.071 7.37 7.18 12.51
5/13/2021 4:00:00 AM 6.92 44.456 0.071 7.37 7.23 12.52
5/13/2021 4:15:00 AM 6.87 44.366 0.071 7.37 7.04 12.53
5/13/2021 4:30:00 AM 6.82 44.276 0.071 7.37 7.27 12.55
5/13/2021 4:45:00 AM 6.77 44.186 0.071 7.38 7.17 12.56
5/13/2021 5:00:00 AM 6.72 44.096 0.071 7.38 7.12 12.57
5/13/2021 5:15:00 AM 6.68 44.024 0.071 7.38 7.07 12.6
5/13/2021 5:30:00 AM 6.63 43.934 0.071 7.38 7.15 12.61
5/13/2021 5:45:00 AM 6.59 43.862 0.071 7.37 7.19 12.63
5/13/2021 6:00:00 AM 6.55 43.79 0.071 7.38 7.37 12.65
5/13/2021 6:15:00 AM 6.51 43.718 0.071 7.37 7.28 12.67
5/13/2021 6:30:00 AM 6.48 43.664 0.071 7.4 7.2 12.7
5/13/2021 6:45:00 AM 6.45 43.61 0.071 7.4 7.14 12.74
5/13/2021 7:00:00 AM 6.42 43.556 0.071 7.41 7.22 12.77
5/13/2021 7:15:00 AM 6.4 43.52 0.071 7.4 7.11 12.8
5/13/2021 7:30:00 AM 6.38 43.484 0.071 7.41 7.14 12.83
5/13/2021 7:45:00 AM 6.37 43.466 0.071 7.42 7.14 12.86
5/13/2021 8:00:00 AM 6.38 43.484 0.071 7.42 7.08 12.88
5/13/2021 8:15:00 AM 6.41 43.538 0.071 7.43 7.22 12.91
5/13/2021 8:30:00 AM 6.46 43.628 0.071 7.44 7.06 12.93
5/13/2021 8:45:00 AM 6.57 43.826 0.071 7.45 7.03 12.94
5/13/2021 9:00:00 AM 6.72 44.096 0.071 7.47 7.07 12.96
5/13/2021 9:15:00 AM 6.87 44.366 0.071 7.47 7.08 12.94
5/13/2021 9:30:00 AM 7.05 44.69 0.07 7.48 7.05 12.91
5/13/2021 9:45:00 AM 7.27 45.086 0.07 7.49 7.06 12.86
5/13/2021 10:00:00 AM 7.5 45.5 0.07 7.5 7.03 12.82
5/13/2021 10:15:00 AM 7.75 45.95 0.07 7.52 6.95 12.76
5/13/2021 10:30:00 AM 7.89 46.202 0.07 7.52 7.02 12.71
5/13/2021 10:45:00 AM 7.97 46.346 0.07 7.52 7.16 12.66
5/13/2021 11:00:00 AM 8.04 46.472 0.07 7.53 7 12.61
5/13/2021 11:15:00 AM 8.08 46.544 0.07 7.54 6.99 12.6
5/13/2021 11:30:00 AM 8.16 46.688 0.07 7.53 7.05 12.58
5/13/2021 11:45:00 AM 8.35 47.03 0.07 7.54 7.23 12.56
5/13/2021 12:00:00 PM 8.52 47.336 0.07 7.54 7.11 12.53
5/13/2021 12:15:00 PM 8.55 47.39 0.07 7.53 7.21 12.45
5/13/2021 12:30:00 PM 8.85 47.93 0.07 7.55 7.08 12.44
5/13/2021 12:45:00 PM 8.85 47.93 0.07 7.55 7.27 12.39
5/13/2021 1:00:00 PM 9.06 48.308 0.07 7.55 7.04 12.38
5/13/2021 1:15:00 PM 9.25 48.65 0.07 7.56 7.16 12.35
5/13/2021 1:30:00 PM 9.49 49.082 0.07 7.56 7.17 12.28
5/13/2021 1:45:00 PM 9.43 48.974 0.07 7.56 7.29 12.22
5/13/2021 2:00:00 PM 9.38 48.884 0.07 7.55 7.29 12.2
5/13/2021 2:15:00 PM 9.35 48.83 0.07 7.56 7.15 12.22
5/13/2021 2:30:00 PM 9.53 49.154 0.07 7.56 7.29 12.2
5/13/2021 2:45:00 PM 9.53 49.154 0.07 7.55 7.2 12.16
5/13/2021 3:00:00 PM 9.49 49.082 0.07 7.56 7.1 12.17
5/13/2021 3:15:00 PM 9.54 49.172 0.07 7.57 7.26 12.17
5/13/2021 3:30:00 PM 9.55 49.19 0.07 7.57 7.02 12.17
5/13/2021 3:45:00 PM 9.56 49.208 0.07 7.57 7.06 12.17
5/13/2021 4:00:00 PM 9.69 49.442 0.07 7.58 7.32 12.15
5/13/2021 4:15:00 PM 9.7 49.46 0.07 7.56 7.27 12.11
5/13/2021 4:30:00 PM 9.68 49.424 0.07 7.56 7.32 12.12
5/13/2021 4:45:00 PM 9.8 49.64 0.07 7.57 7.32 12.1
5/13/2021 5:00:00 PM 9.79 49.622 0.07 7.56 7.17 12.07
5/13/2021 5:15:00 PM 9.78 49.604 0.07 7.56 7.4 12.07
5/13/2021 5:30:00 PM 9.81 49.658 0.07 7.56 7.18 12.05
5/13/2021 5:45:00 PM 9.81 49.658 0.07 7.55 7.32 12.03
5/13/2021 6:00:00 PM 9.76 49.568 0.07 7.56 7.27 12.03
5/13/2021 6:15:00 PM 9.7 49.46 0.07 7.55 7.25 12
5/13/2021 6:30:00 PM 9.63 49.334 0.07 7.53 7.17 11.98
5/13/2021 6:45:00 PM 9.57 49.226 0.07 7.53 7.46 11.96
5/13/2021 7:00:00 PM 9.52 49.136 0.07 7.51 7.29 11.96
5/13/2021 7:15:00 PM 9.47 49.046 0.07 7.5 7.41 11.94
5/13/2021 7:30:00 PM 9.43 48.974 0.07 7.48 7.35 11.94
5/13/2021 7:45:00 PM 9.38 48.884 0.07 7.47 7.31 11.92
5/13/2021 8:00:00 PM 9.33 48.794 0.07 7.47 7.84 11.91
5/13/2021 8:15:00 PM 9.26 48.668 0.071 7.45 7.38 11.9
5/13/2021 8:30:00 PM 9.18 48.524 0.071 7.44 7.26 11.9
5/13/2021 8:45:00 PM 9.11 48.398 0.071 7.43 7.31 11.89
5/13/2021 9:00:00 PM 9.04 48.272 0.071 7.42 7.5 11.91
5/13/2021 9:15:00 PM 8.96 48.128 0.071 7.4 7.57 11.91
5/13/2021 9:30:00 PM 8.88 47.984 0.071 7.41 7.49 11.92
5/13/2021 9:45:00 PM 8.81 47.858 0.071 7.4 7.45 11.94
5/13/2021 10:00:00 PM 8.73 47.714 0.071 7.39 7.45 11.96
5/13/2021 10:15:00 PM 8.65 47.57 0.071 7.39 7.45 11.98
5/13/2021 10:30:00 PM 8.58 47.444 0.071 7.39 7.47 12
5/13/2021 10:45:00 PM 8.51 47.318 0.071 7.38 7.34 12.03
5/13/2021 11:00:00 PM 8.43 47.174 0.071 7.38 7.46 12.05
5/13/2021 11:15:00 PM 8.36 47.048 0.071 7.39 7.64 12.06
5/13/2021 11:30:00 PM 8.29 46.922 0.071 7.39 7.59 12.09
5/13/2021 11:45:00 PM 8.22 46.796 0.071 7.39 7.59 12.11
5/14/2021 12:00:00 AM 8.15 46.67 0.071 7.39 7.53 12.13
5/14/2021 12:15:00 AM 8.08 46.544 0.071 7.39 7.51 12.16
5/14/2021 12:30:00 AM 8.01 46.418 0.071 7.38 7.36 12.18
5/14/2021 12:45:00 AM 7.94 46.292 0.071 7.37 7.42 12.19
5/14/2021 1:00:00 AM 7.88 46.184 0.072 7.38 7.56 12.22
5/14/2021 1:15:00 AM 7.81 46.058 0.072 7.38 7.55 12.24
5/14/2021 1:30:00 AM 7.75 45.95 0.072 7.38 7.48 12.26
5/14/2021 1:45:00 AM 7.68 45.824 0.072 7.38 7.52 12.27
5/14/2021 2:00:00 AM 7.62 45.716 0.072 7.38 7.43 12.29
5/14/2021 2:15:00 AM 7.56 45.608 0.072 7.38 7.77 12.3
5/14/2021 2:30:00 AM 7.5 45.5 0.072 7.38 7.78 12.32
5/14/2021 2:45:00 AM 7.44 45.392 0.072 7.39 7.54 12.35
5/14/2021 3:00:00 AM 7.38 45.284 0.072 7.39 7.71 12.37
5/14/2021 3:15:00 AM 7.32 45.176 0.072 7.38 7.56 12.39
5/14/2021 3:30:00 AM 7.27 45.086 0.072 7.38 7.5 12.4
5/14/2021 3:45:00 AM 7.21 44.978 0.072 7.38 7.67 12.42
5/14/2021 4:00:00 AM 7.16 44.888 0.072 7.37 7.6 12.44
5/14/2021 4:15:00 AM 7.11 44.798 0.072 7.38 7.52 12.45
5/14/2021 4:30:00 AM 7.06 44.708 0.072 7.38 7.62 12.46
5/14/2021 4:45:00 AM 7.01 44.618 0.072 7.38 7.91 12.48
5/14/2021 5:00:00 AM 6.96 44.528 0.072 7.38 7.69 12.5
5/14/2021 5:15:00 AM 6.92 44.456 0.072 7.38 7.55 12.52
5/14/2021 5:30:00 AM 6.87 44.366 0.072 7.39 7.71 12.53
5/14/2021 5:45:00 AM 6.83 44.294 0.072 7.37 7.6 12.55
5/14/2021 6:00:00 AM 6.79 44.222 0.072 7.37 7.65 12.56
5/14/2021 6:15:00 AM 6.75 44.15 0.072 7.39 7.67 12.59
5/14/2021 6:30:00 AM 6.72 44.096 0.072 7.4 7.78 12.63
5/14/2021 6:45:00 AM 6.69 44.042 0.072 7.41 7.65 12.66
5/14/2021 7:00:00 AM 6.66 43.988 0.072 7.41 7.71 12.7
5/14/2021 7:15:00 AM 6.63 43.934 0.072 7.42 7.52 12.73
5/14/2021 7:30:00 AM 6.62 43.916 0.072 7.42 7.55 12.77
5/14/2021 7:45:00 AM 6.61 43.898 0.072 7.44 7.76 12.81
5/14/2021 8:00:00 AM 6.62 43.916 0.072 7.44 7.47 12.83
5/14/2021 8:15:00 AM 6.64 43.952 0.072 7.45 7.66 12.86
5/14/2021 8:30:00 AM 6.7 44.06 0.072 7.46 7.41 12.87
5/14/2021 8:45:00 AM 6.8 44.24 0.072 7.47 7.43 12.89
5/14/2021 9:00:00 AM 6.94 44.492 0.072 7.48 7.65 12.89
5/14/2021 9:15:00 AM 7.1 44.78 0.072 7.49 7.6 12.88
5/14/2021 9:30:00 AM 7.29 45.122 0.072 7.5 7.52 12.85
5/14/2021 9:45:00 AM 7.49 45.482 0.072 7.51 7.58 12.81
5/14/2021 10:00:00 AM 7.73 45.914 0.072 7.52 7.59 12.78
5/14/2021 10:15:00 AM 7.97 46.346 0.072 7.52 7.58 12.72
5/14/2021 10:30:00 AM 8.24 46.832 0.072 7.54 7.72 12.65
5/14/2021 10:45:00 AM 8.42 47.156 0.072 7.55 7.56 12.59
5/14/2021 11:00:00 AM 8.54 47.372 0.072 7.55 7.72 12.53
5/14/2021 11:15:00 AM 9.16 48.488 0.072 7.57 7.64 12.47
5/14/2021 11:30:00 AM 9.59 49.262 0.071 7.56 7.64 12.38
5/14/2021 11:45:00 AM 9.95 49.91 0.071 7.59 7.65 12.3
5/14/2021 12:00:00 PM 9.99 49.982 0.071 7.58 7.54 12.18
5/14/2021 12:15:00 PM 9.86 49.748 0.071 7.56 7.56 12.11
5/14/2021 12:30:00 PM 9.68 49.424 0.071 7.56 7.69 12.12
5/14/2021 12:45:00 PM 9.6 49.28 0.071 7.58 7.49 12.15
5/14/2021 1:00:00 PM 9.6 49.28 0.071 7.58 8.19 12.18
5/14/2021 1:15:00 PM 9.68 49.424 0.071 7.59 7.49 12.18
5/14/2021 1:30:00 PM 9.78 49.604 0.071 7.58 7.48 12.18
5/14/2021 1:45:00 PM 9.86 49.748 0.071 7.6 7.83 12.18
5/14/2021 2:00:00 PM 9.97 49.946 0.071 7.61 7.62 12.17
5/14/2021 2:15:00 PM 10.11 50.198 0.071 7.62 7.65 12.15
5/14/2021 2:30:00 PM 10.35 50.63 0.071 7.63 7.69 12.11
5/14/2021 2:45:00 PM 10.57 51.026 0.071 7.62 7.67 12.04
5/14/2021 3:00:00 PM 10.67 51.206 0.071 7.63 7.72 11.98
5/14/2021 3:15:00 PM 10.71 51.278 0.071 7.64 7.6 11.94
5/14/2021 3:30:00 PM 10.75 51.35 0.071 7.62 7.54 11.93
5/14/2021 3:45:00 PM 10.7 51.26 0.071 7.63 7.7 11.94
5/14/2021 4:00:00 PM 10.66 51.188 0.071 7.63 7.73 11.94
5/14/2021 4:15:00 PM 10.67 51.206 0.071 7.63 8.03 11.92
5/14/2021 4:30:00 PM 10.74 51.332 0.071 7.63 7.7 11.89
5/14/2021 4:45:00 PM 10.8 51.44 0.071 7.63 7.69 11.87
5/14/2021 5:00:00 PM 10.89 51.602 0.071 7.62 7.73 11.85
5/14/2021 5:15:00 PM 11.01 51.818 0.071 7.62 7.76 11.81
5/14/2021 5:30:00 PM 11.14 52.052 0.071 7.62 7.73 11.76
5/14/2021 5:45:00 PM 11.2 52.16 0.071 7.61 7.82 11.74
5/14/2021 6:00:00 PM 11.19 52.142 0.071 7.61 7.93 11.73
5/14/2021 6:15:00 PM 11.18 52.124 0.071 7.6 7.78 11.72
5/14/2021 6:30:00 PM 11.1 51.98 0.071 7.6 7.98 11.7
5/14/2021 6:45:00 PM 11.03 51.854 0.071 7.59 7.81 11.68
5/14/2021 7:00:00 PM 10.95 51.71 0.071 7.56 7.87 11.67
5/14/2021 7:15:00 PM 10.88 51.584 0.071 7.56 7.9 11.65
5/14/2021 7:30:00 PM 10.79 51.422 0.071 7.53 7.92 11.63
5/14/2021 7:45:00 PM 10.7 51.26 0.071 7.51 8 11.62
5/14/2021 8:00:00 PM 10.59 51.062 0.072 7.49 8.07 11.61
5/14/2021 8:15:00 PM 10.49 50.882 0.072 7.47 7.97 11.58
5/14/2021 8:30:00 PM 10.38 50.684 0.072 7.45 8.07 11.57
5/14/2021 8:45:00 PM 10.26 50.468 0.072 7.43 8.14 11.56
5/14/2021 9:00:00 PM 10.14 50.252 0.072 7.43 8.24 11.57
5/14/2021 9:15:00 PM 10.03 50.054 0.072 7.42 8.26 11.59
5/14/2021 9:30:00 PM 9.94 49.892 0.072 7.41 8.28 11.61
5/14/2021 9:45:00 PM 9.84 49.712 0.072 7.39 9.15 11.63
5/14/2021 10:00:00 PM 9.74 49.532 0.072 7.41 8.36 11.65
5/14/2021 10:15:00 PM 9.65 49.37 0.072 7.39 8.29 11.68
5/14/2021 10:30:00 PM 9.58 49.244 0.073 7.41 8.36 11.7
5/14/2021 10:45:00 PM 9.51 49.118 0.073 7.38 8.21 11.72
5/14/2021 11:00:00 PM 9.44 48.992 0.073 7.41 8.29 11.73
5/14/2021 11:15:00 PM 9.37 48.866 0.073 7.4 8.11 11.76
5/14/2021 11:30:00 PM 9.3 48.74 0.073 7.39 8.1 11.78
5/14/2021 11:45:00 PM 9.24 48.632 0.073 7.4 8.34 11.79
5/15/2021 12:00:00 AM 9.18 48.524 0.073 7.4 8.21 11.81
5/15/2021 12:15:00 AM 9.12 48.416 0.073 7.41 8.25 11.83
5/15/2021 12:30:00 AM 9.04 48.272 0.073 7.39 8.25 11.85
5/15/2021 12:45:00 AM 8.97 48.146 0.073 7.39 8.15 11.88
5/15/2021 1:00:00 AM 8.89 48.002 0.073 7.41 8.29 11.9
5/15/2021 1:15:00 AM 8.81 47.858 0.073 7.39 8.55 11.91
5/15/2021 1:30:00 AM 8.74 47.732 0.073 7.39 8.41 11.93
5/15/2021 1:45:00 AM 8.66 47.588 0.073 7.39 8.34 11.95
5/15/2021 2:00:00 AM 8.59 47.462 0.073 7.38 8.28 11.98
5/15/2021 2:15:00 AM 8.53 47.354 0.073 7.39 8.57 12
5/15/2021 2:30:00 AM 8.47 47.246 0.073 7.39 8.55 12.02
5/15/2021 2:45:00 AM 8.42 47.156 0.073 7.38 8.56 12.04
5/15/2021 3:00:00 AM 8.37 47.066 0.073 7.38 8.2 12.05
5/15/2021 3:15:00 AM 8.34 47.012 0.073 7.39 8.44 12.06
5/15/2021 3:30:00 AM 8.3 46.94 0.073 7.39 8.37 12.08
5/15/2021 3:45:00 AM 8.27 46.886 0.073 7.39 8.3 12.09
5/15/2021 4:00:00 AM 8.24 46.832 0.073 7.38 8.49 12.1
5/15/2021 4:15:00 AM 8.22 46.796 0.073 7.4 8.26 12.12
5/15/2021 4:30:00 AM 8.19 46.742 0.073 7.4 8.52 12.12
5/15/2021 4:45:00 AM 8.15 46.67 0.073 7.39 8.5 12.12
5/15/2021 5:00:00 AM 8.11 46.598 0.073 7.4 8.67 12.13
5/15/2021 5:15:00 AM 8.05 46.49 0.073 7.38 8.43 12.15
5/15/2021 5:30:00 AM 8 46.4 0.073 7.39 8.37 12.17
5/15/2021 5:45:00 AM 7.94 46.292 0.074 7.39 8.68 12.19
5/15/2021 6:00:00 AM 7.89 46.202 0.074 7.4 8.42 12.21
5/15/2021 6:15:00 AM 7.84 46.112 0.074 7.39 8.46 12.23
5/15/2021 6:30:00 AM 7.79 46.022 0.074 7.4 8.49 12.28
5/15/2021 6:45:00 AM 7.74 45.932 0.074 7.39 8.61 12.32
5/15/2021 7:00:00 AM 7.7 45.86 0.074 7.42 8.49 12.36
5/15/2021 7:15:00 AM 7.66 45.788 0.074 7.43 8.66 12.41
5/15/2021 7:30:00 AM 7.63 45.734 0.074 7.44 8.6 12.44
5/15/2021 7:45:00 AM 7.61 45.698 0.074 7.45 8.41 12.49
5/15/2021 8:00:00 AM 7.61 45.698 0.074 7.45 8.44 12.52
5/15/2021 8:15:00 AM 7.62 45.716 0.074 7.46 8.46 12.55
5/15/2021 8:30:00 AM 7.68 45.824 0.073 7.46 8.37 12.58
5/15/2021 8:45:00 AM 7.77 45.986 0.073 7.48 8.46 12.59
5/15/2021 9:00:00 AM 7.9 46.22 0.073 7.51 8.43 12.6
5/15/2021 9:15:00 AM 8.05 46.49 0.073 7.51 8.49 12.6
5/15/2021 9:30:00 AM 8.23 46.814 0.073 7.52 8.29 12.58
5/15/2021 9:45:00 AM 8.42 47.156 0.073 7.53 8.65 12.54
5/15/2021 10:00:00 AM 8.64 47.552 0.073 7.54 8.54 12.5
5/15/2021 10:15:00 AM 8.89 48.002 0.073 7.56 8.46 12.46
5/15/2021 10:30:00 AM 9.16 48.488 0.073 7.56 8.35 12.41
5/15/2021 10:45:00 AM 9.43 48.974 0.073 7.58 8.54 12.35
5/15/2021 11:00:00 AM 9.72 49.496 0.073 7.58 8.87 12.29
5/15/2021 11:15:00 AM 10.01 50.018 0.073 7.59 8.59 12.24
5/15/2021 11:30:00 AM 10.15 50.27 0.073 7.6 8.54 12.15
5/15/2021 11:45:00 AM 10.15 50.27 0.073 7.59 8.55 12.1
5/15/2021 12:00:00 PM 10.15 50.27 0.073 7.59 8.56 12.06
5/15/2021 12:15:00 PM 10.19 50.342 0.073 7.59 8.72 12.06
5/15/2021 12:30:00 PM 10.29 50.522 0.073 7.61 8.57 12.05
5/15/2021 12:45:00 PM 10.44 50.792 0.073 7.62 8.49 12.01
5/15/2021 1:00:00 PM 10.54 50.972 0.073 7.62 8.87 11.99
5/15/2021 1:15:00 PM 10.73 51.314 0.073 7.63 8.72 12
5/15/2021 1:30:00 PM 10.98 51.764 0.073 7.64 8.45 11.97
5/15/2021 1:45:00 PM 11.34 52.412 0.073 7.65 8.73 11.9
5/15/2021 2:00:00 PM 11.51 52.718 0.073 7.66 8.55 11.85
5/15/2021 2:15:00 PM 11.44 52.592 0.073 7.65 8.6 11.81
5/15/2021 2:30:00 PM 11.28 52.304 0.073 7.64 8.47 11.82
5/15/2021 2:45:00 PM 11.29 52.322 0.073 7.65 8.57 11.84
5/15/2021 3:00:00 PM 11.4 52.52 0.073 7.64 8.5 11.82
5/15/2021 3:15:00 PM 11.48 52.664 0.073 7.65 8.86 11.81
5/15/2021 3:30:00 PM 11.45 52.61 0.073 7.67 8.79 11.79
5/15/2021 3:45:00 PM 11.48 52.664 0.073 7.67 8.64 11.79
5/15/2021 4:00:00 PM 11.54 52.772 0.073 7.67 9.04 11.74
5/15/2021 4:15:00 PM 11.5 52.7 0.073 7.65 8.79 11.72
5/15/2021 4:30:00 PM 11.47 52.646 0.073 7.66 8.75 11.72
5/15/2021 4:45:00 PM 11.45 52.61 0.073 7.64 8.83 11.7
5/15/2021 5:00:00 PM 11.44 52.592 0.073 7.64 8.81 11.69
5/15/2021 5:15:00 PM 11.4 52.52 0.073 7.63 8.77 11.69
5/15/2021 5:30:00 PM 11.4 52.52 0.073 7.63 8.61 11.69
5/15/2021 5:45:00 PM 11.42 52.556 0.073 7.63 8.76 11.68
5/15/2021 6:00:00 PM 11.44 52.592 0.073 7.63 8.77 11.66
5/15/2021 6:15:00 PM 11.36 52.448 0.073 7.61 8.66 11.62
5/15/2021 6:30:00 PM 11.26 52.268 0.073 7.6 8.84 11.6
5/15/2021 6:45:00 PM 11.2 52.16 0.073 7.58 8.81 11.58
5/15/2021 7:00:00 PM 11.13 52.034 0.073 7.56 8.76 11.55
5/15/2021 7:15:00 PM 11.05 51.89 0.074 7.54 8.93 11.53
5/15/2021 7:30:00 PM 10.98 51.764 0.074 7.52 8.88 11.53
5/15/2021 7:45:00 PM 10.9 51.62 0.074 7.51 8.72 11.51
5/15/2021 8:00:00 PM 10.81 51.458 0.074 7.49 8.91 11.5
5/15/2021 8:15:00 PM 10.72 51.296 0.074 7.47 8.85 11.47
5/15/2021 8:30:00 PM 10.63 51.134 0.074 7.45 9.09 11.46
5/15/2021 8:45:00 PM 10.54 50.972 0.074 7.45 8.99 11.46
5/15/2021 9:00:00 PM 10.44 50.792 0.074 7.44 9.09 11.47
5/15/2021 9:15:00 PM 10.36 50.648 0.074 7.42 8.95 11.47
5/15/2021 9:30:00 PM 10.29 50.522 0.074 7.41 9.07 11.49
5/15/2021 9:45:00 PM 10.21 50.378 0.075 7.41 9.17 11.5
5/15/2021 10:00:00 PM 10.15 50.27 0.075 7.41 9.14 11.52
5/15/2021 10:15:00 PM 10.08 50.144 0.075 7.4 9.22 11.54
5/15/2021 10:30:00 PM 10.02 50.036 0.075 7.4 9.13 11.55
5/15/2021 10:45:00 PM 9.96 49.928 0.075 7.4 9.5 11.56
5/15/2021 11:00:00 PM 9.9 49.82 0.075 7.39 9.29 11.58
5/15/2021 11:15:00 PM 9.83 49.694 0.075 7.4 9.27 11.6
5/15/2021 11:30:00 PM 9.76 49.568 0.075 7.4 9.57 11.62
5/15/2021 11:45:00 PM 9.7 49.46 0.075 7.4 9.21 11.64
5/16/2021 12:00:00 AM 9.65 49.37 0.075 7.4 9.49 11.65
5/16/2021 12:15:00 AM 9.59 49.262 0.075 7.4 9.47 11.67
5/16/2021 12:30:00 AM 9.54 49.172 0.075 7.39 9.46 11.68
5/16/2021 12:45:00 AM 9.49 49.082 0.075 7.4 9.26 11.7
5/16/2021 1:00:00 AM 9.44 48.992 0.075 7.4 9.5 11.72
5/16/2021 1:15:00 AM 9.4 48.92 0.075 7.39 9.35 11.73
5/16/2021 1:30:00 AM 9.36 48.848 0.075 7.4 9.34 11.73
5/16/2021 1:45:00 AM 9.31 48.758 0.075 7.4 9.33 11.75
5/16/2021 2:00:00 AM 9.25 48.65 0.075 7.38 9.9 11.76
5/16/2021 2:15:00 AM 9.19 48.542 0.075 7.4 9.39 11.78
5/16/2021 2:30:00 AM 9.13 48.434 0.075 7.39 9.55 11.79
5/16/2021 2:45:00 AM 9.06 48.308 0.075 7.39 9.6 11.81
5/16/2021 3:00:00 AM 9 48.2 0.075 7.39 9.52 11.83
5/16/2021 3:15:00 AM 8.94 48.092 0.075 7.39 9.36 11.85
5/16/2021 3:30:00 AM 8.88 47.984 0.075 7.39 9.46 11.86
5/16/2021 3:45:00 AM 8.82 47.876 0.075 7.39 9.52 11.88
5/16/2021 4:00:00 AM 8.75 47.75 0.075 7.39 9.59 11.9
5/16/2021 4:15:00 AM 8.69 47.642 0.075 7.38 9.47 11.92
5/16/2021 4:30:00 AM 8.63 47.534 0.075 7.4 9.43 11.94
5/16/2021 4:45:00 AM 8.59 47.462 0.075 7.39 9.43 11.95
5/16/2021 5:00:00 AM 8.56 47.408 0.075 7.4 9.47 11.96
5/16/2021 5:15:00 AM 8.53 47.354 0.075 7.39 9.74 11.97
5/16/2021 5:30:00 AM 8.49 47.282 0.075 7.39 9.39 11.98
5/16/2021 5:45:00 AM 8.44 47.192 0.075 7.4 9.46 12
5/16/2021 6:00:00 AM 8.41 47.138 0.075 7.4 9.8 12.02
5/16/2021 6:15:00 AM 8.4 47.12 0.075 7.4 9.61 12.04
5/16/2021 6:30:00 AM 8.38 47.084 0.075 7.41 9.57 12.07
5/16/2021 6:45:00 AM 8.37 47.066 0.075 7.42 9.4 12.12
5/16/2021 7:00:00 AM 8.37 47.066 0.075 7.43 9.53 12.17
5/16/2021 7:15:00 AM 8.38 47.084 0.075 7.44 9.56 12.22
5/16/2021 7:30:00 AM 8.4 47.12 0.075 7.46 9.8 12.27
5/16/2021 7:45:00 AM 8.42 47.156 0.075 7.47 10.06 12.31
5/16/2021 8:00:00 AM 8.46 47.228 0.075 7.5 9.55 12.35
5/16/2021 8:15:00 AM 8.5 47.3 0.075 7.5 9.43 12.36
5/16/2021 8:30:00 AM 8.55 47.39 0.075 7.52 9.53 12.38
5/16/2021 8:45:00 AM 8.59 47.462 0.075 7.52 9.35 12.36
5/16/2021 9:00:00 AM 8.63 47.534 0.075 7.52 9.61 12.37
5/16/2021 9:15:00 AM 8.71 47.678 0.075 7.54 9.77 12.39
5/16/2021 9:30:00 AM 8.81 47.858 0.075 7.55 9.67 12.41
5/16/2021 9:45:00 AM 8.9 48.02 0.075 7.57 9.4 12.41
5/16/2021 10:00:00 AM 8.98 48.164 0.075 7.57 9.36 12.39
5/16/2021 10:15:00 AM 9.06 48.308 0.075 7.57 9.33 12.37
5/16/2021 10:30:00 AM 9.15 48.47 0.075 7.59 9.37 12.36
5/16/2021 10:45:00 AM 9.24 48.632 0.075 7.59 10.28 12.36
5/16/2021 11:00:00 AM 9.35 48.83 0.075 7.61 9.83 12.33
5/16/2021 11:15:00 AM 9.46 49.028 0.075 7.61 9.48 12.31
5/16/2021 11:30:00 AM 9.56 49.208 0.075 7.62 9.5 12.3
5/16/2021 11:45:00 AM 9.67 49.406 0.075 7.62 9.51 12.28
5/16/2021 12:00:00 PM 9.77 49.586 0.075 7.63 9.71 12.25
5/16/2021 12:15:00 PM 9.86 49.748 0.075 7.64 9.55 12.23
5/16/2021 12:30:00 PM 9.95 49.91 0.075 7.66 9.59 12.2
5/16/2021 12:45:00 PM 10.03 50.054 0.075 7.64 9.63 12.17
5/16/2021 1:00:00 PM 10.11 50.198 0.075 7.64 9.63 12.15
5/16/2021 1:15:00 PM 10.18 50.324 0.075 7.66 9.58 12.12
5/16/2021 1:30:00 PM 10.24 50.432 0.075 7.66 9.69 12.11
5/16/2021 1:45:00 PM 10.33 50.594 0.075 7.66 9.38 12.1
5/16/2021 2:00:00 PM 10.43 50.774 0.075 7.67 9.5 12.09
5/16/2021 2:15:00 PM 10.52 50.936 0.075 7.67 9.54 12.06
5/16/2021 2:30:00 PM 10.6 51.08 0.075 7.67 9.56 12.03
5/16/2021 2:45:00 PM 10.71 51.278 0.075 7.67 9.68 12.01
5/16/2021 3:00:00 PM 10.85 51.53 0.075 7.68 9.77 11.99
5/16/2021 3:15:00 PM 10.94 51.692 0.075 7.67 9.56 11.95
5/16/2021 3:30:00 PM 11 51.8 0.075 7.67 9.77 11.93
5/16/2021 3:45:00 PM 11.03 51.854 0.075 7.67 9.62 11.89
5/16/2021 4:00:00 PM 11.04 51.872 0.075 7.67 9.67 11.87
5/16/2021 4:15:00 PM 11.03 51.854 0.075 7.66 9.53 11.84
5/16/2021 4:30:00 PM 10.98 51.764 0.075 7.65 10.08 11.81
5/16/2021 4:45:00 PM 10.91 51.638 0.075 7.64 9.94 11.78
5/16/2021 5:00:00 PM 10.85 51.53 0.075 7.61 9.73 11.76
5/16/2021 5:15:00 PM 10.82 51.476 0.075 7.62 9.8 11.76
5/16/2021 5:30:00 PM 10.84 51.512 0.075 7.62 9.94 11.81
5/16/2021 5:45:00 PM 10.88 51.584 0.075 7.64 9.77 11.82
5/16/2021 6:00:00 PM 10.88 51.584 0.075 7.64 9.81 11.8
5/16/2021 6:15:00 PM 10.87 51.566 0.075 7.63 9.89 11.8
5/16/2021 6:30:00 PM 10.84 51.512 0.075 7.62 9.8 11.77
5/16/2021 6:45:00 PM 10.82 51.476 0.075 7.6 9.81 11.74
5/16/2021 7:00:00 PM 10.79 51.422 0.075 7.58 9.72 11.69
5/16/2021 7:15:00 PM 10.74 51.332 0.075 7.57 9.9 11.67
5/16/2021 7:30:00 PM 10.68 51.224 0.075 7.56 9.84 11.64
5/16/2021 7:45:00 PM 10.6 51.08 0.076 7.55 9.93 11.62
5/16/2021 8:00:00 PM 10.53 50.954 0.076 7.52 10.12 11.6
5/16/2021 8:15:00 PM 10.44 50.792 0.076 7.51 9.98 11.58
5/16/2021 8:30:00 PM 10.35 50.63 0.076 7.49 9.99 11.56
5/16/2021 8:45:00 PM 10.25 50.45 0.076 7.48 10.15 11.55
5/16/2021 9:00:00 PM 10.16 50.288 0.076 7.46 10.24 11.55
5/16/2021 9:15:00 PM 10.07 50.126 0.076 7.45 10.17 11.55
5/16/2021 9:30:00 PM 9.98 49.964 0.076 7.44 10.24 11.57
5/16/2021 9:45:00 PM 9.9 49.82 0.076 7.43 10.37 11.58
5/16/2021 10:00:00 PM 9.82 49.676 0.077 7.44 10.3 11.6
5/16/2021 10:15:00 PM 9.75 49.55 0.077 7.44 10.21 11.61
5/16/2021 10:30:00 PM 9.68 49.424 0.077 7.44 10.29 11.64
5/16/2021 10:45:00 PM 9.61 49.298 0.077 7.43 10.22 11.66
5/16/2021 11:00:00 PM 9.54 49.172 0.077 7.43 10.1 11.68
5/16/2021 11:15:00 PM 9.46 49.028 0.077 7.44 10.29 11.7
5/16/2021 11:30:00 PM 9.38 48.884 0.077 7.43 10.61 11.71
5/16/2021 11:45:00 PM 9.3 48.74 0.077 7.42 10.24 11.74
5/17/2021 12:00:00 AM 9.23 48.614 0.077 7.42 10.41 11.76
5/17/2021 12:15:00 AM 9.16 48.488 0.077 7.43 10.4 11.79
5/17/2021 12:30:00 AM 9.08 48.344 0.077 7.42 10.49 11.81
5/17/2021 12:45:00 AM 9.02 48.236 0.077 7.42 10.27 11.83
5/17/2021 1:00:00 AM 8.95 48.11 0.077 7.43 10.39 11.85
5/17/2021 1:15:00 AM 8.88 47.984 0.077 7.42 10.43 11.87
5/17/2021 1:30:00 AM 8.81 47.858 0.077 7.42 10.5 11.89
5/17/2021 1:45:00 AM 8.75 47.75 0.077 7.42 10.59 11.9
5/17/2021 2:00:00 AM 8.69 47.642 0.077 7.42 10.41 11.92
5/17/2021 2:15:00 AM 8.62 47.516 0.077 7.41 10.54 11.95
5/17/2021 2:30:00 AM 8.56 47.408 0.077 7.43 10.63 11.96
5/17/2021 2:45:00 AM 8.5 47.3 0.077 7.42 10.5 11.98
5/17/2021 3:00:00 AM 8.44 47.192 0.077 7.41 10.29 12
5/17/2021 3:15:00 AM 8.38 47.084 0.077 7.43 10.41 12.01
5/17/2021 3:30:00 AM 8.33 46.994 0.077 7.42 10.62 12.03
5/17/2021 3:45:00 AM 8.27 46.886 0.077 7.42 10.86 12.05
5/17/2021 4:00:00 AM 8.21 46.778 0.077 7.42 10.47 12.06
5/17/2021 4:15:00 AM 8.16 46.688 0.077 7.43 10.72 12.08
5/17/2021 4:30:00 AM 8.1 46.58 0.077 7.42 10.37 12.09
5/17/2021 4:45:00 AM 8.05 46.49 0.077 7.42 10.68 12.11
5/17/2021 5:00:00 AM 7.99 46.382 0.077 7.42 10.58 12.13
5/17/2021 5:15:00 AM 7.94 46.292 0.077 7.42 10.85 12.14
5/17/2021 5:30:00 AM 7.89 46.202 0.077 7.42 10.67 12.16
5/17/2021 5:45:00 AM 7.83 46.094 0.077 7.42 10.55 12.18
5/17/2021 6:00:00 AM 7.79 46.022 0.077 7.42 10.5 12.2
5/17/2021 6:15:00 AM 7.74 45.932 0.077 7.42 10.73 12.23
5/17/2021 6:30:00 AM 7.7 45.86 0.077 7.43 10.59 12.27
5/17/2021 6:45:00 AM 7.66 45.788 0.077 7.44 10.86 12.32
5/17/2021 7:00:00 AM 7.63 45.734 0.077 7.45 10.97 12.37
5/17/2021 7:15:00 AM 7.61 45.698 0.077 7.45 10.59 12.41
5/17/2021 7:30:00 AM 7.59 45.662 0.077 7.47 10.71 12.44
5/17/2021 7:45:00 AM 7.58 45.644 0.077 7.48 10.83 12.49
5/17/2021 8:00:00 AM 7.58 45.644 0.077 7.47 10.63 12.52
5/17/2021 8:15:00 AM 7.62 45.716 0.077 7.5 10.74 12.54
5/17/2021 8:30:00 AM 7.68 45.824 0.077 7.5 10.91 12.57
5/17/2021 8:45:00 AM 7.79 46.022 0.077 7.51 10.6 12.58
5/17/2021 9:00:00 AM 7.94 46.292 0.077 7.53 10.67 12.58
5/17/2021 9:15:00 AM 8.12 46.616 0.077 7.54 10.63 12.58
5/17/2021 9:30:00 AM 8.33 46.994 0.077 7.55 10.8 12.55
5/17/2021 9:45:00 AM 8.55 47.39 0.077 7.56 11.12 12.52
5/17/2021 10:00:00 AM 8.79 47.822 0.077 7.57 10.79 12.48
5/17/2021 10:15:00 AM 9.07 48.326 0.077 7.59 10.79 12.42
5/17/2021 10:30:00 AM 9.38 48.884 0.077 7.59 10.7 12.37
5/17/2021 10:45:00 AM 9.7 49.46 0.077 7.6 10.8 12.29
5/17/2021 11:00:00 AM 10.04 50.072 0.077 7.61 10.85 12.22
5/17/2021 11:15:00 AM 10.38 50.684 0.077 7.61 10.99 12.14
5/17/2021 11:30:00 AM 10.71 51.278 0.077 7.63 11.08 12.07
5/17/2021 11:45:00 AM 11.04 51.872 0.077 7.64 10.6 11.99
5/17/2021 12:00:00 PM 11.37 52.466 0.076 7.64 10.79 11.91
5/17/2021 12:15:00 PM 11.69 53.042 0.076 7.64 11.23 11.83
5/17/2021 12:30:00 PM 12.01 53.618 0.076 7.65 11.26 11.75
5/17/2021 12:45:00 PM 12.33 54.194 0.076 7.65 11.06 11.67
5/17/2021 1:00:00 PM 12.61 54.698 0.076 7.66 10.99 11.59
5/17/2021 1:15:00 PM 12.85 55.13 0.076 7.67 11.05 11.52
5/17/2021 1:30:00 PM 13.02 55.436 0.076 7.66 11.21 11.43
5/17/2021 1:45:00 PM 13.11 55.598 0.076 7.67 11.42 11.39
5/17/2021 2:00:00 PM 13.12 55.616 0.076 7.66 11.19 11.36
5/17/2021 2:15:00 PM 13.22 55.796 0.076 7.67 11.21 11.36
5/17/2021 2:30:00 PM 13.43 56.174 0.076 7.68 10.93 11.33
5/17/2021 2:45:00 PM 13.6 56.48 0.076 7.68 11.17 11.28
5/17/2021 3:00:00 PM 13.63 56.534 0.076 7.69 11.37 11.27
5/17/2021 3:15:00 PM 13.87 56.966 0.076 7.67 10.97 11.23
5/17/2021 3:30:00 PM 14.05 57.29 0.076 7.68 11.12 11.17
5/17/2021 3:45:00 PM 14.1 57.38 0.076 7.69 11.39 11.14
5/17/2021 4:00:00 PM 13.97 57.146 0.076 7.69 11.2 11.11
5/17/2021 4:15:00 PM 13.8 56.84 0.076 7.67 10.92 11.11
5/17/2021 4:30:00 PM 13.67 56.606 0.077 7.68 11.12 11.15
5/17/2021 4:45:00 PM 13.55 56.39 0.077 7.68 11.09 11.18
5/17/2021 5:00:00 PM 13.39 56.102 0.077 7.67 11.29 11.18
5/17/2021 5:15:00 PM 13.25 55.85 0.077 7.67 11.06 11.21
5/17/2021 5:30:00 PM 13.19 55.742 0.077 7.66 11.05 11.21
5/17/2021 5:45:00 PM 13.09 55.562 0.077 7.65 11.41 11.21
5/17/2021 6:00:00 PM 13.01 55.418 0.077 7.65 11.29 11.22
5/17/2021 6:15:00 PM 12.9 55.22 0.077 7.63 11.14 11.21
5/17/2021 6:30:00 PM 12.74 54.932 0.077 7.62 11.07 11.21
5/17/2021 6:45:00 PM 12.6 54.68 0.077 7.61 11.33 11.22
5/17/2021 7:00:00 PM 12.49 54.482 0.077 7.6 11.52 11.21
5/17/2021 7:15:00 PM 12.38 54.284 0.077 7.59 11.45 11.19
5/17/2021 7:30:00 PM 12.26 54.068 0.077 7.58 11.3 11.18
5/17/2021 7:45:00 PM 12.14 53.852 0.077 7.56 11.43 11.18
5/17/2021 8:00:00 PM 12.02 53.636 0.077 7.55 11.49 11.16
5/17/2021 8:15:00 PM 11.9 53.42 0.078 7.52 11.52 11.15
5/17/2021 8:30:00 PM 11.79 53.222 0.078 7.5 11.3 11.13
5/17/2021 8:45:00 PM 11.69 53.042 0.078 7.49 11.32 11.12
5/17/2021 9:00:00 PM 11.57 52.826 0.078 7.47 11.63 11.13
5/17/2021 9:15:00 PM 11.46 52.628 0.078 7.47 11.61 11.14
5/17/2021 9:30:00 PM 11.35 52.43 0.078 7.46 11.33 11.16
5/17/2021 9:45:00 PM 11.23 52.214 0.078 7.45 11.48 11.18
5/17/2021 10:00:00 PM 11.12 52.016 0.078 7.45 11.72 11.21
5/17/2021 10:15:00 PM 11.01 51.818 0.078 7.44 11.52 11.24
5/17/2021 10:30:00 PM 10.91 51.638 0.078 7.44 11.84 11.26
5/17/2021 10:45:00 PM 10.82 51.476 0.078 7.44 11.74 11.29
5/17/2021 11:00:00 PM 10.72 51.296 0.079 7.44 11.58 11.32
5/17/2021 11:15:00 PM 10.63 51.134 0.079 7.44 11.94 11.34
5/17/2021 11:30:00 PM 10.56 51.008 0.079 7.43 11.47 11.36
5/17/2021 11:45:00 PM 10.48 50.864 0.079 7.44 11.99 11.38
5/18/2021 12:00:00 AM 10.4 50.72 0.079 7.44 11.75 11.41
5/18/2021 12:15:00 AM 10.33 50.594 0.079 7.44 11.77 11.43
5/18/2021 12:30:00 AM 10.25 50.45 0.079 7.44 12.14 11.45
5/18/2021 12:45:00 AM 10.17 50.306 0.079 7.43 11.81 11.47
5/18/2021 1:00:00 AM 10.09 50.162 0.079 7.43 11.94 11.5
5/18/2021 1:15:00 AM 10.01 50.018 0.079 7.44 11.92 11.52
5/18/2021 1:30:00 AM 9.94 49.892 0.079 7.43 11.91 11.54
5/18/2021 1:45:00 AM 9.87 49.766 0.079 7.43 11.96 11.55
5/18/2021 2:00:00 AM 9.8 49.64 0.079 7.43 12.21 11.57
5/18/2021 2:15:00 AM 9.73 49.514 0.079 7.43 12.03 11.6
5/18/2021 2:30:00 AM 9.66 49.388 0.079 7.42 12.12 11.61
5/18/2021 2:45:00 AM 9.6 49.28 0.079 7.42 12.01 11.64
5/18/2021 3:00:00 AM 9.53 49.154 0.079 7.42 11.73 11.66
5/18/2021 3:15:00 AM 9.47 49.046 0.079 7.42 12.08 11.66
5/18/2021 3:30:00 AM 9.4 48.92 0.079 7.43 12.04 11.68
5/18/2021 3:45:00 AM 9.34 48.812 0.079 7.43 12.36 11.71
5/18/2021 4:00:00 AM 9.28 48.704 0.079 7.42 11.84 11.72
5/18/2021 4:15:00 AM 9.22 48.596 0.079 7.42 11.78 11.74
5/18/2021 4:30:00 AM 9.16 48.488 0.079 7.43 12.09 11.75
5/18/2021 4:45:00 AM 9.1 48.38 0.079 7.43 12.25 11.77
5/18/2021 5:00:00 AM 9.04 48.272 0.079 7.43 12.25 11.79
5/18/2021 5:15:00 AM 8.99 48.182 0.079 7.43 12.14 11.81
5/18/2021 5:30:00 AM 8.93 48.074 0.079 7.43 12.4 11.83
5/18/2021 5:45:00 AM 8.88 47.984 0.079 7.43 12.22 11.84
5/18/2021 6:00:00 AM 8.82 47.876 0.079 7.43 12.18 11.87
5/18/2021 6:15:00 AM 8.77 47.786 0.079 7.43 11.99 11.91
5/18/2021 6:30:00 AM 8.73 47.714 0.079 7.44 12.18 11.95
5/18/2021 6:45:00 AM 8.69 47.642 0.079 7.44 12.34 12
5/18/2021 7:00:00 AM 8.66 47.588 0.079 7.45 12.18 12.04
5/18/2021 7:15:00 AM 8.63 47.534 0.079 7.46 11.88 12.08
5/18/2021 7:30:00 AM 8.61 47.498 0.079 7.48 12.36 12.13
5/18/2021 7:45:00 AM 8.6 47.48 0.079 7.48 12.25 12.17
5/18/2021 8:00:00 AM 8.61 47.498 0.079 7.5 12.29 12.2
5/18/2021 8:15:00 AM 8.64 47.552 0.079 7.5 12.05 12.23
5/18/2021 8:30:00 AM 8.7 47.66 0.079 7.51 12.33 12.26
5/18/2021 8:45:00 AM 8.81 47.858 0.079 7.52 12.05 12.28
5/18/2021 9:00:00 AM 8.97 48.146 0.079 7.54 12.02 12.29
5/18/2021 9:15:00 AM 9.15 48.47 0.079 7.54 12.32 12.29
5/18/2021 9:30:00 AM 9.36 48.848 0.079 7.57 12.21 12.27
5/18/2021 9:45:00 AM 9.58 49.244 0.079 7.57 12.14 12.24
5/18/2021 10:00:00 AM 9.83 49.694 0.079 7.58 12.27 12.2
5/18/2021 10:15:00 AM 10.1 50.18 0.079 7.6 12.19 12.15
5/18/2021 10:30:00 AM 10.41 50.738 0.078 7.62 11.91 12.1
5/18/2021 10:45:00 AM 10.74 51.332 0.078 7.62 12.04 12.02
5/18/2021 11:00:00 AM 11.09 51.962 0.078 7.64 12.38 11.97
5/18/2021 11:15:00 AM 11.42 52.556 0.078 7.64 12.45 11.9
5/18/2021 11:30:00 AM 11.72 53.096 0.078 7.65 12.1 11.81
5/18/2021 11:45:00 AM 11.86 53.348 0.078 7.67 12.22 11.75
5/18/2021 12:00:00 PM 11.99 53.582 0.078 7.67 12.51 11.69
5/18/2021 12:15:00 PM 12.05 53.69 0.078 7.67 12.21 11.66
5/18/2021 12:30:00 PM 12.38 54.284 0.078 7.67 12.38 11.63
5/18/2021 12:45:00 PM 12.81 55.058 0.078 7.68 12.01 11.55
5/18/2021 1:00:00 PM 13 55.4 0.078 7.69 12.34 11.43
5/18/2021 1:15:00 PM 13.15 55.67 0.078 7.68 12.41 11.39
5/18/2021 1:30:00 PM 13.32 55.976 0.078 7.69 12.34 11.37
5/18/2021 1:45:00 PM 13.41 56.138 0.078 7.69 12.1 11.3
5/18/2021 2:00:00 PM 13.57 56.426 0.078 7.69 12.54 11.29
5/18/2021 2:15:00 PM 13.68 56.624 0.078 7.68 12.24 11.19
5/18/2021 2:30:00 PM 13.68 56.624 0.078 7.68 12.34 11.17
5/18/2021 2:45:00 PM 13.71 56.678 0.078 7.67 12.34 11.13
5/18/2021 3:00:00 PM 13.78 56.804 0.078 7.68 12.96 11.14
5/18/2021 3:15:00 PM 14.07 57.326 0.078 7.68 12.49 11.09
5/18/2021 3:30:00 PM 14.46 58.028 0.078 7.7 12.73 11.02
5/18/2021 3:45:00 PM 14.6 58.28 0.078 7.68 12.52 10.93
5/18/2021 4:00:00 PM 14.59 58.262 0.078 7.68 12.46 10.92
5/18/2021 4:15:00 PM 14.63 58.334 0.078 7.67 13.01 10.9
5/18/2021 4:30:00 PM 14.69 58.442 0.078 7.67 12.39 10.89
5/18/2021 4:45:00 PM 14.75 58.55 0.078 7.67 12.47 10.85
5/18/2021 5:00:00 PM 14.77 58.586 0.078 7.67 12.49 10.81
5/18/2021 5:15:00 PM 14.71 58.478 0.078 7.65 12.47 10.77
5/18/2021 5:30:00 PM 14.57 58.226 0.078 7.64 12.5 10.76
5/18/2021 5:45:00 PM 14.44 57.992 0.079 7.63 12.93 10.76
5/18/2021 6:00:00 PM 14.34 57.812 0.079 7.62 12.52 10.76
5/18/2021 6:15:00 PM 14.2 57.56 0.079 7.61 12.82 10.76
5/18/2021 6:30:00 PM 14.04 57.272 0.079 7.6 12.99 10.77
5/18/2021 6:45:00 PM 13.86 56.948 0.079 7.58 12.71 10.77
5/18/2021 7:00:00 PM 13.7 56.66 0.079 7.57 13.01 10.77
5/18/2021 7:15:00 PM 13.55 56.39 0.079 7.55 12.63 10.77
5/18/2021 7:30:00 PM 13.41 56.138 0.079 7.54 12.61 10.79
5/18/2021 7:45:00 PM 13.27 55.886 0.079 7.53 12.7 10.8
5/18/2021 8:00:00 PM 13.14 55.652 0.079 7.52 12.61 10.8
5/18/2021 8:15:00 PM 13.02 55.436 0.079 7.51 12.67 10.8
5/18/2021 8:30:00 PM 12.9 55.22 0.079 7.5 12.67 10.79
5/18/2021 8:45:00 PM 12.78 55.004 0.08 7.48 12.7 10.78
5/18/2021 9:00:00 PM 12.67 54.806 0.08 7.47 12.85 10.79
5/18/2021 9:15:00 PM 12.56 54.608 0.08 7.46 8.16 10.8
5/18/2021 9:30:00 PM 12.45 54.41 0.08 7.45 8.12 10.82
5/18/2021 9:45:00 PM 12.33 54.194 0.08 7.45 8.52 10.84
5/18/2021 10:00:00 PM 12.23 54.014 0.08 7.44 8.33 10.87
5/18/2021 10:15:00 PM 12.11 53.798 0.08 7.44 8.44 10.9
5/18/2021 10:30:00 PM 12.01 53.618 0.08 7.43 8.17 10.93
5/18/2021 10:45:00 PM 11.9 53.42 0.08 7.44 8.44 10.95
5/18/2021 11:00:00 PM 11.8 53.24 0.08 7.43 8.17 10.98
5/18/2021 11:15:00 PM 11.7 53.06 0.08 7.44 8.21 11.01
5/18/2021 11:30:00 PM 11.59 52.862 0.08 7.43 8.43 11.04
5/18/2021 11:45:00 PM 11.5 52.7 0.08 7.44 8.28 11.06
5/19/2021 12:00:00 AM 11.4 52.52 0.08 7.42 8.36 11.09
5/19/2021 12:15:00 AM 11.31 52.358 0.08 7.43 8.28 11.11
5/19/2021 12:30:00 AM 11.22 52.196 0.08 7.43 8.5 11.14
5/19/2021 12:45:00 AM 11.13 52.034 0.081 7.43 8.38 11.16
5/19/2021 1:00:00 AM 11.05 51.89 0.081 7.43 8.55 11.19
5/19/2021 1:15:00 AM 10.96 51.728 0.081 7.43 8.13 11.21
5/19/2021 1:30:00 AM 10.88 51.584 0.081 7.42 8.37 11.23
5/19/2021 1:45:00 AM 10.8 51.44 0.081 7.42 8.37 11.26
5/19/2021 2:00:00 AM 10.72 51.296 0.081 7.42 8.28 11.28
5/19/2021 2:15:00 AM 10.64 51.152 0.081 7.43 8.54 11.3
5/19/2021 2:30:00 AM 10.57 51.026 0.081 7.42 8.54 11.31
5/19/2021 2:45:00 AM 10.49 50.882 0.081 7.42 8.38 11.34
5/19/2021 3:00:00 AM 10.42 50.756 0.081 7.43 8.49 11.36
5/19/2021 3:15:00 AM 10.35 50.63 0.081 7.43 8.58 11.38
5/19/2021 3:30:00 AM 10.28 50.504 0.081 7.42 8.29 11.4
5/19/2021 3:45:00 AM 10.22 50.396 0.081 7.43 8.41 11.42
5/19/2021 4:00:00 AM 10.15 50.27 0.081 7.42 8.46 11.43
5/19/2021 4:15:00 AM 10.09 50.162 0.081 7.42 8.49 11.45
5/19/2021 4:30:00 AM 10.02 50.036 0.081 7.42 8.58 11.48
5/19/2021 4:45:00 AM 9.96 49.928 0.081 7.43 8.48 11.5
5/19/2021 5:00:00 AM 9.9 49.82 0.081 7.42 8.42 11.52
5/19/2021 5:15:00 AM 9.84 49.712 0.081 7.42 8.42 11.53
5/19/2021 5:30:00 AM 9.79 49.622 0.081 7.43 8.7 11.55
5/19/2021 5:45:00 AM 9.73 49.514 0.081 7.43 8.5 11.57
5/19/2021 6:00:00 AM 9.68 49.424 0.081 7.44 8.61 11.59
5/19/2021 6:15:00 AM 9.63 49.334 0.081 7.43 8.66 11.63
5/19/2021 6:30:00 AM 9.58 49.244 0.081 7.44 8.45 11.67
5/19/2021 6:45:00 AM 9.54 49.172 0.081 7.45 8.65 11.72
5/19/2021 7:00:00 AM 9.51 49.118 0.081 7.46 8.48 11.77
5/19/2021 7:15:00 AM 9.48 49.064 0.081 7.46 8.74 11.82
5/19/2021 7:30:00 AM 9.46 49.028 0.081 7.48 8.72 11.86
5/19/2021 7:45:00 AM 9.46 49.028 0.081 7.49 8.77 11.9
5/19/2021 8:00:00 AM 9.47 49.046 0.081 7.49 8.76 11.93
5/19/2021 8:15:00 AM 9.5 49.1 0.081 7.51 8.53 11.97
5/19/2021 8:30:00 AM 9.56 49.208 0.081 7.52 8.41 12
5/19/2021 8:45:00 AM 9.67 49.406 0.081 7.54 8.34 12.02
5/19/2021 9:00:00 AM 9.82 49.676 0.08 7.55 8.38 12.03
5/19/2021 9:15:00 AM 10 50 0.08 7.56 8.57 12.03
5/19/2021 9:30:00 AM 10.21 50.378 0.08 7.57 8.8 12.01
5/19/2021 9:45:00 AM 10.44 50.792 0.08 7.59 8.62 11.98
5/19/2021 10:00:00 AM 10.69 51.242 0.08 7.59 8.53 11.95
5/19/2021 10:15:00 AM 10.95 51.71 0.08 7.61 8.44 11.91
5/19/2021 10:30:00 AM 11.25 52.25 0.08 7.62 8.53 11.86
5/19/2021 10:45:00 AM 11.58 52.844 0.08 7.63 6.95 11.79
5/19/2021 11:00:00 AM 11.94 53.492 0.08 7.64 6.91 11.73
5/19/2021 11:15:00 AM 12.3 54.14 0.08 7.66 6.93 11.66
5/19/2021 11:30:00 AM 12.66 54.788 0.08 7.66 6.96 11.58
5/19/2021 11:45:00 AM 13.01 55.418 0.08 7.67 7.04 11.5
5/19/2021 12:00:00 PM 13.34 56.012 0.08 7.68 6.96 11.43
5/19/2021 12:15:00 PM 13.67 56.606 0.08 7.69 7.08 11.35
5/19/2021 12:30:00 PM 13.98 57.164 0.08 7.69 7.01 11.27
5/19/2021 12:45:00 PM 14.29 57.722 0.08 7.69 7.15 11.19
5/19/2021 1:00:00 PM 14.58 58.244 0.08 7.69 7.03 11.12
5/19/2021 1:15:00 PM 14.85 58.73 0.08 7.7 6.82 11.04
5/19/2021 1:30:00 PM 15.11 59.198 0.08 7.7 7.1 10.97
5/19/2021 1:45:00 PM 15.35 59.63 0.08 7.7 6.99 10.91
5/19/2021 2:00:00 PM 15.58 60.044 0.08 7.7 6.9 10.85
5/19/2021 2:15:00 PM 15.79 60.422 0.08 7.7 7.03 10.78
5/19/2021 2:30:00 PM 15.98 60.764 0.08 7.71 7.07 10.71
5/19/2021 2:45:00 PM 16.11 60.998 0.08 7.72 6.72 10.66
5/19/2021 3:00:00 PM 16.17 61.106 0.08 7.72 7.08 10.64
5/19/2021 3:15:00 PM 16.23 61.214 0.08 7.72 6.99 10.61
5/19/2021 3:30:00 PM 16.28 61.304 0.08 7.71 7.06 10.57
5/19/2021 3:45:00 PM 16.25 61.25 0.08 7.71 7.15 10.56
5/19/2021 4:00:00 PM 16.23 61.214 0.08 7.71 7.11 10.56
5/19/2021 4:15:00 PM 16.1 60.98 0.08 7.7 7.07 10.52
5/19/2021 4:30:00 PM 15.92 60.656 0.08 7.69 7.3 10.51
5/19/2021 4:45:00 PM 15.68 60.224 0.08 7.68 7.16 10.53
5/19/2021 5:00:00 PM 15.58 60.044 0.08 7.67 7.2 10.55
5/19/2021 5:15:00 PM 15.51 59.918 0.08 7.67 7.19 10.55
5/19/2021 5:30:00 PM 15.41 59.738 0.08 7.66 7.28 10.56
5/19/2021 5:45:00 PM 15.31 59.558 0.08 7.66 7.24 10.54
5/19/2021 6:00:00 PM 15.2 59.36 0.08 7.64 7.34 10.53
5/19/2021 6:15:00 PM 15.09 59.162 0.08 7.63 7.31 10.53
5/19/2021 6:30:00 PM 14.99 58.982 0.08 7.62 7.34 10.54
5/19/2021 6:45:00 PM 14.87 58.766 0.08 7.62 7.09 10.55
5/19/2021 7:00:00 PM 14.75 58.55 0.08 7.6 7.28 10.54
5/19/2021 7:15:00 PM 14.62 58.316 0.08 7.59 7.3 10.54
5/19/2021 7:30:00 PM 14.5 58.1 0.081 7.58 7.38 10.54
5/19/2021 7:45:00 PM 14.38 57.884 0.081 7.56 7.44 10.53
5/19/2021 8:00:00 PM 14.26 57.668 0.081 7.54 7.45 10.51
5/19/2021 8:15:00 PM 14.13 57.434 0.081 7.53 7.22 10.49
5/19/2021 8:30:00 PM 14.01 57.218 0.081 7.51 7.3 10.46
5/19/2021 8:45:00 PM 13.88 56.984 0.081 7.48 7.87 10.44
5/19/2021 9:00:00 PM 13.75 56.75 0.081 7.47 7.51 10.45
5/19/2021 9:15:00 PM 13.63 56.534 0.082 7.46 7.53 10.46
5/19/2021 9:30:00 PM 13.52 56.336 0.082 7.45 7.52 10.47
5/19/2021 9:45:00 PM 13.4 56.12 0.082 7.44 7.6 10.49
5/19/2021 10:00:00 PM 13.3 55.94 0.082 7.44 7.29 10.52
5/19/2021 10:15:00 PM 13.19 55.742 0.082 7.44 7.52 10.55
5/19/2021 10:30:00 PM 13.08 55.544 0.082 7.44 7.52 10.58
5/19/2021 10:45:00 PM 12.98 55.364 0.082 7.43 7.41 10.6
5/19/2021 11:00:00 PM 12.87 55.166 0.082 7.43 7.55 10.63
5/19/2021 11:15:00 PM 12.77 54.986 0.082 7.43 139.36 10.65
5/19/2021 11:30:00 PM 12.67 54.806 0.082 7.43 5.6 10.67
5/19/2021 11:45:00 PM 12.57 54.626 0.082 7.43 5.44 10.71
5/20/2021 12:00:00 AM 12.47 54.446 0.082 7.43 5.36 10.74
5/20/2021 12:15:00 AM 12.38 54.284 0.082 7.43 4.98 10.76
5/20/2021 12:30:00 AM 12.28 54.104 0.082 7.43 5.56 10.78
5/20/2021 12:45:00 AM 12.19 53.942 0.082 7.43 5.28 10.81
5/20/2021 1:00:00 AM 12.1 53.78 0.082 7.43 5.31 10.84
5/20/2021 1:15:00 AM 12.01 53.618 0.083 7.42 5.3 10.86
5/20/2021 1:30:00 AM 11.93 53.474 0.083 7.44 5.49 10.88
5/20/2021 1:45:00 AM 11.84 53.312 0.083 7.43 5.41 10.9
5/20/2021 2:00:00 AM 11.76 53.168 0.083 7.43 5.32 10.92
5/20/2021 2:15:00 AM 11.68 53.024 0.083 7.43 5.34 10.94
5/20/2021 2:30:00 AM 11.6 52.88 0.083 7.43 5.51 10.96
5/20/2021 2:45:00 AM 11.52 52.736 0.083 7.42 5.4 10.98
5/20/2021 3:00:00 AM 11.45 52.61 0.083 7.43 5.28 11.01
5/20/2021 3:15:00 AM 11.38 52.484 0.083 7.42 5.29 11.03
5/20/2021 3:30:00 AM 11.31 52.358 0.083 7.43 5.33 11.05
5/20/2021 3:45:00 AM 11.24 52.232 0.083 7.43 5.43 11.07
5/20/2021 4:00:00 AM 11.17 52.106 0.083 7.43 5.42 11.09
5/20/2021 4:15:00 AM 11.11 51.998 0.083 7.43 5.48 11.11
5/20/2021 4:30:00 AM 11.06 51.908 0.083 7.43 5.75 11.12
5/20/2021 4:45:00 AM 11.01 51.818 0.083 7.43 5.71 11.15
5/20/2021 5:00:00 AM 10.96 51.728 0.083 7.43 5.47 11.16
5/20/2021 5:15:00 AM 10.91 51.638 0.083 7.43 5.59 11.17
5/20/2021 5:30:00 AM 10.86 51.548 0.083 7.43 5.24 11.19
5/20/2021 5:45:00 AM 10.8 51.44 0.083 7.43 5.35 11.21
5/20/2021 6:00:00 AM 10.75 51.35 0.083 7.43 5.32 11.23
5/20/2021 6:15:00 AM 10.7 51.26 0.083 7.44 5.34 11.27
5/20/2021 6:30:00 AM 10.66 51.188 0.083 7.45 5.39 11.31
5/20/2021 6:45:00 AM 10.63 51.134 0.083 7.45 5.27 11.36
5/20/2021 7:00:00 AM 10.61 51.098 0.083 7.46 5.44 11.43
5/20/2021 7:15:00 AM 10.6 51.08 0.083 7.47 5.44 11.48
5/20/2021 7:30:00 AM 10.6 51.08 0.083 7.48 5.35 11.54
5/20/2021 7:45:00 AM 10.62 51.116 0.083 7.5 5.44 11.58
5/20/2021 8:00:00 AM 10.67 51.206 0.083 7.52 5.36 11.64
5/20/2021 8:15:00 AM 10.72 51.296 0.083 7.54 5.34 11.69
5/20/2021 8:30:00 AM 10.77 51.386 0.082 7.53 5.31 11.7
5/20/2021 8:45:00 AM 10.84 51.512 0.082 7.57 5.41 11.69
5/20/2021 9:00:00 AM 10.93 51.674 0.082 7.57 5.35 11.72
5/20/2021 9:15:00 AM 11.09 51.962 0.082 7.59 5.33 11.72
5/20/2021 9:30:00 AM 11.28 52.304 0.082 7.61 5.37 11.72
5/20/2021 9:45:00 AM 11.51 52.718 0.082 7.61 5.41 11.7
5/20/2021 10:00:00 AM 11.8 53.24 0.082 7.64 5.18 11.67
5/20/2021 10:15:00 AM 12.06 53.708 0.082 7.65 5.33 11.61
5/20/2021 10:30:00 AM 12.33 54.194 0.082 7.67 5.26 11.56
5/20/2021 10:45:00 AM 12.64 54.752 0.082 7.67 5.33 11.5
5/20/2021 11:00:00 AM 13 55.4 0.082 7.68 5.68 11.44
5/20/2021 11:15:00 AM 13.38 56.084 0.082 7.69 5.41 11.39
5/20/2021 11:30:00 AM 13.74 56.732 0.082 7.71 5.46 11.31
5/20/2021 11:45:00 AM 13.88 56.984 0.082 7.72 5.25 11.24
5/20/2021 12:00:00 PM 14.25 57.65 0.082 7.72 5.22 11.15
5/20/2021 12:15:00 PM 14.58 58.244 0.082 7.72 5.4 11.07
5/20/2021 12:30:00 PM 14.92 58.856 0.082 7.72 5.34 10.99
5/20/2021 12:45:00 PM 15.23 59.414 0.082 7.73 5.31 10.92
5/20/2021 1:00:00 PM 15.55 59.99 0.082 7.73 5.49 10.84
5/20/2021 1:15:00 PM 15.83 60.494 0.082 7.72 5.38 10.76
5/20/2021 1:30:00 PM 16.03 60.854 0.082 7.72 5.34 10.71
5/20/2021 1:45:00 PM 16.23 61.214 0.082 7.73 5.26 10.68
5/20/2021 2:00:00 PM 16.44 61.592 0.082 7.73 5.53 10.59
5/20/2021 2:15:00 PM 16.66 61.988 0.082 7.73 5.49 10.56
5/20/2021 2:30:00 PM 16.85 62.33 0.082 7.72 5.38 10.58
5/20/2021 2:45:00 PM 17.04 62.672 0.082 7.73 5.25 10.54
5/20/2021 3:00:00 PM 17.15 62.87 0.082 7.73 5.34 10.51
5/20/2021 3:15:00 PM 17.16 62.888 0.082 7.75 5.43 10.45
5/20/2021 3:30:00 PM 17.13 62.834 0.082 7.73 5.55 10.42
5/20/2021 3:45:00 PM 17.15 62.87 0.082 7.72 5.46 10.41
5/20/2021 4:00:00 PM 17.18 62.924 0.082 7.71 5.6 10.41
5/20/2021 4:15:00 PM 17.16 62.888 0.082 7.72 5.63 10.43
5/20/2021 4:30:00 PM 17.08 62.744 0.082 7.72 5.6 10.42
5/20/2021 4:45:00 PM 17.03 62.654 0.082 7.73 5.59 10.41
5/20/2021 5:00:00 PM 16.99 62.582 0.082 7.71 5.68 10.38
5/20/2021 5:15:00 PM 16.92 62.456 0.082 7.71 5.7 10.36
5/20/2021 5:30:00 PM 16.82 62.276 0.082 7.69 5.56 10.34
5/20/2021 5:45:00 PM 16.67 62.006 0.082 7.67 5.56 10.36
5/20/2021 6:00:00 PM 16.45 61.61 0.082 7.66 5.7 10.34
5/20/2021 6:15:00 PM 16.25 61.25 0.083 7.63 5.55 10.33
5/20/2021 6:30:00 PM 16.12 61.016 0.083 7.64 5.69 10.39
5/20/2021 6:45:00 PM 15.96 60.728 0.083 7.63 5.65 10.4
5/20/2021 7:00:00 PM 15.79 60.422 0.083 7.61 5.71 10.37
5/20/2021 7:15:00 PM 15.62 60.116 0.083 7.59 5.73 10.33
5/20/2021 7:30:00 PM 15.47 59.846 0.083 7.58 5.67 10.34
5/20/2021 7:45:00 PM 15.33 59.594 0.083 7.57 5.53 10.37
5/20/2021 8:00:00 PM 15.17 59.306 0.083 7.56 5.73 10.38
5/20/2021 8:15:00 PM 15.03 59.054 0.083 7.54 5.86 10.34
5/20/2021 8:30:00 PM 14.89 58.802 0.083 7.52 5.77 10.3
5/20/2021 8:45:00 PM 14.76 58.568 0.084 7.5 5.75 10.31
5/20/2021 9:00:00 PM 14.63 58.334 0.084 7.48 5.98 10.34
5/20/2021 9:15:00 PM 14.5 58.1 0.084 7.47 5.96 10.33
5/20/2021 9:30:00 PM 14.38 57.884 0.084 7.46 5.98 10.31
5/20/2021 9:45:00 PM 14.27 57.686 0.084 7.46 5.93 10.31
5/20/2021 10:00:00 PM 14.16 57.488 0.084 7.45 6.01 10.35
5/20/2021 10:15:00 PM 14.04 57.272 0.084 7.45 6.16 10.41
5/20/2021 10:30:00 PM 13.94 57.092 0.084 7.45 5.97 10.43
5/20/2021 10:45:00 PM 13.82 56.876 0.084 7.45 6.09 10.43
5/20/2021 11:00:00 PM 13.72 56.696 0.084 7.44 5.91 10.43
5/20/2021 11:15:00 PM 13.61 56.498 0.084 7.43 6.08 10.47
5/20/2021 11:30:00 PM 13.5 56.3 0.084 7.44 6.05 10.53
5/20/2021 11:45:00 PM 13.4 56.12 0.085 7.44 5.93 10.57
5/21/2021 12:00:00 AM 13.3 55.94 0.085 7.44 6.09 10.58
5/21/2021 12:15:00 AM 13.2 55.76 0.085 7.44 6.13 10.57
5/21/2021 12:30:00 AM 13.1 55.58 0.085 7.43 5.91 10.58
5/21/2021 12:45:00 AM 13.01 55.418 0.085 7.43 6.16 10.63
5/21/2021 1:00:00 AM 12.92 55.256 0.085 7.44 6.28 10.68
5/21/2021 1:15:00 AM 12.83 55.094 0.085 7.45 6 10.72
5/21/2021 1:30:00 AM 12.75 54.95 0.085 7.44 6.07 10.72
5/21/2021 1:45:00 AM 12.66 54.788 0.085 7.44 6.09 10.73
5/21/2021 2:00:00 AM 12.58 54.644 0.085 7.44 6.17 10.7
5/21/2021 2:15:00 AM 12.51 54.518 0.085 7.44 6.13 10.74
5/21/2021 2:30:00 AM 12.42 54.356 0.085 7.44 5.99 10.78
5/21/2021 2:45:00 AM 12.35 54.23 0.085 7.44 6.61 10.84
5/21/2021 3:00:00 AM 12.28 54.104 0.085 7.44 5.94 10.87
5/21/2021 3:15:00 AM 12.2 53.96 0.085 7.44 5.87 10.88
5/21/2021 3:30:00 AM 12.14 53.852 0.085 7.44 5.99 10.88
5/21/2021 3:45:00 AM 12.07 53.726 0.085 7.44 5.9 10.87
5/21/2021 4:00:00 AM 12 53.6 0.085 7.44 6.03 10.87
5/21/2021 4:15:00 AM 11.94 53.492 0.085 7.44 6.02 10.89
5/21/2021 4:30:00 AM 11.87 53.366 0.085 7.43 5.98 10.93
5/21/2021 4:45:00 AM 11.81 53.258 0.085 7.43 6.14 10.97
5/21/2021 5:00:00 AM 11.75 53.15 0.085 7.43 6.01 11
5/21/2021 5:15:00 AM 11.69 53.042 0.085 7.43 5.86 11.02
5/21/2021 5:30:00 AM 11.63 52.934 0.085 7.44 5.87 11.03
5/21/2021 5:45:00 AM 11.57 52.826 0.085 7.43 6.14 11.03
5/21/2021 6:00:00 AM 11.51 52.718 0.085 7.44 5.97 11.03
5/21/2021 6:15:00 AM 11.46 52.628 0.085 7.45 5.96 11.06
5/21/2021 6:30:00 AM 11.41 52.538 0.085 7.45 6 11.1
5/21/2021 6:45:00 AM 11.37 52.466 0.085 7.46 5.68 11.16
5/21/2021 7:00:00 AM 11.33 52.394 0.085 7.47 5.9 11.22
5/21/2021 7:15:00 AM 11.3 52.34 0.085 7.48 5.6 11.29
5/21/2021 7:30:00 AM 11.28 52.304 0.085 7.49 5.57 11.35
5/21/2021 7:45:00 AM 11.28 52.304 0.085 7.5 5.26 11.4
5/21/2021 8:00:00 AM 11.29 52.322 0.085 7.51 5.4 11.44
5/21/2021 8:15:00 AM 11.31 52.358 0.085 7.52 5.23 11.47
5/21/2021 8:30:00 AM 11.37 52.466 0.085 7.54 5.34 11.47
5/21/2021 8:45:00 AM 11.47 52.646 0.084 7.55 5.24 11.47
5/21/2021 9:00:00 AM 11.62 52.916 0.084 7.56 5.17 11.51
5/21/2021 9:15:00 AM 11.82 53.276 0.084 7.58 5.01 11.57
5/21/2021 9:30:00 AM 12.03 53.654 0.084 7.59 5.57 11.5
5/21/2021 9:45:00 AM 12.27 54.086 0.084 7.61 5.21 11.52
5/21/2021 10:00:00 AM 12.53 54.554 0.084 7.63 5.22 11.47
5/21/2021 10:15:00 AM 12.81 55.058 0.084 7.64 5.27 11.46
5/21/2021 10:30:00 AM 13.1 55.58 0.084 7.66 5.27 11.38
5/21/2021 10:45:00 AM 13.45 56.21 0.084 7.67 5.2 11.39
5/21/2021 11:00:00 AM 13.81 56.858 0.084 7.68 5.23 11.28
5/21/2021 11:15:00 AM 14.18 57.524 0.084 7.69 5.28 11.21
5/21/2021 11:30:00 AM 14.54 58.172 0.084 7.71 5.07 11.19
5/21/2021 11:45:00 AM 14.9 58.82 0.084 7.71 4.9 11.11
5/21/2021 12:00:00 PM 15.25 59.45 0.084 7.72 4.9 10.99
5/21/2021 12:15:00 PM 15.58 60.044 0.084 7.73 4.88 10.95
5/21/2021 12:30:00 PM 15.9 60.62 0.084 7.72 4.24 10.89
5/21/2021 12:45:00 PM 16.19 61.142 0.084 7.74 4.33 10.78
5/21/2021 1:00:00 PM 16.46 61.628 0.084 7.74 4.41 10.76
5/21/2021 1:15:00 PM 16.71 62.078 0.084 7.74 4.37 10.66
5/21/2021 1:30:00 PM 16.92 62.456 0.084 7.74 3.64 10.62
5/21/2021 1:45:00 PM 17.1 62.78 0.084 7.75 3.57 10.54
5/21/2021 2:00:00 PM 17.28 63.104 0.084 7.75 3.62 10.5
5/21/2021 2:15:00 PM 17.44 63.392 0.084 7.75 3.77 10.44
5/21/2021 2:30:00 PM 17.56 63.608 0.085 7.74 4.02 10.36
5/21/2021 2:45:00 PM 17.66 63.788 0.085 7.73 3.65 10.33
5/21/2021 3:00:00 PM 17.72 63.896 0.085 7.73 3.71 10.29
5/21/2021 3:15:00 PM 17.77 63.986 0.085 7.73 3.68 10.26
5/21/2021 3:30:00 PM 17.87 64.166 0.085 7.73 3.64 10.23
5/21/2021 3:45:00 PM 17.91 64.238 0.085 7.72 3.83 10.22
5/21/2021 4:00:00 PM 17.99 64.382 0.085 7.73 3.63 10.21
5/21/2021 4:15:00 PM 18.07 64.526 0.085 7.73 3.85 10.2
5/21/2021 4:30:00 PM 18.06 64.508 0.085 7.71 3.65 10.17
5/21/2021 4:45:00 PM 17.98 64.364 0.085 7.72 3.75 10.15
5/21/2021 5:00:00 PM 17.86 64.148 0.085 7.71 3.84 10.15
5/21/2021 5:15:00 PM 17.73 63.914 0.085 7.7 3.83 10.18
5/21/2021 5:30:00 PM 17.6 63.68 0.085 7.71 3.84 10.19
5/21/2021 5:45:00 PM 17.44 63.392 0.086 7.69 3.76 10.18
5/21/2021 6:00:00 PM 17.24 63.032 0.086 7.68 3.91 10.19
5/21/2021 6:15:00 PM 17 62.6 0.086 7.66 3.83 10.18
5/21/2021 6:30:00 PM 16.74 62.132 0.086 7.64 3.95 10.19
5/21/2021 6:45:00 PM 16.54 61.772 0.086 7.63 3.67 10.19
5/21/2021 7:00:00 PM 16.37 61.466 0.086 7.61 4.02 10.24
5/21/2021 7:15:00 PM 16.2 61.16 0.086 7.61 4.07 10.24
5/21/2021 7:30:00 PM 16.03 60.854 0.087 7.59 3.9 10.2
5/21/2021 7:45:00 PM 15.87 60.566 0.087 7.57 3.78 10.2
5/21/2021 8:00:00 PM 15.72 60.296 0.087 7.56 3.84 10.18
5/21/2021 8:15:00 PM 15.57 60.026 0.087 7.54 3.97 10.14
5/21/2021 8:30:00 PM 15.42 59.756 0.087 7.52 3.88 10.15
5/21/2021 8:45:00 PM 15.28 59.504 0.087 7.51 4.02 10.16
5/21/2021 9:00:00 PM 15.14 59.252 0.087 7.5 3.99 10.14
5/21/2021 9:15:00 PM 15.01 59.018 0.087 7.48 4.01 10.13
5/21/2021 9:30:00 PM 14.9 58.82 0.087 7.47 4.1 10.17
5/21/2021 9:45:00 PM 14.79 58.622 0.087 7.47 4 10.2
5/21/2021 10:00:00 PM 14.68 58.424 0.087 7.47 3.96 10.21
5/21/2021 10:15:00 PM 14.58 58.244 0.087 7.47 3.97 10.2
5/21/2021 10:30:00 PM 14.47 58.046 0.087 7.46 4.17 10.23
5/21/2021 10:45:00 PM 14.37 57.866 0.087 7.46 4.15 10.28
5/21/2021 11:00:00 PM 14.28 57.704 0.087 7.45 4.1 10.32
5/21/2021 11:15:00 PM 14.18 57.524 0.087 7.45 3.98 10.32
5/21/2021 11:30:00 PM 14.08 57.344 0.087 7.45 4.18 10.32
5/21/2021 11:45:00 PM 13.99 57.182 0.087 7.45 4.21 10.33
5/22/2021 12:00:00 AM 13.9 57.02 0.087 7.45 4.14 10.38
5/22/2021 12:15:00 AM 13.81 56.858 0.087 7.45 4.13 10.42
5/22/2021 12:30:00 AM 13.73 56.714 0.087 7.45 4.11 10.45
5/22/2021 12:45:00 AM 13.64 56.552 0.087 7.45 4.12 10.45
5/22/2021 1:00:00 AM 13.56 56.408 0.087 7.45 4.01 10.44
5/22/2021 1:15:00 AM 13.48 56.264 0.087 7.44 4.15 10.45
5/22/2021 1:30:00 AM 13.4 56.12 0.087 7.45 4.24 10.49
5/22/2021 1:45:00 AM 13.32 55.976 0.087 7.45 4.3 10.53
5/22/2021 2:00:00 AM 13.24 55.832 0.087 7.44 4.09 10.56
5/22/2021 2:15:00 AM 13.17 55.706 0.087 7.45 4.38 10.58
5/22/2021 2:30:00 AM 13.09 55.562 0.087 7.44 4.24 10.58
5/22/2021 2:45:00 AM 13.02 55.436 0.087 7.45 4.29 10.57
5/22/2021 3:00:00 AM 12.95 55.31 0.087 7.44 4.36 10.57
5/22/2021 3:15:00 AM 12.88 55.184 0.087 7.45 4.19 10.6
5/22/2021 3:30:00 AM 12.82 55.076 0.087 7.44 4.14 10.63
5/22/2021 3:45:00 AM 12.76 54.968 0.087 7.44 4.36 10.67
5/22/2021 4:00:00 AM 12.7 54.86 0.087 7.44 4.2 10.69
5/22/2021 4:15:00 AM 12.65 54.77 0.087 7.44 4.31 10.71
5/22/2021 4:30:00 AM 12.59 54.662 0.087 7.44 4.26 10.71
5/22/2021 4:45:00 AM 12.52 54.536 0.087 7.45 4.25 10.7
5/22/2021 5:00:00 AM 12.46 54.428 0.087 7.44 4.2 10.71
5/22/2021 5:15:00 AM 12.4 54.32 0.087 7.44 4.22 10.71
5/22/2021 5:30:00 AM 12.34 54.212 0.087 7.45 4.43 10.73
5/22/2021 5:45:00 AM 12.27 54.086 0.087 7.44 4.61 10.76
5/22/2021 6:00:00 AM 12.22 53.996 0.087 7.45 4.18 10.81
5/22/2021 6:15:00 AM 12.18 53.924 0.087 7.45 4.46 10.85
5/22/2021 6:30:00 AM 12.14 53.852 0.087 7.46 4.52 10.9
5/22/2021 6:45:00 AM 12.11 53.798 0.087 7.46 4.4 10.95
5/22/2021 7:00:00 AM 12.08 53.744 0.087 7.47 4.46 11
5/22/2021 7:15:00 AM 12.07 53.726 0.087 7.48 4.35 11.06
5/22/2021 7:30:00 AM 12.09 53.762 0.087 7.51 4.29 11.15
5/22/2021 7:45:00 AM 12.11 53.798 0.087 7.53 4.47 11.2
5/22/2021 8:00:00 AM 12.14 53.852 0.087 7.54 4.37 11.24
5/22/2021 8:15:00 AM 12.17 53.906 0.086 7.55 4.46 11.28
5/22/2021 8:30:00 AM 12.23 54.014 0.086 7.57 4.55 11.29
5/22/2021 8:45:00 AM 12.29 54.122 0.086 7.58 4.44 11.3
5/22/2021 9:00:00 AM 12.46 54.428 0.086 7.59 4.46 11.31
5/22/2021 9:15:00 AM 12.62 54.716 0.086 7.62 4.33 11.38
5/22/2021 9:30:00 AM 12.74 54.932 0.086 7.64 4.35 11.37
5/22/2021 9:45:00 AM 12.83 55.094 0.086 7.65 8.97 11.32
5/22/2021 10:00:00 AM 13.06 55.508 0.086 7.66 4.53 11.32
5/22/2021 10:15:00 AM 13.22 55.796 0.086 7.68 4.56 11.34
5/22/2021 10:30:00 AM 13.35 56.03 0.085 7.69 4.38 11.28
5/22/2021 10:45:00 AM 13.52 56.336 0.085 7.71 4.48 11.25
5/22/2021 11:00:00 AM 13.63 56.534 0.085 7.71 4.53 11.25
5/22/2021 11:15:00 AM 13.83 56.894 0.085 7.73 4.39 11.23
5/22/2021 11:30:00 AM 14.12 57.416 0.085 7.75 4.48 11.18
5/22/2021 11:45:00 AM 14.31 57.758 0.085 7.77 4.59 11.17
5/22/2021 12:00:00 PM 14.5 58.1 0.085 7.77 4.41 11.07
5/22/2021 12:15:00 PM 14.71 58.478 0.085 7.78 4.54 11.08
5/22/2021 12:30:00 PM 15.06 59.108 0.085 7.8 4.29 11.02
5/22/2021 12:45:00 PM 15.28 59.504 0.085 7.8 4.64 10.98
5/22/2021 1:00:00 PM 15.42 59.756 0.085 7.8 4.47 10.83
5/22/2021 1:15:00 PM 15.56 60.008 0.085 7.81 4.57 10.87
5/22/2021 1:30:00 PM 15.67 60.206 0.085 7.81 4.47 10.85
5/22/2021 1:45:00 PM 15.79 60.422 0.085 7.82 4.52 10.8
5/22/2021 2:00:00 PM 15.86 60.548 0.085 7.82 4.41 10.74
5/22/2021 2:15:00 PM 15.91 60.638 0.085 7.81 4.6 10.71
5/22/2021 2:30:00 PM 15.92 60.656 0.085 7.81 4.55 10.69
5/22/2021 2:45:00 PM 15.96 60.728 0.085 7.81 4.56 10.71
5/22/2021 3:00:00 PM 16.04 60.872 0.085 7.81 4.46 10.69
5/22/2021 3:15:00 PM 16.15 61.07 0.085 7.82 4.43 10.68
5/22/2021 3:30:00 PM 16.22 61.196 0.085 7.82 4.61 10.68
5/22/2021 3:45:00 PM 16.25 61.25 0.085 7.82 4.62 10.65
5/22/2021 4:00:00 PM 16.28 61.304 0.085 7.81 4.49 10.62
5/22/2021 4:15:00 PM 16.29 61.322 0.085 7.8 4.54 10.56
5/22/2021 4:30:00 PM 16.29 61.322 0.085 7.78 4.44 10.57
5/22/2021 4:45:00 PM 16.24 61.232 0.086 7.78 4.67 10.55
5/22/2021 5:00:00 PM 16.17 61.106 0.086 7.77 4.53 10.51
5/22/2021 5:15:00 PM 16.16 61.088 0.086 7.75 4.69 10.47
5/22/2021 5:30:00 PM 16.09 60.962 0.086 7.73 4.48 10.46
5/22/2021 5:45:00 PM 16.02 60.836 0.086 7.73 4.46 10.45
5/22/2021 6:00:00 PM 15.97 60.746 0.086 7.73 4.79 10.45
5/22/2021 6:15:00 PM 15.91 60.638 0.086 7.72 4.78 10.44
5/22/2021 6:30:00 PM 15.87 60.566 0.086 7.72 4.7 10.44
5/22/2021 6:45:00 PM 15.78 60.404 0.086 7.7 4.58 10.4
5/22/2021 7:00:00 PM 15.7 60.26 0.086 7.68 4.79 10.4
5/22/2021 7:15:00 PM 15.61 60.098 0.086 7.66 4.7 10.36
5/22/2021 7:30:00 PM 15.52 59.936 0.086 7.64 4.97 10.33
5/22/2021 7:45:00 PM 15.43 59.774 0.087 7.63 4.81 10.3
5/22/2021 8:00:00 PM 15.33 59.594 0.087 7.61 4.8 10.28
5/22/2021 8:15:00 PM 15.24 59.432 0.087 7.59 4.57 10.25
5/22/2021 8:30:00 PM 15.14 59.252 0.087 7.58 4.76 10.21
5/22/2021 8:45:00 PM 15.05 59.09 0.087 7.55 4.71 10.17
5/22/2021 9:00:00 PM 14.96 58.928 0.087 7.53 5 10.14
5/22/2021 9:15:00 PM 14.88 58.784 0.088 7.53 4.96 10.13
5/22/2021 9:30:00 PM 14.78 58.604 0.088 7.51 5.17 10.14
5/22/2021 9:45:00 PM 14.69 58.442 0.088 7.5 5.17 10.16
5/22/2021 10:00:00 PM 14.6 58.28 0.088 7.49 4.77 10.17
5/22/2021 10:15:00 PM 14.52 58.136 0.088 7.48 4.89 10.17
5/22/2021 10:30:00 PM 14.44 57.992 0.088 7.47 4.81 10.17
5/22/2021 10:45:00 PM 14.36 57.848 0.088 7.47 4.83 10.18
5/22/2021 11:00:00 PM 14.3 57.74 0.088 7.47 4.68 10.2
5/22/2021 11:15:00 PM 14.23 57.614 0.088 7.46 4.74 10.23
5/22/2021 11:30:00 PM 14.17 57.506 0.088 7.45 4.68 10.25
5/22/2021 11:45:00 PM 14.12 57.416 0.088 7.45 4.72 10.27
5/23/2021 12:00:00 AM 14.07 57.326 0.088 7.45 4.8 10.28
5/23/2021 12:15:00 AM 14.01 57.218 0.088 7.45 5.04 10.27
5/23/2021 12:30:00 AM 13.95 57.11 0.088 7.45 4.56 10.28
5/23/2021 12:45:00 AM 13.89 57.002 0.088 7.45 4.51 10.28
5/23/2021 1:00:00 AM 13.83 56.894 0.088 7.45 4.39 10.28
5/23/2021 1:15:00 AM 13.78 56.804 0.088 7.44 4.4 10.3
5/23/2021 1:30:00 AM 13.73 56.714 0.088 7.44 4.42 10.32
5/23/2021 1:45:00 AM 13.66 56.588 0.088 7.44 4.42 10.35
5/23/2021 2:00:00 AM 13.6 56.48 0.089 7.44 4.45 10.37
5/23/2021 2:15:00 AM 13.54 56.372 0.089 7.44 4.88 10.39
5/23/2021 2:30:00 AM 13.47 56.246 0.089 7.43 4.46 10.4
5/23/2021 2:45:00 AM 13.42 56.156 0.088 7.44 4.59 10.39
5/23/2021 3:00:00 AM 13.35 56.03 0.089 7.44 4.44 10.4
5/23/2021 3:15:00 AM 13.3 55.94 0.089 7.44 4.49 10.4
5/23/2021 3:30:00 AM 13.24 55.832 0.089 7.44 4.57 10.42
5/23/2021 3:45:00 AM 13.19 55.742 0.089 7.44 4.46 10.43
5/23/2021 4:00:00 AM 13.14 55.652 0.089 7.45 4.29 10.46
5/23/2021 4:15:00 AM 13.08 55.544 0.089 7.44 4.44 10.48
5/23/2021 4:30:00 AM 13.02 55.436 0.089 7.45 4.16 10.51
5/23/2021 4:45:00 AM 12.97 55.346 0.089 7.44 4.35 10.52
5/23/2021 5:00:00 AM 12.91 55.238 0.089 7.45 5.05 10.53
5/23/2021 5:15:00 AM 12.86 55.148 0.089 7.45 4.33 10.52
5/23/2021 5:30:00 AM 12.81 55.058 0.089 7.45 4.39 10.53
5/23/2021 5:45:00 AM 12.75 54.95 0.089 7.45 4.18 10.53
5/23/2021 6:00:00 AM 12.71 54.878 0.089 7.45 4.29 10.54
5/23/2021 6:15:00 AM 12.66 54.788 0.089 7.46 4.31 10.58
5/23/2021 6:30:00 AM 12.62 54.716 0.089 7.47 4.24 10.63
5/23/2021 6:45:00 AM 12.58 54.644 0.089 7.47 4.39 10.69
5/23/2021 7:00:00 AM 12.55 54.59 0.089 7.48 4.39 10.74
5/23/2021 7:15:00 AM 12.53 54.554 0.089 7.48 4.24 10.79
5/23/2021 7:30:00 AM 12.51 54.518 0.088 7.51 4.41 10.84
5/23/2021 7:45:00 AM 12.52 54.536 0.088 7.51 4.3 10.89
5/23/2021 8:00:00 AM 12.53 54.554 0.088 7.53 4.51 10.92
5/23/2021 8:15:00 AM 12.56 54.608 0.088 7.54 4.35 10.96
5/23/2021 8:30:00 AM 12.61 54.698 0.088 7.55 4.41 10.98
5/23/2021 8:45:00 AM 12.72 54.896 0.088 7.57 4.43 11.01
5/23/2021 9:00:00 AM 12.89 55.202 0.088 7.6 4.34 11.08
5/23/2021 9:15:00 AM 13.05 55.49 0.088 7.62 4.34 11.1
5/23/2021 9:30:00 AM 13.16 55.688 0.088 7.63 4.42 11.08
5/23/2021 9:45:00 AM 13.42 56.156 0.088 7.66 4.49 11.1
5/23/2021 10:00:00 AM 13.68 56.624 0.087 7.69 4.43 11.07
5/23/2021 10:15:00 AM 13.96 57.128 0.087 7.7 4.49 11.06
5/23/2021 10:30:00 AM 14.25 57.65 0.087 7.72 4.21 11.01
5/23/2021 10:45:00 AM 14.43 57.974 0.087 7.72 4.16 10.96
5/23/2021 11:00:00 AM 14.56 58.208 0.087 7.74 4.23 10.95
5/23/2021 11:15:00 AM 14.71 58.478 0.087 7.74 4.19 10.89
5/23/2021 11:30:00 AM 14.97 58.946 0.087 7.76 4.45 10.87
5/23/2021 11:45:00 AM 15.13 59.234 0.087 7.76 4.31 10.83
5/23/2021 12:00:00 PM 15.29 59.522 0.087 7.76 4.25 10.78
5/23/2021 12:15:00 PM 15.5 59.9 0.087 7.77 4.08 10.75
5/23/2021 12:30:00 PM 15.68 60.224 0.087 7.78 4.15 10.7
5/23/2021 12:45:00 PM 16.09 60.962 0.087 7.78 4.31 10.66
5/23/2021 1:00:00 PM 16.4 61.52 0.087 7.8 4.28 10.59
5/23/2021 1:15:00 PM 16.61 61.898 0.087 7.79 4.13 10.52
5/23/2021 1:30:00 PM 16.83 62.294 0.087 7.8 4.03 10.47
5/23/2021 1:45:00 PM 17.01 62.618 0.087 7.81 4.3 10.45
5/23/2021 2:00:00 PM 17.23 63.014 0.087 7.81 4.17 10.41
5/23/2021 2:15:00 PM 17.4 63.32 0.087 7.81 4.3 10.34
5/23/2021 2:30:00 PM 17.49 63.482 0.087 7.82 4.18 10.34
5/23/2021 2:45:00 PM 17.52 63.536 0.087 7.81 4.19 10.3
5/23/2021 3:00:00 PM 17.59 63.662 0.087 7.82 4.43 10.29
5/23/2021 3:15:00 PM 17.64 63.752 0.087 7.81 4.43 10.25
5/23/2021 3:30:00 PM 17.74 63.932 0.087 7.81 4.61 10.24
5/23/2021 3:45:00 PM 17.79 64.022 0.087 7.81 4.43 10.22
5/23/2021 4:00:00 PM 17.71 63.878 0.087 7.8 4.61 10.2
5/23/2021 4:15:00 PM 17.62 63.716 0.087 7.8 4.48 10.21
5/23/2021 4:30:00 PM 17.56 63.608 0.087 7.8 4.7 10.2
5/23/2021 4:45:00 PM 17.52 63.536 0.088 7.77 4.74 10.15
5/23/2021 5:00:00 PM 17.44 63.392 0.087 7.77 4.41 10.16
5/23/2021 5:15:00 PM 17.36 63.248 0.087 7.76 4.34 10.16
5/23/2021 5:30:00 PM 17.31 63.158 0.087 7.75 4.47 10.16
5/23/2021 5:45:00 PM 17.25 63.05 0.088 7.75 4.23 10.13
5/23/2021 6:00:00 PM 17.14 62.852 0.088 7.74 4.24 10.14
5/23/2021 6:15:00 PM 17.03 62.654 0.088 7.72 4.66 10.13
5/23/2021 6:30:00 PM 16.9 62.42 0.088 7.71 4.46 10.12
5/23/2021 6:45:00 PM 16.78 62.204 0.088 7.69 4.74 10.07
5/23/2021 7:00:00 PM 16.68 62.024 0.088 7.68 4.62 10.09
5/23/2021 7:15:00 PM 16.57 61.826 0.088 7.67 4.57 10.07
5/23/2021 7:30:00 PM 16.46 61.628 0.088 7.65 4.38 10.05
5/23/2021 7:45:00 PM 16.35 61.43 0.088 7.63 4.77 10
5/23/2021 8:00:00 PM 16.22 61.196 0.089 7.62 4.61 9.96
5/23/2021 8:15:00 PM 16.1 60.98 0.089 7.59 4.62 9.94
5/23/2021 8:30:00 PM 15.97 60.746 0.089 7.58 4.71 9.91
5/23/2021 8:45:00 PM 15.84 60.512 0.089 7.56 4.73 9.91
5/23/2021 9:00:00 PM 15.72 60.296 0.089 7.56 4.81 9.91
5/23/2021 9:15:00 PM 15.6 60.08 0.089 7.55 4.88 9.92
5/23/2021 9:30:00 PM 15.48 59.864 0.089 7.55 5.05 9.92
5/23/2021 9:45:00 PM 15.37 59.666 0.089 7.54 5.29 9.93
5/23/2021 10:00:00 PM 15.27 59.486 0.09 7.54 5.12 9.96
5/23/2021 10:15:00 PM 15.16 59.288 0.09 7.53 5.26 9.99
5/23/2021 10:30:00 PM 15.06 59.108 0.09 7.53 5.23 10
5/23/2021 10:45:00 PM 14.96 58.928 0.09 7.53 5.09 10.03
5/23/2021 11:00:00 PM 14.86 58.748 0.09 7.53 5.41 10.06
5/23/2021 11:15:00 PM 14.77 58.586 0.09 7.52 5.26 10.09
5/23/2021 11:30:00 PM 14.68 58.424 0.09 7.53 5.3 10.12
5/23/2021 11:45:00 PM 14.58 58.244 0.09 7.53 5.33 10.13
5/24/2021 12:00:00 AM 14.5 58.1 0.09 7.53 5.31 10.14
5/24/2021 12:15:00 AM 14.4 57.92 0.09 7.53 5.2 10.15
5/24/2021 12:30:00 AM 14.31 57.758 0.09 7.53 5.34 10.18
5/24/2021 12:45:00 AM 14.22 57.596 0.09 7.53 5.29 10.21
5/24/2021 1:00:00 AM 14.12 57.416 0.09 7.53 5.57 10.24
5/24/2021 1:15:00 AM 14.03 57.254 0.09 7.52 5.26 10.24
5/24/2021 1:30:00 AM 13.94 57.092 0.09 7.52 5.47 10.25
5/24/2021 1:45:00 AM 13.84 56.912 0.09 7.52 5.52 10.29
5/24/2021 2:00:00 AM 13.75 56.75 0.09 7.51 5.51 10.33
5/24/2021 2:15:00 AM 13.64 56.552 0.09 7.51 5.47 10.36
5/24/2021 2:30:00 AM 13.55 56.39 0.09 7.51 5.7 10.36
5/24/2021 2:45:00 AM 13.45 56.21 0.09 7.51 5.67 10.38
5/24/2021 3:00:00 AM 13.35 56.03 0.09 7.52 5.5 10.4
5/24/2021 3:15:00 AM 13.27 55.886 0.09 7.51 6.07 10.43
5/24/2021 3:30:00 AM 13.18 55.724 0.09 7.51 5.74 10.47
5/24/2021 3:45:00 AM 13.09 55.562 0.09 7.51 7.84 10.49
5/24/2021 4:00:00 AM 13.01 55.418 0.09 7.52 5.38 10.5
5/24/2021 4:15:00 AM 12.92 55.256 0.09 7.51 5.57 10.5
5/24/2021 4:30:00 AM 12.84 55.112 0.09 7.51 5.38 10.52
5/24/2021 4:45:00 AM 12.76 54.968 0.09 7.51 5.47 10.56
5/24/2021 5:00:00 AM 12.68 54.824 0.09 7.5 5.84 10.59
5/24/2021 5:15:00 AM 12.61 54.698 0.09 7.51 5.46 10.62
5/24/2021 5:30:00 AM 12.53 54.554 0.09 7.51 5.38 10.62
5/24/2021 5:45:00 AM 12.46 54.428 0.09 7.51 5.24 10.63
5/24/2021 6:00:00 AM 12.39 54.302 0.09 7.51 5.44 10.65
5/24/2021 6:15:00 AM 12.34 54.212 0.09 7.52 5.2 10.69
5/24/2021 6:30:00 AM 12.29 54.122 0.09 7.51 5.55 10.76
5/24/2021 6:45:00 AM 12.26 54.068 0.09 7.54 5.42 10.84
5/24/2021 7:00:00 AM 12.25 54.05 0.09 7.55 5.38 10.92
5/24/2021 7:15:00 AM 12.24 54.032 0.09 7.57 5.66 11
5/24/2021 7:30:00 AM 12.25 54.05 0.09 7.59 4.59 11.07
5/24/2021 7:45:00 AM 12.26 54.068 0.089 7.6 4.82 11.12
5/24/2021 8:00:00 AM 12.29 54.122 0.089 7.61 4.39 11.16
5/24/2021 8:15:00 AM 12.32 54.176 0.089 7.63 4.61 11.18
5/24/2021 8:30:00 AM 12.35 54.23 0.089 7.64 4.62 11.19
5/24/2021 8:45:00 AM 12.42 54.356 0.089 7.65 4.46 11.2
5/24/2021 9:00:00 AM 12.54 54.572 0.089 7.67 4.66 11.25
5/24/2021 9:15:00 AM 12.68 54.824 0.089 7.7 4.79 11.3
5/24/2021 9:30:00 AM 12.83 55.094 0.089 7.7 4.65 11.29
5/24/2021 9:45:00 AM 12.94 55.292 0.089 7.72 4.56 11.27
5/24/2021 10:00:00 AM 13.19 55.742 0.089 7.74 4.56 11.3
5/24/2021 10:15:00 AM 13.42 56.156 0.088 7.74 5.24 11.24
5/24/2021 10:30:00 AM 13.68 56.624 0.088 7.75 4.75 11.23
5/24/2021 10:45:00 AM 13.97 57.146 0.088 7.76 4.78 11.16
5/24/2021 11:00:00 AM 14.22 57.596 0.088 7.77 4.6 11.15
5/24/2021 11:15:00 AM 14.53 58.154 0.088 7.79 4.74 11.06
5/24/2021 11:30:00 AM 14.91 58.838 0.088 7.79 4.66 11.03
5/24/2021 11:45:00 AM 15.24 59.432 0.088 7.8 4.72 10.98
5/24/2021 12:00:00 PM 15.55 59.99 0.088 7.81 4.54 10.89
5/24/2021 12:15:00 PM 15.81 60.458 0.088 7.81 4.65 10.84
5/24/2021 12:30:00 PM 16.14 61.052 0.088 7.82 4.62 10.79
5/24/2021 12:45:00 PM 16.28 61.304 0.088 7.83 4.72 10.73
5/24/2021 1:00:00 PM 16.29 61.322 0.088 7.83 4.65 10.67
5/24/2021 1:15:00 PM 16.29 61.322 0.088 7.83 4.43 10.64
5/24/2021 1:30:00 PM 16.26 61.268 0.088 7.83 4.19 10.63
5/24/2021 1:45:00 PM 16.22 61.196 0.088 7.84 4.01 10.63
5/24/2021 2:00:00 PM 16.19 61.142 0.088 7.84 3.85 10.62
5/24/2021 2:15:00 PM 16.12 61.016 0.08 7.83 3.86 10.58
5/24/2021 2:30:00 PM 16.03 60.854 0.088 7.81 3.4 10.56
5/24/2021 2:45:00 PM 15.99 60.782 0.085 7.81 3.93 10.6
5/24/2021 3:00:00 PM 15.99 60.782 0.088 7.83 3.59 10.62
5/24/2021 3:15:00 PM 16.04 60.872 0.088 7.83 3.75 10.62
5/24/2021 3:30:00 PM 16.1 60.98 0.088 7.84 3.74 10.6
5/24/2021 3:45:00 PM 16.18 61.124 0.088 7.83 3.92 10.59
5/24/2021 4:00:00 PM 16.32 61.376 0.088 7.82 3.78 10.55
5/24/2021 4:15:00 PM 16.49 61.682 0.088 7.83 3.91 10.5
5/24/2021 4:30:00 PM 16.61 61.898 0.088 7.83 3.79 10.49
5/24/2021 4:45:00 PM 16.71 62.078 0.088 7.82 3.91 10.44
5/24/2021 5:00:00 PM 16.79 62.222 0.088 7.81 4.02 10.39
5/24/2021 5:15:00 PM 16.83 62.294 0.088 7.8 3.72 10.35
5/24/2021 5:30:00 PM 16.86 62.348 0.088 7.8 4.04 10.36
5/24/2021 5:45:00 PM 16.79 62.222 0.088 7.8 3.7 10.35
5/24/2021 6:00:00 PM 16.62 61.916 0.089 7.78 3.92 10.33
5/24/2021 6:15:00 PM 16.41 61.538 0.089 7.76 3.53 10.32
5/24/2021 6:30:00 PM 16.22 61.196 0.089 7.75 3.71 10.33
5/24/2021 6:45:00 PM 16.06 60.908 0.089 7.73 3.52 10.3
5/24/2021 7:00:00 PM 15.92 60.656 0.089 7.71 3.77 10.3
5/24/2021 7:15:00 PM 15.78 60.404 0.089 7.69 3.82 10.29
5/24/2021 7:30:00 PM 15.63 60.134 0.089 7.68 3.35 10.24
5/24/2021 7:45:00 PM 15.49 59.882 0.089 7.66 3.72 10.22
5/24/2021 8:00:00 PM 15.36 59.648 0.089 7.65 3.52 10.21
5/24/2021 8:15:00 PM 15.21 59.378 0.09 7.62 3.77 10.19
5/24/2021 8:30:00 PM 15.08 59.144 0.09 7.6 3.9 10.16
5/24/2021 8:45:00 PM 14.96 58.928 0.09 7.6 3.7 10.14
5/24/2021 9:00:00 PM 14.84 58.712 0.09 7.58 3.66 10.15
5/24/2021 9:15:00 PM 14.73 58.514 0.09 7.57 3.89 10.16
5/24/2021 9:30:00 PM 14.63 58.334 0.09 7.56 4.15 10.15
5/24/2021 9:45:00 PM 14.54 58.172 0.09 7.56 4.39 10.15
5/24/2021 10:00:00 PM 14.46 58.028 0.091 7.55 3.92 10.16
5/24/2021 10:15:00 PM 14.37 57.866 0.091 7.55 4.03 10.19
5/24/2021 10:30:00 PM 14.3 57.74 0.091 7.54 3.74 10.21
5/24/2021 10:45:00 PM 14.24 57.632 0.091 7.54 3.9 10.23
5/24/2021 11:00:00 PM 14.17 57.506 0.091 7.54 4.08 10.24
5/24/2021 11:15:00 PM 14.11 57.398 0.091 7.54 3.99 10.24
5/24/2021 11:30:00 PM 14.06 57.308 0.091 7.53 4.06 10.24
5/24/2021 11:45:00 PM 14.01 57.218 0.091 7.53 4.11 10.25
5/25/2021 12:00:00 AM 13.96 57.128 0.091 7.53 3.86 10.26
5/25/2021 12:15:00 AM 13.91 57.038 0.091 7.53 4.09 10.28
5/25/2021 12:30:00 AM 13.87 56.966 0.091 7.52 4.05 10.3
5/25/2021 12:45:00 AM 13.83 56.894 0.091 7.53 7.95 10.31
5/25/2021 1:00:00 AM 13.79 56.822 0.091 7.53 4.23 10.33
5/25/2021 1:15:00 AM 13.75 56.75 0.091 7.53 4.18 10.34
5/25/2021 1:30:00 AM 13.71 56.678 0.091 7.52 4.06 10.35
5/25/2021 1:45:00 AM 13.68 56.624 0.091 7.52 4.29 10.36
5/25/2021 2:00:00 AM 13.64 56.552 0.091 7.52 3.88 10.36
5/25/2021 2:15:00 AM 13.6 56.48 0.091 7.52 4.09 10.36
5/25/2021 2:30:00 AM 13.57 56.426 0.091 7.51 4.31 10.37
5/25/2021 2:45:00 AM 13.54 56.372 0.091 7.53 3.96 10.37
5/25/2021 3:00:00 AM 13.51 56.318 0.091 7.52 4.49 10.36
5/25/2021 3:15:00 AM 13.48 56.264 0.091 7.52 4.29 10.37
5/25/2021 3:30:00 AM 13.45 56.21 0.091 7.53 4.14 10.38
5/25/2021 3:45:00 AM 13.43 56.174 0.091 7.52 4.43 10.37
5/25/2021 4:00:00 AM 13.4 56.12 0.091 7.52 4.34 10.4
5/25/2021 4:15:00 AM 13.37 56.066 0.091 7.53 4.23 10.4
5/25/2021 4:30:00 AM 13.35 56.03 0.091 7.52 4.08 10.42
5/25/2021 4:45:00 AM 13.32 55.976 0.091 7.52 4.19 10.43
5/25/2021 5:00:00 AM 13.3 55.94 0.091 7.52 4.35 10.44
5/25/2021 5:15:00 AM 13.27 55.886 0.091 7.52 4.29 10.46
5/25/2021 5:30:00 AM 13.25 55.85 0.091 7.52 4.24 10.46
5/25/2021 5:45:00 AM 13.23 55.814 0.091 7.52 4.3 10.47
5/25/2021 6:00:00 AM 13.21 55.778 0.091 7.52 4.49 10.48
5/25/2021 6:15:00 AM 13.19 55.742 0.091 7.52 4.37 10.5
5/25/2021 6:30:00 AM 13.17 55.706 0.091 7.53 4.51 10.53
5/25/2021 6:45:00 AM 13.15 55.67 0.091 7.53 4.48 10.56
5/25/2021 7:00:00 AM 13.15 55.67 0.091 7.54 4.32 10.6
5/25/2021 7:15:00 AM 13.14 55.652 0.091 7.54 4.34 10.64
5/25/2021 7:30:00 AM 13.14 55.652 0.091 7.56 4.43 10.67
5/25/2021 7:45:00 AM 13.13 55.634 0.091 7.57 4.83 10.71
5/25/2021 8:00:00 AM 13.14 55.652 0.091 7.58 4.5 10.75
5/25/2021 8:15:00 AM 13.16 55.688 0.091 7.59 4.42 10.81
5/25/2021 8:30:00 AM 13.19 55.742 0.091 7.62 4.64 10.89
5/25/2021 8:45:00 AM 13.23 55.814 0.09 7.63 4.43 10.94
5/25/2021 9:00:00 AM 13.28 55.904 0.09 7.65 4.22 10.98
5/25/2021 9:15:00 AM 13.33 55.994 0.09 7.67 4.58 11
5/25/2021 9:30:00 AM 13.39 56.102 0.09 7.68 4.7 11.01
5/25/2021 9:45:00 AM 13.46 56.228 0.09 7.7 4.56 11.04
5/25/2021 10:00:00 AM 13.55 56.39 0.09 7.72 4.19 11.09
5/25/2021 10:15:00 AM 13.64 56.552 0.09 7.73 4.51 11.12
5/25/2021 10:30:00 AM 13.75 56.75 0.09 7.75 4.47 11.13
5/25/2021 10:45:00 AM 13.89 57.002 0.09 7.76 4.68 11.13
5/25/2021 11:00:00 AM 14.06 57.308 0.09 7.78 4.28 11.14
5/25/2021 11:15:00 AM 14.21 57.578 0.089 7.79 4.57 11.14
5/25/2021 11:30:00 AM 14.34 57.812 0.089 7.8 4.49 11.11
5/25/2021 11:45:00 AM 14.55 58.19 0.089 7.82 4.13 11.09
5/25/2021 12:00:00 PM 14.73 58.514 0.089 7.83 4.7 11.08
5/25/2021 12:15:00 PM 14.98 58.964 0.089 7.84 4.19 11.03
5/25/2021 12:30:00 PM 15.21 59.378 0.089 7.85 4.59 11
5/25/2021 12:45:00 PM 15.49 59.882 0.089 7.86 4.48 10.94
5/25/2021 1:00:00 PM 15.91 60.638 0.089 7.87 4.26 10.89
5/25/2021 1:15:00 PM 16.35 61.43 0.089 7.88 4.44 10.8
5/25/2021 1:30:00 PM 16.7 62.06 0.089 7.87 4.27 10.72
5/25/2021 1:45:00 PM 17.01 62.618 0.089 7.89 4.47 10.64
5/25/2021 2:00:00 PM 17.27 63.086 0.089 7.89 3.93 10.55
5/25/2021 2:15:00 PM 17.47 63.446 0.089 7.89 4.45 10.51
5/25/2021 2:30:00 PM 17.61 63.698 0.089 7.89 4.19 10.44
5/25/2021 2:45:00 PM 17.68 63.824 0.089 7.87 4.43 10.36
5/25/2021 3:00:00 PM 17.8 64.04 0.089 7.86 4.39 10.31
5/25/2021 3:15:00 PM 17.97 64.346 0.089 7.85 4.28 10.25
5/25/2021 3:30:00 PM 18.15 64.67 0.089 7.85 4.4 10.22
5/25/2021 3:45:00 PM 18.27 64.886 0.089 7.85 4.28 10.18
5/25/2021 4:00:00 PM 18.38 65.084 0.089 7.84 4.09 10.13
5/25/2021 4:15:00 PM 18.46 65.228 0.09 7.83 4.39 10.08
5/25/2021 4:30:00 PM 18.42 65.156 0.09 7.8 4.41 10.01
5/25/2021 4:45:00 PM 18.29 64.922 0.09 7.8 4.15 10.01
5/25/2021 5:00:00 PM 18.17 64.706 0.09 7.78 4.54 10.01
5/25/2021 5:15:00 PM 18.11 64.598 0.09 7.78 4.21 10
5/25/2021 5:30:00 PM 18.07 64.526 0.09 7.77 4.09 9.99
5/25/2021 5:45:00 PM 18.01 64.418 0.09 7.76 4.23 9.98
5/25/2021 6:00:00 PM 17.92 64.256 0.09 7.75 4.06 9.97
5/25/2021 6:15:00 PM 17.8 64.04 0.09 7.75 4.27 9.98
5/25/2021 6:30:00 PM 17.65 63.77 0.09 7.73 4.36 9.97
5/25/2021 6:45:00 PM 17.48 63.464 0.09 7.72 4.15 9.96
5/25/2021 7:00:00 PM 17.31 63.158 0.09 7.7 4.36 9.95
5/25/2021 7:15:00 PM 17.15 62.87 0.091 7.69 3.81 9.96
5/25/2021 7:30:00 PM 17.01 62.618 0.091 7.67 3.86 9.96
5/25/2021 7:45:00 PM 16.88 62.384 0.091 7.67 4.23 9.94
5/25/2021 8:00:00 PM 16.77 62.186 0.091 7.65 3.95 9.93
5/25/2021 8:15:00 PM 16.65 61.97 0.091 7.63 4.53 9.9
5/25/2021 8:30:00 PM 16.53 61.754 0.091 7.61 4.39 9.85
5/25/2021 8:45:00 PM 16.42 61.556 0.091 7.6 4.2 9.81
5/25/2021 9:00:00 PM 16.31 61.358 0.091 7.58 5.01 9.78
5/25/2021 9:15:00 PM 16.19 61.142 0.092 7.57 4.48 9.79
5/25/2021 9:30:00 PM 16.06 60.908 0.092 7.55 4.86 9.79
5/25/2021 9:45:00 PM 15.94 60.692 0.092 7.54 4.97 9.79
5/25/2021 10:00:00 PM 15.83 60.494 0.092 7.53 4.31 9.81
5/25/2021 10:15:00 PM 15.7 60.26 0.092 7.52 4.73 9.84
5/25/2021 10:30:00 PM 15.59 60.062 0.092 7.51 4.87 9.84
5/25/2021 10:45:00 PM 15.49 59.882 0.092 7.51 4.79 9.86
5/25/2021 11:00:00 PM 15.38 59.684 0.092 7.5 4.45 9.88
5/25/2021 11:15:00 PM 15.28 59.504 0.092 7.5 4.77 9.91
5/25/2021 11:30:00 PM 15.18 59.324 0.092 7.49 4.02 9.93
5/25/2021 11:45:00 PM 15.08 59.144 0.092 7.49 5.08 9.95
5/26/2021 12:00:00 AM 14.98 58.964 0.093 7.49 4.89 9.97
5/26/2021 12:15:00 AM 14.89 58.802 0.093 7.49 4.81 9.98
5/26/2021 12:30:00 AM 14.81 58.658 0.093 7.48 4.86 10.01
5/26/2021 12:45:00 AM 14.72 58.496 0.093 7.48 4.66 10.04
5/26/2021 1:00:00 AM 14.63 58.334 0.093 7.48 4.93 10.05
5/26/2021 1:15:00 AM 14.56 58.208 0.093 7.48 4.69 10.07
5/26/2021 1:30:00 AM 14.48 58.064 0.093 7.48 4.87 10.08
5/26/2021 1:45:00 AM 14.41 57.938 0.093 7.48 4.39 10.09
5/26/2021 2:00:00 AM 14.35 57.83 0.093 7.48 5.02 10.1
5/26/2021 2:15:00 AM 14.28 57.704 0.093 7.48 4.55 10.12
5/26/2021 2:30:00 AM 14.22 57.596 0.093 7.48 5.12 10.14
5/26/2021 2:45:00 AM 14.17 57.506 0.093 7.47 4.63 10.17
5/26/2021 3:00:00 AM 14.12 57.416 0.093 7.48 4.62 10.18
5/26/2021 3:15:00 AM 14.07 57.326 0.093 7.48 5.08 10.19
5/26/2021 3:30:00 AM 14.02 57.236 0.093 7.47 4.63 10.2
5/26/2021 3:45:00 AM 13.98 57.164 0.093 7.47 4.42 10.2
5/26/2021 4:00:00 AM 13.94 57.092 0.093 7.47 4.43 10.21
5/26/2021 4:15:00 AM 13.9 57.02 0.093 7.48 4.82 10.22
5/26/2021 4:30:00 AM 13.86 56.948 0.093 7.47 4.94 10.22
5/26/2021 4:45:00 AM 13.82 56.876 0.093 7.47 4.7 10.23
5/26/2021 5:00:00 AM 13.78 56.804 0.093 7.46 4.76 10.23
5/26/2021 5:15:00 AM 13.74 56.732 0.093 7.47 4.75 10.24
5/26/2021 5:30:00 AM 13.69 56.642 0.093 7.46 5.04 10.26
5/26/2021 5:45:00 AM 13.64 56.552 0.093 7.47 4.59 10.28
5/26/2021 6:00:00 AM 13.6 56.48 0.093 7.47 5.2 10.3
5/26/2021 6:15:00 AM 13.56 56.408 0.093 7.47 5.36 10.33
5/26/2021 6:30:00 AM 13.53 56.354 0.093 7.47 4.33 10.37
5/26/2021 6:45:00 AM 13.51 56.318 0.093 7.49 4.31 10.43
5/26/2021 7:00:00 AM 13.5 56.3 0.093 7.5 4.94 10.5
5/26/2021 7:15:00 AM 13.51 56.318 0.093 7.52 5.6 10.57
5/26/2021 7:30:00 AM 13.52 56.336 0.093 7.54 5.3 10.64
5/26/2021 7:45:00 AM 13.53 56.354 0.092 7.55 5.31 10.69
5/26/2021 8:00:00 AM 13.55 56.39 0.092 7.56 5.67 10.73
5/26/2021 8:15:00 AM 13.61 56.498 0.092 7.58 5 10.78
5/26/2021 8:30:00 AM 13.65 56.57 0.092 7.6 5.58 10.82
5/26/2021 8:45:00 AM 13.71 56.678 0.092 7.62 5.77 10.86
5/26/2021 9:00:00 AM 13.82 56.876 0.092 7.64 5.6 10.9
5/26/2021 9:15:00 AM 13.96 57.128 0.092 7.65 5.81 10.96
5/26/2021 9:30:00 AM 14.08 57.344 0.091 7.67 5.77 10.98
5/26/2021 9:45:00 AM 14.27 57.686 0.091 7.69 5.5 10.96
5/26/2021 10:00:00 AM 14.55 58.19 0.091 7.72 5.76 10.97
5/26/2021 10:15:00 AM 14.83 58.694 0.091 7.74 5.84 10.92
5/26/2021 10:30:00 AM 15.09 59.162 0.091 7.75 5.83 10.91
5/26/2021 10:45:00 AM 15.38 59.684 0.091 7.77 6.01 10.86
5/26/2021 11:00:00 AM 15.7 60.26 0.091 7.79 5.91 10.83
5/26/2021 11:15:00 AM 16.05 60.89 0.091 7.81 5.92 10.79
5/26/2021 11:30:00 AM 16.41 61.538 0.091 7.82 5.99 10.73
5/26/2021 11:45:00 AM 16.77 62.186 0.091 7.83 5.93 10.67
5/26/2021 12:00:00 PM 17.11 62.798 0.091 7.84 4.81 10.6
5/26/2021 12:15:00 PM 17.38 63.284 0.091 7.85 4.87 10.52
5/26/2021 12:30:00 PM 17.33 63.194 0.091 7.81 4.93 10.35
5/26/2021 12:45:00 PM 17.36 63.248 0.091 7.81 5.06 10.3
5/26/2021 1:00:00 PM 17.62 63.716 0.091 7.82 5.43 10.32
5/26/2021 1:15:00 PM 17.68 63.824 0.091 7.82 5.1 10.27
5/26/2021 1:30:00 PM 17.65 63.77 0.091 7.8 5.16 10.19
5/26/2021 1:45:00 PM 17.69 63.842 0.091 7.8 4.9 10.19
5/26/2021 2:00:00 PM 17.63 63.734 0.091 7.78 5.01 10.09
5/26/2021 2:15:00 PM 17.6 63.68 0.09 7.76 5.16 10.08
5/26/2021 2:30:00 PM 17.68 63.824 0.09 7.79 5.06 10.12
5/26/2021 2:45:00 PM 17.88 64.184 0.09 7.79 5.18 10.15
5/26/2021 3:00:00 PM 18.08 64.544 0.09 7.8 5.1 10.1
5/26/2021 3:15:00 PM 18.24 64.832 0.09 7.8 5.16 10.08
5/26/2021 3:30:00 PM 18.36 65.048 0.09 7.81 5.08 10.08
5/26/2021 3:45:00 PM 18.45 65.21 0.09 7.82 5.12 10.06
5/26/2021 4:00:00 PM 18.58 65.444 0.09 7.81 5.04 9.98
5/26/2021 4:15:00 PM 18.67 65.606 0.09 7.79 5.1 9.94
5/26/2021 4:30:00 PM 18.77 65.786 0.091 7.8 5.18 9.92
5/26/2021 4:45:00 PM 18.76 65.768 0.091 7.76 5.08 9.81
5/26/2021 5:00:00 PM 18.64 65.552 0.09 7.72 6.05 9.62
5/26/2021 5:15:00 PM 18.43 65.174 0.09 7.69 6.11 9.58
5/26/2021 5:30:00 PM 18.24 64.832 0.09 7.68 5.57 9.65
5/26/2021 5:45:00 PM 18.09 64.562 0.09 7.67 5.6 9.7
5/26/2021 6:00:00 PM 17.96 64.328 0.09 7.67 5.65 9.75
5/26/2021 6:15:00 PM 17.84 64.112 0.09 7.68 5.58 9.81
5/26/2021 6:30:00 PM 17.72 63.896 0.091 7.67 5.45 9.82
5/26/2021 6:45:00 PM 17.6 63.68 0.091 7.66 5.52 9.84
5/26/2021 7:00:00 PM 17.48 63.464 0.091 7.65 5.53 9.82
5/26/2021 7:15:00 PM 17.34 63.212 0.091 7.65 4.83 9.82
5/26/2021 7:30:00 PM 17.22 62.996 0.091 7.63 4.98 9.78
5/26/2021 7:45:00 PM 17.06 62.708 0.092 7.6 4.64 9.72
5/26/2021 8:00:00 PM 16.92 62.456 0.092 7.58 4.35 9.68
5/26/2021 8:15:00 PM 16.78 62.204 0.092 7.57 4.71 9.65
5/26/2021 8:30:00 PM 16.64 61.952 0.092 7.55 4.8 9.63
5/26/2021 8:45:00 PM 16.52 61.736 0.093 7.53 4.92 9.62
5/26/2021 9:00:00 PM 16.39 61.502 0.093 7.52 4.94 9.62
5/26/2021 9:15:00 PM 16.28 61.304 0.093 7.51 5.02 9.62
5/26/2021 9:30:00 PM 16.17 61.106 0.093 7.49 4.84 9.63
5/26/2021 9:45:00 PM 16.06 60.908 0.093 7.49 5.2 9.65
5/26/2021 10:00:00 PM 15.94 60.692 0.093 7.49 5.22 9.67
5/26/2021 10:15:00 PM 15.83 60.494 0.093 7.49 5.11 9.69
5/26/2021 10:30:00 PM 15.71 60.278 0.093 7.49 5.12 9.7
5/26/2021 10:45:00 PM 15.59 60.062 0.093 7.49 5.46 9.74
5/26/2021 11:00:00 PM 15.48 59.864 0.094 7.49 5.81 9.77
5/26/2021 11:15:00 PM 15.37 59.666 0.094 7.49 5.42 9.79
5/26/2021 11:30:00 PM 15.25 59.45 0.094 7.49 5.28 9.81
5/26/2021 11:45:00 PM 15.15 59.27 0.094 7.5 5.96 9.84
5/27/2021 12:00:00 AM 15.05 59.09 0.094 7.5 5.24 9.87
5/27/2021 12:15:00 AM 14.96 58.928 0.094 7.49 6.06 9.89
5/27/2021 12:30:00 AM 14.88 58.784 0.094 7.49 6.58 9.9
5/27/2021 12:45:00 AM 14.8 58.64 0.094 7.48 5.8 9.92
5/27/2021 1:00:00 AM 14.74 58.532 0.094 7.49 6.23 9.93
5/27/2021 1:15:00 AM 14.68 58.424 0.094 7.49 7.45 9.95
5/27/2021 1:30:00 AM 14.62 58.316 0.094 7.48 5.27 9.97
5/27/2021 1:45:00 AM 14.56 58.208 0.094 7.48 5.35 9.99
5/27/2021 2:00:00 AM 14.5 58.1 0.094 7.48 5.29 10.01
5/27/2021 2:15:00 AM 14.43 57.974 0.094 7.48 5.36 10.03
5/27/2021 2:30:00 AM 14.36 57.848 0.094 7.48 5.78 10.04
5/27/2021 2:45:00 AM 14.3 57.74 0.094 7.48 5.24 10.04
5/27/2021 3:00:00 AM 14.23 57.614 0.094 7.48 5.04 10.05
5/27/2021 3:15:00 AM 14.16 57.488 0.094 7.48 5.2 10.07
5/27/2021 3:30:00 AM 14.11 57.398 0.094 7.47 4.92 10.1
5/27/2021 3:45:00 AM 14.05 57.29 0.094 7.47 5.04 10.12
5/27/2021 4:00:00 AM 13.98 57.164 0.094 7.48 5.13 10.13
5/27/2021 4:15:00 AM 13.92 57.056 0.094 7.48 5.03 10.16
5/27/2021 4:30:00 AM 13.85 56.93 0.094 7.48 5.19 10.16
5/27/2021 4:45:00 AM 13.78 56.804 0.094 7.48 5.16 10.17
5/27/2021 5:00:00 AM 13.7 56.66 0.094 7.48 5.36 10.18
5/27/2021 5:15:00 AM 13.64 56.552 0.094 7.48 5.19 10.2
5/27/2021 5:30:00 AM 13.56 56.408 0.094 7.48 5.2 10.23
5/27/2021 5:45:00 AM 13.49 56.282 0.094 7.48 5.62 10.26
5/27/2021 6:00:00 AM 13.41 56.138 0.094 7.48 5.76 10.29
5/27/2021 6:15:00 AM 13.35 56.03 0.093 7.48 5.57 10.33
5/27/2021 6:30:00 AM 13.29 55.922 0.094 7.49 5.51 10.37
5/27/2021 6:45:00 AM 13.23 55.814 0.094 7.5 5.73 10.41
5/27/2021 7:00:00 AM 13.18 55.724 0.094 7.5 5.54 10.45
5/27/2021 7:15:00 AM 13.13 55.634 0.094 7.51 5.66 10.5
5/27/2021 7:30:00 AM 13.09 55.562 0.094 7.53 5.75 10.54
5/27/2021 7:45:00 AM 13.07 55.526 0.094 7.54 5.56 10.6
5/27/2021 8:00:00 AM 13.05 55.49 0.094 7.54 5.75 10.66
5/27/2021 8:15:00 AM 13.05 55.49 0.094 7.56 5.64 10.7
5/27/2021 8:30:00 AM 13.08 55.544 0.094 7.58 5.63 10.73
5/27/2021 8:45:00 AM 13.14 55.652 0.093 7.6 5.7 10.78
5/27/2021 9:00:00 AM 13.26 55.868 0.093 7.62 5.7 10.84
5/27/2021 9:15:00 AM 13.42 56.156 0.093 7.64 5.76 10.9
5/27/2021 9:30:00 AM 13.61 56.498 0.093 7.66 5.74 10.92
5/27/2021 9:45:00 AM 13.81 56.858 0.093 7.67 5.56 10.91
5/27/2021 10:00:00 AM 14.03 57.254 0.093 7.68 5.36 10.93
5/27/2021 10:15:00 AM 14.25 57.65 0.093 7.69 5.5 10.89
5/27/2021 10:30:00 AM 14.48 58.064 0.093 7.71 5.57 10.89
5/27/2021 10:45:00 AM 14.73 58.514 0.093 7.72 5.25 10.86
5/27/2021 11:00:00 AM 15 59 0.093 7.73 5.68 10.84
5/27/2021 11:15:00 AM 15.33 59.594 0.093 7.74 5.33 10.8
5/27/2021 11:30:00 AM 15.63 60.134 0.093 7.75 5.41 10.76
5/27/2021 11:45:00 AM 15.97 60.746 0.092 7.77 5.37 10.72
5/27/2021 12:00:00 PM 16.3 61.34 0.092 7.77 5.66 10.65
5/27/2021 12:15:00 PM 16.58 61.844 0.092 7.79 6.13 10.6
5/27/2021 12:30:00 PM 16.88 62.384 0.092 7.79 5.83 10.54
5/27/2021 12:45:00 PM 17.13 62.834 0.092 7.8 5.94 10.48
5/27/2021 1:00:00 PM 17.36 63.248 0.092 7.8 5.8 10.41
5/27/2021 1:15:00 PM 17.56 63.608 0.092 7.8 5.76 10.34
5/27/2021 1:30:00 PM 17.75 63.95 0.092 7.8 5.74 10.27
5/27/2021 1:45:00 PM 17.92 64.256 0.092 7.8 5.88 10.21
5/27/2021 2:00:00 PM 18.09 64.562 0.092 7.79 5.78 10.15
5/27/2021 2:15:00 PM 18.24 64.832 0.092 7.8 6.43 10.12
5/27/2021 2:30:00 PM 18.36 65.048 0.092 7.81 6.15 10.11
5/27/2021 2:45:00 PM 18.49 65.282 0.092 7.83 6.05 10.12
5/27/2021 3:00:00 PM 18.56 65.408 0.092 7.84 5.88 10.1
5/27/2021 3:15:00 PM 18.54 65.372 0.092 7.84 5.84 10.07
5/27/2021 3:30:00 PM 18.57 65.426 0.092 7.84 5.9 10.11
5/27/2021 3:45:00 PM 18.55 65.39 0.092 7.84 5.9 10.05
5/27/2021 4:00:00 PM 18.46 65.228 0.093 7.81 5.94 9.99
5/27/2021 4:15:00 PM 18.42 65.156 0.093 7.8 5.96 9.94
5/27/2021 4:30:00 PM 18.42 65.156 0.093 7.78 6.03 9.91
5/27/2021 4:45:00 PM 18.39 65.102 0.093 7.77 6.17 9.88
5/27/2021 5:00:00 PM 18.34 65.012 0.093 7.77 6.15 9.91
5/27/2021 5:15:00 PM 18.27 64.886 0.093 7.79 5.93 9.96
5/27/2021 5:30:00 PM 18.11 64.598 0.093 7.77 6.04 9.92
5/27/2021 5:45:00 PM 17.93 64.274 0.093 7.75 5.91 9.9
5/27/2021 6:00:00 PM 17.75 63.95 0.093 7.75 6.06 9.9
5/27/2021 6:15:00 PM 17.56 63.608 0.093 7.73 6.12 9.89
5/27/2021 6:30:00 PM 17.36 63.248 0.093 7.72 6.22 9.88
5/27/2021 6:45:00 PM 17.14 62.852 0.093 7.69 6.36 9.89
5/27/2021 7:00:00 PM 16.91 62.438 0.093 7.68 6.39 9.88
5/27/2021 7:15:00 PM 16.7 62.06 0.094 7.67 6.59 9.89
5/27/2021 7:30:00 PM 16.48 61.664 0.094 7.66 6.49 9.92
5/27/2021 7:45:00 PM 16.29 61.322 0.094 7.64 6.4 9.93
5/27/2021 8:00:00 PM 16.09 60.962 0.094 7.63 6.11 9.92
5/27/2021 8:15:00 PM 15.92 60.656 0.094 7.61 6.02 9.92
5/27/2021 8:30:00 PM 15.74 60.332 0.094 7.61 7.55 9.9
5/27/2021 8:45:00 PM 15.57 60.026 0.094 7.59 6 9.9
5/27/2021 9:00:00 PM 15.41 59.738 0.095 7.57 5.9 9.9
5/27/2021 9:15:00 PM 15.24 59.432 0.095 7.56 6.01 9.89
5/27/2021 9:30:00 PM 15.1 59.18 0.095 7.55 5.93 9.91
5/27/2021 9:45:00 PM 14.96 58.928 0.095 7.55 6.31 9.94
5/27/2021 10:00:00 PM 14.82 58.676 0.095 7.55 6.3 9.95
5/27/2021 10:15:00 PM 14.67 58.406 0.095 7.53 6.29 9.97
5/27/2021 10:30:00 PM 14.55 58.19 0.095 7.53 6.37 10
5/27/2021 10:45:00 PM 14.43 57.974 0.095 7.53 6.58 10.03
5/27/2021 11:00:00 PM 14.31 57.758 0.095 7.53 6.39 10.05
5/27/2021 11:15:00 PM 14.2 57.56 0.095 7.52 8.54 10.07
5/27/2021 11:30:00 PM 14.1 57.38 0.095 7.52 6.26 10.09
5/27/2021 11:45:00 PM 14 57.2 0.095 7.52 6.34 10.13
5/28/2021 12:00:00 AM 13.92 57.056 0.095 7.52 6.3 10.15
5/28/2021 12:15:00 AM 13.84 56.912 0.095 7.52 6.57 10.17
5/28/2021 12:30:00 AM 13.76 56.768 0.095 7.52 6.47 10.18
5/28/2021 12:45:00 AM 13.69 56.642 0.095 7.52 6.28 10.19
5/28/2021 1:00:00 AM 13.61 56.498 0.095 7.52 6.58 10.21
5/28/2021 1:15:00 AM 13.54 56.372 0.095 7.52 6.42 10.23
5/28/2021 1:30:00 AM 13.47 56.246 0.095 7.52 5.62 10.26
5/28/2021 1:45:00 AM 13.41 56.138 0.095 7.52 6.12 10.28
5/28/2021 2:00:00 AM 13.35 56.03 0.095 7.52 5.45 10.3
5/28/2021 2:15:00 AM 13.29 55.922 0.095 7.52 5.68 10.3
5/28/2021 2:30:00 AM 13.23 55.814 0.095 7.52 5.43 10.31
5/28/2021 2:45:00 AM 13.16 55.688 0.095 7.52 5.18 10.32
5/28/2021 3:00:00 AM 13.09 55.562 0.095 7.5 5.29 10.33
5/28/2021 3:15:00 AM 13.02 55.436 0.095 7.51 5.5 10.34
5/28/2021 3:30:00 AM 12.95 55.31 0.095 7.51 5.93 10.37
5/28/2021 3:45:00 AM 12.88 55.184 0.095 7.51 5.37 10.39
5/28/2021 4:00:00 AM 12.81 55.058 0.095 7.51 5.5 10.42
5/28/2021 4:15:00 AM 12.73 54.914 0.095 7.52 5.69 10.43
5/28/2021 4:30:00 AM 12.65 54.77 0.095 7.52 5.63 10.44
5/28/2021 4:45:00 AM 12.58 54.644 0.095 7.52 5.36 10.45
5/28/2021 5:00:00 AM 12.5 54.5 0.095 7.52 5.57 10.46
5/28/2021 5:15:00 AM 12.44 54.392 0.095 7.52 5.77 10.49
5/28/2021 5:30:00 AM 12.38 54.284 0.095 7.52 5.49 10.52
5/28/2021 5:45:00 AM 12.32 54.176 0.095 7.52 6.95 10.54
5/28/2021 6:00:00 AM 12.27 54.086 0.095 7.52 5.51 10.57
5/28/2021 6:15:00 AM 12.23 54.014 0.095 7.53 5.68 10.59
5/28/2021 6:30:00 AM 12.19 53.942 0.095 7.53 5.58 10.62
5/28/2021 6:45:00 AM 12.17 53.906 0.095 7.54 5.25 10.64
5/28/2021 7:00:00 AM 12.14 53.852 0.095 7.54 5.55 10.69
5/28/2021 7:15:00 AM 12.13 53.834 0.095 7.56 5.2 10.74
5/28/2021 7:30:00 AM 12.12 53.816 0.095 7.57 5.18 10.8
5/28/2021 7:45:00 AM 12.11 53.798 0.095 7.58 5.32 10.83
5/28/2021 8:00:00 AM 12.11 53.798 0.095 7.58 5.56 10.85
5/28/2021 8:15:00 AM 12.11 53.798 0.095 7.59 5.4 10.88
5/28/2021 8:30:00 AM 12.12 53.816 0.095 7.6 5.24 10.9
5/28/2021 8:45:00 AM 12.13 53.834 0.095 7.61 5.37 10.93
5/28/2021 9:00:00 AM 12.13 53.834 0.095 7.61 5.32 10.94
5/28/2021 9:15:00 AM 12.14 53.852 0.094 7.62 5.74 10.98
5/28/2021 9:30:00 AM 12.16 53.888 0.094 7.63 5.54 11.05
5/28/2021 9:45:00 AM 12.21 53.978 0.094 7.65 5.54 11.13
5/28/2021 10:00:00 AM 12.25 54.05 0.094